<?xml version="1.0" encoding="UTF-8" standalone="no" ?>
<gpx xmlns="http://www.topografix.com/GPX/1/1" xmlns:xsi="http://www.w3.org/2001/XMLSchema-instance" xsi:schemaLocation="http://www.topografix.com/GPX/1/1 http://www.topografix.com/GPX/1/1/gpx.xsd" version="1.1" creator="VisuGPX - https://www.visugpx.com">
  <metadata>
    <name>lundi 2017 05 29</name>
    <desc><![CDATA[rando du lundi en groupe d'amis]]></desc>
  </metadata>
  <trk>
    <name><![CDATA[Lundi 2017 05 29]]></name>
    <trkseg>
      <trkpt lat="48.85803" lon="2.34798">
        <ele>42.400001525879</ele>
        <time>2017-05-29T18:23:16.000Z</time>
      </trkpt>
      <trkpt lat="48.8582" lon="2.34819">
        <ele>44</ele>
        <time>2017-05-29T18:23:23.000Z</time>
      </trkpt>
      <trkpt lat="48.85831" lon="2.34822">
        <ele>45.200000762939</ele>
        <time>2017-05-29T18:23:24.000Z</time>
      </trkpt>
      <trkpt lat="48.85829" lon="2.3483">
        <ele>44.799999237061</ele>
        <time>2017-05-29T18:23:28.000Z</time>
      </trkpt>
      <trkpt lat="48.8584" lon="2.34826">
        <ele>46.200000762939</ele>
        <time>2017-05-29T18:23:32.000Z</time>
      </trkpt>
      <trkpt lat="48.85837" lon="2.34823">
        <ele>46</ele>
        <time>2017-05-29T18:23:42.000Z</time>
      </trkpt>
      <trkpt lat="48.85843" lon="2.34822">
        <ele>46.599998474121</ele>
        <time>2017-05-29T18:23:43.000Z</time>
      </trkpt>
      <trkpt lat="48.8585" lon="2.34826">
        <ele>47.400001525879</ele>
        <time>2017-05-29T18:23:44.000Z</time>
      </trkpt>
      <trkpt lat="48.85862" lon="2.34836">
        <ele>48</ele>
        <time>2017-05-29T18:23:48.000Z</time>
      </trkpt>
      <trkpt lat="48.8588" lon="2.34844">
        <ele>48</ele>
        <time>2017-05-29T18:23:54.000Z</time>
      </trkpt>
      <trkpt lat="48.85889" lon="2.34847">
        <ele>48</ele>
        <time>2017-05-29T18:23:58.000Z</time>
      </trkpt>
      <trkpt lat="48.85907" lon="2.34854">
        <ele>48</ele>
        <time>2017-05-29T18:24:04.000Z</time>
      </trkpt>
      <trkpt lat="48.85925" lon="2.34864">
        <ele>48</ele>
        <time>2017-05-29T18:24:10.000Z</time>
      </trkpt>
      <trkpt lat="48.85945" lon="2.34872">
        <ele>48</ele>
        <time>2017-05-29T18:24:17.000Z</time>
      </trkpt>
      <trkpt lat="48.85964" lon="2.34883">
        <ele>48.200000762939</ele>
        <time>2017-05-29T18:24:22.000Z</time>
      </trkpt>
      <trkpt lat="48.85982" lon="2.34893">
        <ele>48.599998474121</ele>
        <time>2017-05-29T18:24:28.000Z</time>
      </trkpt>
      <trkpt lat="48.86001" lon="2.34906">
        <ele>48.799999237061</ele>
        <time>2017-05-29T18:24:34.000Z</time>
      </trkpt>
      <trkpt lat="48.86019" lon="2.34916">
        <ele>49</ele>
        <time>2017-05-29T18:24:39.000Z</time>
      </trkpt>
      <trkpt lat="48.86038" lon="2.34924">
        <ele>48.599998474121</ele>
        <time>2017-05-29T18:24:41.000Z</time>
      </trkpt>
      <trkpt lat="48.86056" lon="2.34934">
        <ele>48</ele>
        <time>2017-05-29T18:24:44.000Z</time>
      </trkpt>
      <trkpt lat="48.86075" lon="2.34944">
        <ele>47.400001525879</ele>
        <time>2017-05-29T18:24:48.000Z</time>
      </trkpt>
      <trkpt lat="48.8608" lon="2.34945">
        <ele>47.200000762939</ele>
        <time>2017-05-29T18:24:49.000Z</time>
      </trkpt>
      <trkpt lat="48.86099" lon="2.34955">
        <ele>46.599998474121</ele>
        <time>2017-05-29T18:24:53.000Z</time>
      </trkpt>
      <trkpt lat="48.86118" lon="2.34966">
        <ele>46.599998474121</ele>
        <time>2017-05-29T18:24:57.000Z</time>
      </trkpt>
      <trkpt lat="48.86134" lon="2.34976">
        <ele>46.599998474121</ele>
        <time>2017-05-29T18:25:01.000Z</time>
      </trkpt>
      <trkpt lat="48.86143" lon="2.34983">
        <ele>46.599998474121</ele>
        <time>2017-05-29T18:25:04.000Z</time>
      </trkpt>
      <trkpt lat="48.86159" lon="2.34993">
        <ele>46.599998474121</ele>
        <time>2017-05-29T18:25:08.000Z</time>
      </trkpt>
      <trkpt lat="48.86166" lon="2.34993">
        <ele>46.799999237061</ele>
        <time>2017-05-29T18:25:19.000Z</time>
      </trkpt>
      <trkpt lat="48.86185" lon="2.35002">
        <ele>47</ele>
        <time>2017-05-29T18:25:28.000Z</time>
      </trkpt>
      <trkpt lat="48.86204" lon="2.35011">
        <ele>47.400001525879</ele>
        <time>2017-05-29T18:25:35.000Z</time>
      </trkpt>
      <trkpt lat="48.86223" lon="2.35019">
        <ele>47.599998474121</ele>
        <time>2017-05-29T18:25:42.000Z</time>
      </trkpt>
      <trkpt lat="48.8624" lon="2.3503">
        <ele>48</ele>
        <time>2017-05-29T18:25:47.000Z</time>
      </trkpt>
      <trkpt lat="48.86257" lon="2.35042">
        <ele>48.400001525879</ele>
        <time>2017-05-29T18:25:51.000Z</time>
      </trkpt>
      <trkpt lat="48.86275" lon="2.35054">
        <ele>48.599998474121</ele>
        <time>2017-05-29T18:25:54.000Z</time>
      </trkpt>
      <trkpt lat="48.86294" lon="2.35068">
        <ele>48.599998474121</ele>
        <time>2017-05-29T18:25:58.000Z</time>
      </trkpt>
      <trkpt lat="48.86313" lon="2.35076">
        <ele>48.400001525879</ele>
        <time>2017-05-29T18:26:04.000Z</time>
      </trkpt>
      <trkpt lat="48.86333" lon="2.35085">
        <ele>48.200000762939</ele>
        <time>2017-05-29T18:26:10.000Z</time>
      </trkpt>
      <trkpt lat="48.86353" lon="2.35096">
        <ele>47.799999237061</ele>
        <time>2017-05-29T18:26:16.000Z</time>
      </trkpt>
      <trkpt lat="48.86372" lon="2.35109">
        <ele>47.599998474121</ele>
        <time>2017-05-29T18:26:21.000Z</time>
      </trkpt>
      <trkpt lat="48.86401" lon="2.35132">
        <ele>47.400001525879</ele>
        <time>2017-05-29T18:26:24.000Z</time>
      </trkpt>
      <trkpt lat="48.86419" lon="2.35149">
        <ele>47.200000762939</ele>
        <time>2017-05-29T18:26:27.000Z</time>
      </trkpt>
      <trkpt lat="48.86423" lon="2.35153">
        <ele>47.200000762939</ele>
        <time>2017-05-29T18:26:28.000Z</time>
      </trkpt>
      <trkpt lat="48.8643" lon="2.35158">
        <ele>47</ele>
        <time>2017-05-29T18:26:32.000Z</time>
      </trkpt>
      <trkpt lat="48.86453" lon="2.35167">
        <ele>46.799999237061</ele>
        <time>2017-05-29T18:26:46.000Z</time>
      </trkpt>
      <trkpt lat="48.86474" lon="2.35175">
        <ele>46.599998474121</ele>
        <time>2017-05-29T18:26:52.000Z</time>
      </trkpt>
      <trkpt lat="48.86493" lon="2.35185">
        <ele>46.400001525879</ele>
        <time>2017-05-29T18:26:58.000Z</time>
      </trkpt>
      <trkpt lat="48.86494" lon="2.35186">
        <ele>46.400001525879</ele>
        <time>2017-05-29T18:26:59.000Z</time>
      </trkpt>
      <trkpt lat="48.86513" lon="2.35199">
        <ele>46.400001525879</ele>
        <time>2017-05-29T18:27:04.000Z</time>
      </trkpt>
      <trkpt lat="48.86532" lon="2.3521">
        <ele>46.799999237061</ele>
        <time>2017-05-29T18:27:10.000Z</time>
      </trkpt>
      <trkpt lat="48.86551" lon="2.35217">
        <ele>47.200000762939</ele>
        <time>2017-05-29T18:27:16.000Z</time>
      </trkpt>
      <trkpt lat="48.86569" lon="2.35227">
        <ele>47.799999237061</ele>
        <time>2017-05-29T18:27:22.000Z</time>
      </trkpt>
      <trkpt lat="48.86581" lon="2.35235">
        <ele>48.200000762939</ele>
        <time>2017-05-29T18:27:27.000Z</time>
      </trkpt>
      <trkpt lat="48.86588" lon="2.35257">
        <ele>48.599998474121</ele>
        <time>2017-05-29T18:27:36.000Z</time>
      </trkpt>
      <trkpt lat="48.86586" lon="2.35265">
        <ele>48.599998474121</ele>
        <time>2017-05-29T18:27:38.000Z</time>
      </trkpt>
      <trkpt lat="48.86584" lon="2.35296">
        <ele>48.200000762939</ele>
        <time>2017-05-29T18:27:44.000Z</time>
      </trkpt>
      <trkpt lat="48.86589" lon="2.35332">
        <ele>47.400001525879</ele>
        <time>2017-05-29T18:27:49.000Z</time>
      </trkpt>
      <trkpt lat="48.86588" lon="2.35367">
        <ele>47.400001525879</ele>
        <time>2017-05-29T18:27:54.000Z</time>
      </trkpt>
      <trkpt lat="48.86582" lon="2.35395">
        <ele>47.400001525879</ele>
        <time>2017-05-29T18:27:59.000Z</time>
      </trkpt>
      <trkpt lat="48.86579" lon="2.35428">
        <ele>48</ele>
        <time>2017-05-29T18:28:04.000Z</time>
      </trkpt>
      <trkpt lat="48.86574" lon="2.35457">
        <ele>47.400001525879</ele>
        <time>2017-05-29T18:28:08.000Z</time>
      </trkpt>
      <trkpt lat="48.86568" lon="2.35487">
        <ele>47.400001525879</ele>
        <time>2017-05-29T18:28:12.000Z</time>
      </trkpt>
      <trkpt lat="48.8656" lon="2.35513">
        <ele>46.799999237061</ele>
        <time>2017-05-29T18:28:16.000Z</time>
      </trkpt>
      <trkpt lat="48.86559" lon="2.35538">
        <ele>45.400001525879</ele>
        <time>2017-05-29T18:28:22.000Z</time>
      </trkpt>
      <trkpt lat="48.86555" lon="2.35548">
        <ele>45.200000762939</ele>
        <time>2017-05-29T18:28:25.000Z</time>
      </trkpt>
      <trkpt lat="48.86549" lon="2.35574">
        <ele>44.599998474121</ele>
        <time>2017-05-29T18:28:30.000Z</time>
      </trkpt>
      <trkpt lat="48.86544" lon="2.35605">
        <ele>45.200000762939</ele>
        <time>2017-05-29T18:28:37.000Z</time>
      </trkpt>
      <trkpt lat="48.86543" lon="2.35634">
        <ele>45.200000762939</ele>
        <time>2017-05-29T18:28:42.000Z</time>
      </trkpt>
      <trkpt lat="48.86544" lon="2.35666">
        <ele>45.200000762939</ele>
        <time>2017-05-29T18:28:47.000Z</time>
      </trkpt>
      <trkpt lat="48.86538" lon="2.35697">
        <ele>45.599998474121</ele>
        <time>2017-05-29T18:28:52.000Z</time>
      </trkpt>
      <trkpt lat="48.86531" lon="2.35723">
        <ele>45.400001525879</ele>
        <time>2017-05-29T18:28:56.000Z</time>
      </trkpt>
      <trkpt lat="48.86523" lon="2.35748">
        <ele>45</ele>
        <time>2017-05-29T18:29:01.000Z</time>
      </trkpt>
      <trkpt lat="48.86516" lon="2.35778">
        <ele>45.400001525879</ele>
        <time>2017-05-29T18:29:07.000Z</time>
      </trkpt>
      <trkpt lat="48.8651" lon="2.35805">
        <ele>45.599998474121</ele>
        <time>2017-05-29T18:29:12.000Z</time>
      </trkpt>
      <trkpt lat="48.86503" lon="2.35831">
        <ele>46</ele>
        <time>2017-05-29T18:29:17.000Z</time>
      </trkpt>
      <trkpt lat="48.86494" lon="2.35863">
        <ele>45.200000762939</ele>
        <time>2017-05-29T18:29:22.000Z</time>
      </trkpt>
      <trkpt lat="48.86488" lon="2.35892">
        <ele>44.799999237061</ele>
        <time>2017-05-29T18:29:26.000Z</time>
      </trkpt>
      <trkpt lat="48.86482" lon="2.35921">
        <ele>45</ele>
        <time>2017-05-29T18:29:31.000Z</time>
      </trkpt>
      <trkpt lat="48.86476" lon="2.35949">
        <ele>45.599998474121</ele>
        <time>2017-05-29T18:29:38.000Z</time>
      </trkpt>
      <trkpt lat="48.86475" lon="2.35969">
        <ele>45.200000762939</ele>
        <time>2017-05-29T18:29:45.000Z</time>
      </trkpt>
      <trkpt lat="48.86469" lon="2.35988">
        <ele>44.599998474121</ele>
        <time>2017-05-29T18:29:52.000Z</time>
      </trkpt>
      <trkpt lat="48.86457" lon="2.36008">
        <ele>44</ele>
        <time>2017-05-29T18:29:57.000Z</time>
      </trkpt>
      <trkpt lat="48.86443" lon="2.36027">
        <ele>43</ele>
        <time>2017-05-29T18:30:01.000Z</time>
      </trkpt>
      <trkpt lat="48.86429" lon="2.36047">
        <ele>42.400001525879</ele>
        <time>2017-05-29T18:30:05.000Z</time>
      </trkpt>
      <trkpt lat="48.86416" lon="2.36068">
        <ele>42</ele>
        <time>2017-05-29T18:30:09.000Z</time>
      </trkpt>
      <trkpt lat="48.86403" lon="2.36092">
        <ele>42.400001525879</ele>
        <time>2017-05-29T18:30:15.000Z</time>
      </trkpt>
      <trkpt lat="48.86393" lon="2.36118">
        <ele>43.200000762939</ele>
        <time>2017-05-29T18:30:21.000Z</time>
      </trkpt>
      <trkpt lat="48.86394" lon="2.36123">
        <ele>43</ele>
        <time>2017-05-29T18:30:22.000Z</time>
      </trkpt>
      <trkpt lat="48.86407" lon="2.36142">
        <ele>42.599998474121</ele>
        <time>2017-05-29T18:30:30.000Z</time>
      </trkpt>
      <trkpt lat="48.86421" lon="2.36161">
        <ele>42.200000762939</ele>
        <time>2017-05-29T18:30:36.000Z</time>
      </trkpt>
      <trkpt lat="48.86437" lon="2.36177">
        <ele>42</ele>
        <time>2017-05-29T18:30:42.000Z</time>
      </trkpt>
      <trkpt lat="48.86442" lon="2.36186">
        <ele>42</ele>
        <time>2017-05-29T18:30:46.000Z</time>
      </trkpt>
      <trkpt lat="48.86438" lon="2.36198">
        <ele>42</ele>
        <time>2017-05-29T18:30:52.000Z</time>
      </trkpt>
      <trkpt lat="48.86427" lon="2.36223">
        <ele>42.200000762939</ele>
        <time>2017-05-29T18:31:00.000Z</time>
      </trkpt>
      <trkpt lat="48.86417" lon="2.36245">
        <ele>42.799999237061</ele>
        <time>2017-05-29T18:31:06.000Z</time>
      </trkpt>
      <trkpt lat="48.86406" lon="2.36271">
        <ele>43.799999237061</ele>
        <time>2017-05-29T18:31:11.000Z</time>
      </trkpt>
      <trkpt lat="48.86402" lon="2.36276">
        <ele>44</ele>
        <time>2017-05-29T18:31:14.000Z</time>
      </trkpt>
      <trkpt lat="48.8641" lon="2.3629">
        <ele>44</ele>
        <time>2017-05-29T18:31:20.000Z</time>
      </trkpt>
      <trkpt lat="48.86426" lon="2.36308">
        <ele>44</ele>
        <time>2017-05-29T18:31:27.000Z</time>
      </trkpt>
      <trkpt lat="48.86443" lon="2.36329">
        <ele>44</ele>
        <time>2017-05-29T18:31:32.000Z</time>
      </trkpt>
      <trkpt lat="48.86455" lon="2.36352">
        <ele>44.799999237061</ele>
        <time>2017-05-29T18:31:36.000Z</time>
      </trkpt>
      <trkpt lat="48.86461" lon="2.36379">
        <ele>45.400001525879</ele>
        <time>2017-05-29T18:31:41.000Z</time>
      </trkpt>
      <trkpt lat="48.86467" lon="2.36407">
        <ele>46.200000762939</ele>
        <time>2017-05-29T18:31:46.000Z</time>
      </trkpt>
      <trkpt lat="48.8647" lon="2.36439">
        <ele>47</ele>
        <time>2017-05-29T18:31:52.000Z</time>
      </trkpt>
      <trkpt lat="48.86468" lon="2.36466">
        <ele>47.599998474121</ele>
        <time>2017-05-29T18:31:59.000Z</time>
      </trkpt>
      <trkpt lat="48.86454" lon="2.36474">
        <ele>47.599998474121</ele>
        <time>2017-05-29T18:32:03.000Z</time>
      </trkpt>
      <trkpt lat="48.86433" lon="2.36477">
        <ele>47.400001525879</ele>
        <time>2017-05-29T18:32:08.000Z</time>
      </trkpt>
      <trkpt lat="48.86411" lon="2.36477">
        <ele>46.599998474121</ele>
        <time>2017-05-29T18:32:13.000Z</time>
      </trkpt>
      <trkpt lat="48.86393" lon="2.36482">
        <ele>45.799999237061</ele>
        <time>2017-05-29T18:32:18.000Z</time>
      </trkpt>
      <trkpt lat="48.86391" lon="2.36485">
        <ele>45.599998474121</ele>
        <time>2017-05-29T18:32:19.000Z</time>
      </trkpt>
      <trkpt lat="48.86395" lon="2.36498">
        <ele>45.799999237061</ele>
        <time>2017-05-29T18:32:25.000Z</time>
      </trkpt>
      <trkpt lat="48.86413" lon="2.3651">
        <ele>46.599998474121</ele>
        <time>2017-05-29T18:32:31.000Z</time>
      </trkpt>
      <trkpt lat="48.86429" lon="2.36528">
        <ele>47.200000762939</ele>
        <time>2017-05-29T18:32:39.000Z</time>
      </trkpt>
      <trkpt lat="48.86443" lon="2.3655">
        <ele>47.400001525879</ele>
        <time>2017-05-29T18:32:44.000Z</time>
      </trkpt>
      <trkpt lat="48.86448" lon="2.36566">
        <ele>47.200000762939</ele>
        <time>2017-05-29T18:32:48.000Z</time>
      </trkpt>
      <trkpt lat="48.86457" lon="2.36578">
        <ele>47</ele>
        <time>2017-05-29T18:32:53.000Z</time>
      </trkpt>
      <trkpt lat="48.86479" lon="2.36578">
        <ele>47</ele>
        <time>2017-05-29T18:32:57.000Z</time>
      </trkpt>
      <trkpt lat="48.86497" lon="2.36572">
        <ele>47.200000762939</ele>
        <time>2017-05-29T18:33:03.000Z</time>
      </trkpt>
      <trkpt lat="48.86514" lon="2.36566">
        <ele>47.200000762939</ele>
        <time>2017-05-29T18:33:09.000Z</time>
      </trkpt>
      <trkpt lat="48.86531" lon="2.36554">
        <ele>47.599998474121</ele>
        <time>2017-05-29T18:33:15.000Z</time>
      </trkpt>
      <trkpt lat="48.86548" lon="2.36539">
        <ele>48</ele>
        <time>2017-05-29T18:33:21.000Z</time>
      </trkpt>
      <trkpt lat="48.86567" lon="2.36523">
        <ele>48.200000762939</ele>
        <time>2017-05-29T18:33:27.000Z</time>
      </trkpt>
      <trkpt lat="48.86583" lon="2.36511">
        <ele>48.200000762939</ele>
        <time>2017-05-29T18:33:32.000Z</time>
      </trkpt>
      <trkpt lat="48.86599" lon="2.36496">
        <ele>48</ele>
        <time>2017-05-29T18:33:37.000Z</time>
      </trkpt>
      <trkpt lat="48.86617" lon="2.36484">
        <ele>47.200000762939</ele>
        <time>2017-05-29T18:33:43.000Z</time>
      </trkpt>
      <trkpt lat="48.86626" lon="2.36485">
        <ele>46.400001525879</ele>
        <time>2017-05-29T18:33:47.000Z</time>
      </trkpt>
      <trkpt lat="48.86638" lon="2.365">
        <ele>45</ele>
        <time>2017-05-29T18:33:55.000Z</time>
      </trkpt>
      <trkpt lat="48.86656" lon="2.36518">
        <ele>44.200000762939</ele>
        <time>2017-05-29T18:34:01.000Z</time>
      </trkpt>
      <trkpt lat="48.86669" lon="2.36529">
        <ele>43.400001525879</ele>
        <time>2017-05-29T18:34:08.000Z</time>
      </trkpt>
      <trkpt lat="48.86674" lon="2.36506">
        <ele>42</ele>
        <time>2017-05-29T18:34:18.000Z</time>
      </trkpt>
      <trkpt lat="48.86682" lon="2.36487">
        <ele>41</ele>
        <time>2017-05-29T18:34:29.000Z</time>
      </trkpt>
      <trkpt lat="48.86694" lon="2.36461">
        <ele>41.400001525879</ele>
        <time>2017-05-29T18:34:39.000Z</time>
      </trkpt>
      <trkpt lat="48.86706" lon="2.36436">
        <ele>42.400001525879</ele>
        <time>2017-05-29T18:34:45.000Z</time>
      </trkpt>
      <trkpt lat="48.86723" lon="2.36429">
        <ele>41.799999237061</ele>
        <time>2017-05-29T18:34:52.000Z</time>
      </trkpt>
      <trkpt lat="48.86739" lon="2.36415">
        <ele>40.599998474121</ele>
        <time>2017-05-29T18:35:01.000Z</time>
      </trkpt>
      <trkpt lat="48.86742" lon="2.36409">
        <ele>40.799999237061</ele>
        <time>2017-05-29T18:35:05.000Z</time>
      </trkpt>
      <trkpt lat="48.86751" lon="2.36405">
        <ele>40.799999237061</ele>
        <time>2017-05-29T18:36:15.000Z</time>
      </trkpt>
      <trkpt lat="48.86768" lon="2.3639">
        <ele>40</ele>
        <time>2017-05-29T18:36:24.000Z</time>
      </trkpt>
      <trkpt lat="48.86788" lon="2.36382">
        <ele>40.400001525879</ele>
        <time>2017-05-29T18:36:31.000Z</time>
      </trkpt>
      <trkpt lat="48.86803" lon="2.36363">
        <ele>41.400001525879</ele>
        <time>2017-05-29T18:36:37.000Z</time>
      </trkpt>
      <trkpt lat="48.8682" lon="2.36349">
        <ele>41.200000762939</ele>
        <time>2017-05-29T18:36:43.000Z</time>
      </trkpt>
      <trkpt lat="48.86835" lon="2.36327">
        <ele>41.200000762939</ele>
        <time>2017-05-29T18:36:49.000Z</time>
      </trkpt>
      <trkpt lat="48.86848" lon="2.36307">
        <ele>42.599998474121</ele>
        <time>2017-05-29T18:36:54.000Z</time>
      </trkpt>
      <trkpt lat="48.86855" lon="2.3628">
        <ele>44</ele>
        <time>2017-05-29T18:37:01.000Z</time>
      </trkpt>
      <trkpt lat="48.86872" lon="2.36265">
        <ele>45.799999237061</ele>
        <time>2017-05-29T18:37:08.000Z</time>
      </trkpt>
      <trkpt lat="48.86889" lon="2.36249">
        <ele>46.400001525879</ele>
        <time>2017-05-29T18:37:14.000Z</time>
      </trkpt>
      <trkpt lat="48.86903" lon="2.36229">
        <ele>46.799999237061</ele>
        <time>2017-05-29T18:37:20.000Z</time>
      </trkpt>
      <trkpt lat="48.86917" lon="2.36205">
        <ele>47.200000762939</ele>
        <time>2017-05-29T18:37:26.000Z</time>
      </trkpt>
      <trkpt lat="48.86935" lon="2.36185">
        <ele>47.799999237061</ele>
        <time>2017-05-29T18:37:31.000Z</time>
      </trkpt>
      <trkpt lat="48.86951" lon="2.36162">
        <ele>48</ele>
        <time>2017-05-29T18:37:36.000Z</time>
      </trkpt>
      <trkpt lat="48.86965" lon="2.36143">
        <ele>48.599998474121</ele>
        <time>2017-05-29T18:37:40.000Z</time>
      </trkpt>
      <trkpt lat="48.86978" lon="2.3612">
        <ele>49</ele>
        <time>2017-05-29T18:37:45.000Z</time>
      </trkpt>
      <trkpt lat="48.86991" lon="2.36099">
        <ele>48.799999237061</ele>
        <time>2017-05-29T18:37:50.000Z</time>
      </trkpt>
      <trkpt lat="48.87" lon="2.36089">
        <ele>48.599998474121</ele>
        <time>2017-05-29T18:37:53.000Z</time>
      </trkpt>
      <trkpt lat="48.87001" lon="2.36078">
        <ele>48.400001525879</ele>
        <time>2017-05-29T18:37:55.000Z</time>
      </trkpt>
      <trkpt lat="48.87011" lon="2.36052">
        <ele>48</ele>
        <time>2017-05-29T18:38:00.000Z</time>
      </trkpt>
      <trkpt lat="48.87028" lon="2.36029">
        <ele>47.400001525879</ele>
        <time>2017-05-29T18:38:05.000Z</time>
      </trkpt>
      <trkpt lat="48.87042" lon="2.36008">
        <ele>47.400001525879</ele>
        <time>2017-05-29T18:38:09.000Z</time>
      </trkpt>
      <trkpt lat="48.87053" lon="2.35983">
        <ele>48</ele>
        <time>2017-05-29T18:38:13.000Z</time>
      </trkpt>
      <trkpt lat="48.87062" lon="2.35958">
        <ele>48</ele>
        <time>2017-05-29T18:38:17.000Z</time>
      </trkpt>
      <trkpt lat="48.87074" lon="2.35936">
        <ele>48.400001525879</ele>
        <time>2017-05-29T18:38:21.000Z</time>
      </trkpt>
      <trkpt lat="48.87087" lon="2.35911">
        <ele>49</ele>
        <time>2017-05-29T18:38:26.000Z</time>
      </trkpt>
      <trkpt lat="48.871" lon="2.35891">
        <ele>49</ele>
        <time>2017-05-29T18:38:31.000Z</time>
      </trkpt>
      <trkpt lat="48.87115" lon="2.35868">
        <ele>47.400001525879</ele>
        <time>2017-05-29T18:38:36.000Z</time>
      </trkpt>
      <trkpt lat="48.87126" lon="2.35845">
        <ele>45.799999237061</ele>
        <time>2017-05-29T18:38:41.000Z</time>
      </trkpt>
      <trkpt lat="48.87135" lon="2.35831">
        <ele>45.599998474121</ele>
        <time>2017-05-29T18:38:44.000Z</time>
      </trkpt>
      <trkpt lat="48.87143" lon="2.3581">
        <ele>45</ele>
        <time>2017-05-29T18:38:48.000Z</time>
      </trkpt>
      <trkpt lat="48.87145" lon="2.358">
        <ele>44.799999237061</ele>
        <time>2017-05-29T18:38:50.000Z</time>
      </trkpt>
      <trkpt lat="48.87153" lon="2.3578">
        <ele>45.599998474121</ele>
        <time>2017-05-29T18:38:55.000Z</time>
      </trkpt>
      <trkpt lat="48.87167" lon="2.3576">
        <ele>47.799999237061</ele>
        <time>2017-05-29T18:39:02.000Z</time>
      </trkpt>
      <trkpt lat="48.87182" lon="2.3574">
        <ele>49.799999237061</ele>
        <time>2017-05-29T18:39:13.000Z</time>
      </trkpt>
      <trkpt lat="48.87185" lon="2.35734">
        <ele>49.599998474121</ele>
        <time>2017-05-29T18:39:18.000Z</time>
      </trkpt>
      <trkpt lat="48.87191" lon="2.35703">
        <ele>49</ele>
        <time>2017-05-29T18:39:35.000Z</time>
      </trkpt>
      <trkpt lat="48.87203" lon="2.35675">
        <ele>48</ele>
        <time>2017-05-29T18:39:40.000Z</time>
      </trkpt>
      <trkpt lat="48.87216" lon="2.35647">
        <ele>47.599998474121</ele>
        <time>2017-05-29T18:39:45.000Z</time>
      </trkpt>
      <trkpt lat="48.87225" lon="2.3562">
        <ele>47</ele>
        <time>2017-05-29T18:39:51.000Z</time>
      </trkpt>
      <trkpt lat="48.87229" lon="2.35605">
        <ele>46.400001525879</ele>
        <time>2017-05-29T18:39:58.000Z</time>
      </trkpt>
      <trkpt lat="48.8723" lon="2.3559">
        <ele>45.799999237061</ele>
        <time>2017-05-29T18:40:12.000Z</time>
      </trkpt>
      <trkpt lat="48.87234" lon="2.35578">
        <ele>45.400001525879</ele>
        <time>2017-05-29T18:40:18.000Z</time>
      </trkpt>
      <trkpt lat="48.87243" lon="2.35551">
        <ele>45</ele>
        <time>2017-05-29T18:40:25.000Z</time>
      </trkpt>
      <trkpt lat="48.87254" lon="2.35525">
        <ele>45.400001525879</ele>
        <time>2017-05-29T18:40:31.000Z</time>
      </trkpt>
      <trkpt lat="48.87268" lon="2.35503">
        <ele>45.799999237061</ele>
        <time>2017-05-29T18:40:37.000Z</time>
      </trkpt>
      <trkpt lat="48.87277" lon="2.35474">
        <ele>46</ele>
        <time>2017-05-29T18:40:43.000Z</time>
      </trkpt>
      <trkpt lat="48.87282" lon="2.35445">
        <ele>46.200000762939</ele>
        <time>2017-05-29T18:40:49.000Z</time>
      </trkpt>
      <trkpt lat="48.87293" lon="2.35417">
        <ele>45.799999237061</ele>
        <time>2017-05-29T18:40:55.000Z</time>
      </trkpt>
      <trkpt lat="48.87303" lon="2.35394">
        <ele>45.799999237061</ele>
        <time>2017-05-29T18:40:59.000Z</time>
      </trkpt>
      <trkpt lat="48.87312" lon="2.35367">
        <ele>46.200000762939</ele>
        <time>2017-05-29T18:41:03.000Z</time>
      </trkpt>
      <trkpt lat="48.87326" lon="2.35344">
        <ele>46.599998474121</ele>
        <time>2017-05-29T18:41:07.000Z</time>
      </trkpt>
      <trkpt lat="48.87336" lon="2.35316">
        <ele>46.799999237061</ele>
        <time>2017-05-29T18:41:11.000Z</time>
      </trkpt>
      <trkpt lat="48.87343" lon="2.35288">
        <ele>46.799999237061</ele>
        <time>2017-05-29T18:41:15.000Z</time>
      </trkpt>
      <trkpt lat="48.87346" lon="2.35282">
        <ele>46.799999237061</ele>
        <time>2017-05-29T18:41:16.000Z</time>
      </trkpt>
      <trkpt lat="48.87353" lon="2.35251">
        <ele>47</ele>
        <time>2017-05-29T18:41:21.000Z</time>
      </trkpt>
      <trkpt lat="48.87362" lon="2.35225">
        <ele>47.599998474121</ele>
        <time>2017-05-29T18:41:25.000Z</time>
      </trkpt>
      <trkpt lat="48.87369" lon="2.35196">
        <ele>48.400001525879</ele>
        <time>2017-05-29T18:41:29.000Z</time>
      </trkpt>
      <trkpt lat="48.87372" lon="2.35173">
        <ele>48.599998474121</ele>
        <time>2017-05-29T18:41:32.000Z</time>
      </trkpt>
      <trkpt lat="48.87375" lon="2.35144">
        <ele>48.200000762939</ele>
        <time>2017-05-29T18:41:36.000Z</time>
      </trkpt>
      <trkpt lat="48.87379" lon="2.35112">
        <ele>48</ele>
        <time>2017-05-29T18:41:41.000Z</time>
      </trkpt>
      <trkpt lat="48.87383" lon="2.35081">
        <ele>48.599998474121</ele>
        <time>2017-05-29T18:41:47.000Z</time>
      </trkpt>
      <trkpt lat="48.87385" lon="2.35069">
        <ele>48.400001525879</ele>
        <time>2017-05-29T18:41:50.000Z</time>
      </trkpt>
      <trkpt lat="48.87401" lon="2.35061">
        <ele>48</ele>
        <time>2017-05-29T18:41:58.000Z</time>
      </trkpt>
      <trkpt lat="48.87408" lon="2.35063">
        <ele>48</ele>
        <time>2017-05-29T18:42:00.000Z</time>
      </trkpt>
      <trkpt lat="48.87428" lon="2.35068">
        <ele>47.799999237061</ele>
        <time>2017-05-29T18:42:04.000Z</time>
      </trkpt>
      <trkpt lat="48.87447" lon="2.35071">
        <ele>47.799999237061</ele>
        <time>2017-05-29T18:42:09.000Z</time>
      </trkpt>
      <trkpt lat="48.87468" lon="2.3507">
        <ele>47.400001525879</ele>
        <time>2017-05-29T18:42:14.000Z</time>
      </trkpt>
      <trkpt lat="48.8749" lon="2.35073">
        <ele>46.799999237061</ele>
        <time>2017-05-29T18:42:19.000Z</time>
      </trkpt>
      <trkpt lat="48.87507" lon="2.35078">
        <ele>46.400001525879</ele>
        <time>2017-05-29T18:42:24.000Z</time>
      </trkpt>
      <trkpt lat="48.87525" lon="2.3508">
        <ele>46.200000762939</ele>
        <time>2017-05-29T18:42:30.000Z</time>
      </trkpt>
      <trkpt lat="48.87539" lon="2.35058">
        <ele>47</ele>
        <time>2017-05-29T18:42:35.000Z</time>
      </trkpt>
      <trkpt lat="48.87544" lon="2.3503">
        <ele>47.599998474121</ele>
        <time>2017-05-29T18:42:39.000Z</time>
      </trkpt>
      <trkpt lat="48.87549" lon="2.35">
        <ele>48</ele>
        <time>2017-05-29T18:42:43.000Z</time>
      </trkpt>
      <trkpt lat="48.87556" lon="2.3497">
        <ele>47.599998474121</ele>
        <time>2017-05-29T18:42:47.000Z</time>
      </trkpt>
      <trkpt lat="48.87561" lon="2.34941">
        <ele>47</ele>
        <time>2017-05-29T18:42:51.000Z</time>
      </trkpt>
      <trkpt lat="48.87566" lon="2.34923">
        <ele>46.799999237061</ele>
        <time>2017-05-29T18:42:54.000Z</time>
      </trkpt>
      <trkpt lat="48.8757" lon="2.34899">
        <ele>47</ele>
        <time>2017-05-29T18:42:58.000Z</time>
      </trkpt>
      <trkpt lat="48.87574" lon="2.34881">
        <ele>47.599998474121</ele>
        <time>2017-05-29T18:43:01.000Z</time>
      </trkpt>
      <trkpt lat="48.87579" lon="2.34852">
        <ele>47.200000762939</ele>
        <time>2017-05-29T18:43:06.000Z</time>
      </trkpt>
      <trkpt lat="48.87581" lon="2.34842">
        <ele>47.200000762939</ele>
        <time>2017-05-29T18:43:08.000Z</time>
      </trkpt>
      <trkpt lat="48.87583" lon="2.34829">
        <ele>47</ele>
        <time>2017-05-29T18:43:12.000Z</time>
      </trkpt>
      <trkpt lat="48.87564" lon="2.34826">
        <ele>47</ele>
        <time>2017-05-29T18:43:25.000Z</time>
      </trkpt>
      <trkpt lat="48.87544" lon="2.34822">
        <ele>47.200000762939</ele>
        <time>2017-05-29T18:43:30.000Z</time>
      </trkpt>
      <trkpt lat="48.87524" lon="2.3482">
        <ele>47.200000762939</ele>
        <time>2017-05-29T18:43:35.000Z</time>
      </trkpt>
      <trkpt lat="48.87505" lon="2.34818">
        <ele>47.599998474121</ele>
        <time>2017-05-29T18:43:40.000Z</time>
      </trkpt>
      <trkpt lat="48.87487" lon="2.34818">
        <ele>48.200000762939</ele>
        <time>2017-05-29T18:43:45.000Z</time>
      </trkpt>
      <trkpt lat="48.87468" lon="2.34815">
        <ele>49</ele>
        <time>2017-05-29T18:43:50.000Z</time>
      </trkpt>
      <trkpt lat="48.87448" lon="2.34813">
        <ele>49.599998474121</ele>
        <time>2017-05-29T18:43:56.000Z</time>
      </trkpt>
      <trkpt lat="48.87428" lon="2.34808">
        <ele>49.799999237061</ele>
        <time>2017-05-29T18:44:03.000Z</time>
      </trkpt>
      <trkpt lat="48.87411" lon="2.34801">
        <ele>49.599998474121</ele>
        <time>2017-05-29T18:44:09.000Z</time>
      </trkpt>
      <trkpt lat="48.8741" lon="2.34783">
        <ele>49.599998474121</ele>
        <time>2017-05-29T18:44:13.000Z</time>
      </trkpt>
      <trkpt lat="48.87412" lon="2.34753">
        <ele>49.599998474121</ele>
        <time>2017-05-29T18:44:18.000Z</time>
      </trkpt>
      <trkpt lat="48.87412" lon="2.34721">
        <ele>49.599998474121</ele>
        <time>2017-05-29T18:44:23.000Z</time>
      </trkpt>
      <trkpt lat="48.87414" lon="2.34689">
        <ele>48.799999237061</ele>
        <time>2017-05-29T18:44:28.000Z</time>
      </trkpt>
      <trkpt lat="48.87416" lon="2.34661">
        <ele>48.200000762939</ele>
        <time>2017-05-29T18:44:34.000Z</time>
      </trkpt>
      <trkpt lat="48.87419" lon="2.3465">
        <ele>48</ele>
        <time>2017-05-29T18:44:41.000Z</time>
      </trkpt>
      <trkpt lat="48.87425" lon="2.34625">
        <ele>47.799999237061</ele>
        <time>2017-05-29T18:44:48.000Z</time>
      </trkpt>
      <trkpt lat="48.87428" lon="2.34597">
        <ele>47.400001525879</ele>
        <time>2017-05-29T18:44:55.000Z</time>
      </trkpt>
      <trkpt lat="48.87422" lon="2.34559">
        <ele>47</ele>
        <time>2017-05-29T18:45:10.000Z</time>
      </trkpt>
      <trkpt lat="48.8742" lon="2.34554">
        <ele>46.799999237061</ele>
        <time>2017-05-29T18:45:12.000Z</time>
      </trkpt>
      <trkpt lat="48.87414" lon="2.34535">
        <ele>46.599998474121</ele>
        <time>2017-05-29T18:45:16.000Z</time>
      </trkpt>
      <trkpt lat="48.87413" lon="2.34506">
        <ele>45.799999237061</ele>
        <time>2017-05-29T18:45:23.000Z</time>
      </trkpt>
      <trkpt lat="48.8741" lon="2.34478">
        <ele>46</ele>
        <time>2017-05-29T18:45:29.000Z</time>
      </trkpt>
      <trkpt lat="48.87413" lon="2.34448">
        <ele>46.200000762939</ele>
        <time>2017-05-29T18:45:35.000Z</time>
      </trkpt>
      <trkpt lat="48.87416" lon="2.34418">
        <ele>46.599998474121</ele>
        <time>2017-05-29T18:45:41.000Z</time>
      </trkpt>
      <trkpt lat="48.87416" lon="2.34387">
        <ele>46</ele>
        <time>2017-05-29T18:45:46.000Z</time>
      </trkpt>
      <trkpt lat="48.87418" lon="2.34356">
        <ele>45.599998474121</ele>
        <time>2017-05-29T18:45:52.000Z</time>
      </trkpt>
      <trkpt lat="48.87418" lon="2.34327">
        <ele>45.400001525879</ele>
        <time>2017-05-29T18:45:57.000Z</time>
      </trkpt>
      <trkpt lat="48.87416" lon="2.34293">
        <ele>45.599998474121</ele>
        <time>2017-05-29T18:46:02.000Z</time>
      </trkpt>
      <trkpt lat="48.87414" lon="2.34262">
        <ele>45.599998474121</ele>
        <time>2017-05-29T18:46:07.000Z</time>
      </trkpt>
      <trkpt lat="48.87412" lon="2.34248">
        <ele>45.599998474121</ele>
        <time>2017-05-29T18:46:13.000Z</time>
      </trkpt>
      <trkpt lat="48.87409" lon="2.34246">
        <ele>45.799999237061</ele>
        <time>2017-05-29T18:46:16.000Z</time>
      </trkpt>
      <trkpt lat="48.87391" lon="2.34254">
        <ele>46.200000762939</ele>
        <time>2017-05-29T18:46:40.000Z</time>
      </trkpt>
      <trkpt lat="48.87385" lon="2.34261">
        <ele>46.400001525879</ele>
        <time>2017-05-29T18:46:46.000Z</time>
      </trkpt>
      <trkpt lat="48.87391" lon="2.34256">
        <ele>46.200000762939</ele>
        <time>2017-05-29T18:46:51.000Z</time>
      </trkpt>
      <trkpt lat="48.87392" lon="2.34256">
        <ele>46.200000762939</ele>
        <time>2017-05-29T18:46:52.000Z</time>
      </trkpt>
      <trkpt lat="48.87343" lon="2.34198">
        <ele>47</ele>
        <time>2017-05-29T18:47:27.000Z</time>
      </trkpt>
      <trkpt lat="48.87322" lon="2.3416">
        <ele>47</ele>
        <time>2017-05-29T18:47:34.000Z</time>
      </trkpt>
      <trkpt lat="48.87323" lon="2.34129">
        <ele>47.400001525879</ele>
        <time>2017-05-29T18:47:39.000Z</time>
      </trkpt>
      <trkpt lat="48.87323" lon="2.34118">
        <ele>47.200000762939</ele>
        <time>2017-05-29T18:47:41.000Z</time>
      </trkpt>
      <trkpt lat="48.8733" lon="2.3409">
        <ele>46.799999237061</ele>
        <time>2017-05-29T18:47:46.000Z</time>
      </trkpt>
      <trkpt lat="48.87335" lon="2.34075">
        <ele>46.400001525879</ele>
        <time>2017-05-29T18:47:49.000Z</time>
      </trkpt>
      <trkpt lat="48.8732" lon="2.34054">
        <ele>46.599998474121</ele>
        <time>2017-05-29T18:47:54.000Z</time>
      </trkpt>
      <trkpt lat="48.87308" lon="2.34052">
        <ele>46.799999237061</ele>
        <time>2017-05-29T18:47:57.000Z</time>
      </trkpt>
      <trkpt lat="48.87303" lon="2.34052">
        <ele>47</ele>
        <time>2017-05-29T18:47:58.000Z</time>
      </trkpt>
      <trkpt lat="48.87297" lon="2.34026">
        <ele>46.799999237061</ele>
        <time>2017-05-29T18:48:03.000Z</time>
      </trkpt>
      <trkpt lat="48.87301" lon="2.34008">
        <ele>46.599998474121</ele>
        <time>2017-05-29T18:48:06.000Z</time>
      </trkpt>
      <trkpt lat="48.8731" lon="2.33978">
        <ele>47.599998474121</ele>
        <time>2017-05-29T18:48:11.000Z</time>
      </trkpt>
      <trkpt lat="48.87313" lon="2.33967">
        <ele>48</ele>
        <time>2017-05-29T18:48:13.000Z</time>
      </trkpt>
      <trkpt lat="48.8732" lon="2.33963">
        <ele>48</ele>
        <time>2017-05-29T18:48:17.000Z</time>
      </trkpt>
      <trkpt lat="48.87334" lon="2.33965">
        <ele>47.599998474121</ele>
        <time>2017-05-29T18:48:22.000Z</time>
      </trkpt>
      <trkpt lat="48.87353" lon="2.33969">
        <ele>46.799999237061</ele>
        <time>2017-05-29T18:48:27.000Z</time>
      </trkpt>
      <trkpt lat="48.87373" lon="2.33975">
        <ele>46.799999237061</ele>
        <time>2017-05-29T18:48:33.000Z</time>
      </trkpt>
      <trkpt lat="48.87393" lon="2.33974">
        <ele>47</ele>
        <time>2017-05-29T18:48:40.000Z</time>
      </trkpt>
      <trkpt lat="48.87398" lon="2.33965">
        <ele>47.200000762939</ele>
        <time>2017-05-29T18:48:41.000Z</time>
      </trkpt>
      <trkpt lat="48.87407" lon="2.33937">
        <ele>47.400001525879</ele>
        <time>2017-05-29T18:48:46.000Z</time>
      </trkpt>
      <trkpt lat="48.8741" lon="2.33908">
        <ele>47.400001525879</ele>
        <time>2017-05-29T18:48:51.000Z</time>
      </trkpt>
      <trkpt lat="48.8741" lon="2.33875">
        <ele>47.200000762939</ele>
        <time>2017-05-29T18:48:56.000Z</time>
      </trkpt>
      <trkpt lat="48.87414" lon="2.33843">
        <ele>46.799999237061</ele>
        <time>2017-05-29T18:49:01.000Z</time>
      </trkpt>
      <trkpt lat="48.87412" lon="2.33815">
        <ele>47.200000762939</ele>
        <time>2017-05-29T18:49:07.000Z</time>
      </trkpt>
      <trkpt lat="48.87411" lon="2.33808">
        <ele>47.400001525879</ele>
        <time>2017-05-29T18:49:10.000Z</time>
      </trkpt>
      <trkpt lat="48.87411" lon="2.33785">
        <ele>47.599998474121</ele>
        <time>2017-05-29T18:49:17.000Z</time>
      </trkpt>
      <trkpt lat="48.87417" lon="2.33756">
        <ele>46.799999237061</ele>
        <time>2017-05-29T18:49:25.000Z</time>
      </trkpt>
      <trkpt lat="48.87418" lon="2.33726">
        <ele>47.200000762939</ele>
        <time>2017-05-29T18:49:32.000Z</time>
      </trkpt>
      <trkpt lat="48.87421" lon="2.33696">
        <ele>47.799999237061</ele>
        <time>2017-05-29T18:49:39.000Z</time>
      </trkpt>
      <trkpt lat="48.87424" lon="2.33669">
        <ele>48.200000762939</ele>
        <time>2017-05-29T18:49:44.000Z</time>
      </trkpt>
      <trkpt lat="48.87424" lon="2.33635">
        <ele>48.799999237061</ele>
        <time>2017-05-29T18:49:49.000Z</time>
      </trkpt>
      <trkpt lat="48.8743" lon="2.33608">
        <ele>49.400001525879</ele>
        <time>2017-05-29T18:49:53.000Z</time>
      </trkpt>
      <trkpt lat="48.87431" lon="2.33579">
        <ele>50.400001525879</ele>
        <time>2017-05-29T18:49:57.000Z</time>
      </trkpt>
      <trkpt lat="48.8743" lon="2.33551">
        <ele>49.200000762939</ele>
        <time>2017-05-29T18:50:01.000Z</time>
      </trkpt>
      <trkpt lat="48.87429" lon="2.3352">
        <ele>48.200000762939</ele>
        <time>2017-05-29T18:50:07.000Z</time>
      </trkpt>
      <trkpt lat="48.87429" lon="2.33491">
        <ele>47.200000762939</ele>
        <time>2017-05-29T18:50:12.000Z</time>
      </trkpt>
      <trkpt lat="48.87427" lon="2.33459">
        <ele>46.599998474121</ele>
        <time>2017-05-29T18:50:17.000Z</time>
      </trkpt>
      <trkpt lat="48.87427" lon="2.3343">
        <ele>46.200000762939</ele>
        <time>2017-05-29T18:50:21.000Z</time>
      </trkpt>
      <trkpt lat="48.87428" lon="2.33402">
        <ele>45.599998474121</ele>
        <time>2017-05-29T18:50:25.000Z</time>
      </trkpt>
      <trkpt lat="48.87432" lon="2.33372">
        <ele>45.799999237061</ele>
        <time>2017-05-29T18:50:29.000Z</time>
      </trkpt>
      <trkpt lat="48.87434" lon="2.33343">
        <ele>45.799999237061</ele>
        <time>2017-05-29T18:50:33.000Z</time>
      </trkpt>
      <trkpt lat="48.87435" lon="2.33329">
        <ele>46</ele>
        <time>2017-05-29T18:50:35.000Z</time>
      </trkpt>
      <trkpt lat="48.87435" lon="2.33302">
        <ele>47.400001525879</ele>
        <time>2017-05-29T18:50:39.000Z</time>
      </trkpt>
      <trkpt lat="48.87435" lon="2.33289">
        <ele>48</ele>
        <time>2017-05-29T18:50:41.000Z</time>
      </trkpt>
      <trkpt lat="48.87431" lon="2.33265">
        <ele>49.200000762939</ele>
        <time>2017-05-29T18:50:46.000Z</time>
      </trkpt>
      <trkpt lat="48.87432" lon="2.33232">
        <ele>50.200000762939</ele>
        <time>2017-05-29T18:50:52.000Z</time>
      </trkpt>
      <trkpt lat="48.87431" lon="2.33207">
        <ele>50.799999237061</ele>
        <time>2017-05-29T18:50:56.000Z</time>
      </trkpt>
      <trkpt lat="48.87429" lon="2.33178">
        <ele>51.400001525879</ele>
        <time>2017-05-29T18:51:01.000Z</time>
      </trkpt>
      <trkpt lat="48.87428" lon="2.33158">
        <ele>51.400001525879</ele>
        <time>2017-05-29T18:51:05.000Z</time>
      </trkpt>
      <trkpt lat="48.87426" lon="2.33138">
        <ele>50.200000762939</ele>
        <time>2017-05-29T18:51:12.000Z</time>
      </trkpt>
      <trkpt lat="48.87432" lon="2.33119">
        <ele>49.200000762939</ele>
        <time>2017-05-29T18:51:25.000Z</time>
      </trkpt>
      <trkpt lat="48.87432" lon="2.33091">
        <ele>47.599998474121</ele>
        <time>2017-05-29T18:51:30.000Z</time>
      </trkpt>
      <trkpt lat="48.8743" lon="2.33062">
        <ele>46.799999237061</ele>
        <time>2017-05-29T18:51:35.000Z</time>
      </trkpt>
      <trkpt lat="48.87429" lon="2.3303">
        <ele>46</ele>
        <time>2017-05-29T18:51:40.000Z</time>
      </trkpt>
      <trkpt lat="48.87426" lon="2.33001">
        <ele>45.400001525879</ele>
        <time>2017-05-29T18:51:44.000Z</time>
      </trkpt>
      <trkpt lat="48.87427" lon="2.32969">
        <ele>47.400001525879</ele>
        <time>2017-05-29T18:51:49.000Z</time>
      </trkpt>
      <trkpt lat="48.87428" lon="2.32939">
        <ele>50.799999237061</ele>
        <time>2017-05-29T18:51:54.000Z</time>
      </trkpt>
      <trkpt lat="48.87427" lon="2.32912">
        <ele>53.400001525879</ele>
        <time>2017-05-29T18:51:59.000Z</time>
      </trkpt>
      <trkpt lat="48.87425" lon="2.32882">
        <ele>52.200000762939</ele>
        <time>2017-05-29T18:52:04.000Z</time>
      </trkpt>
      <trkpt lat="48.87425" lon="2.32854">
        <ele>50.799999237061</ele>
        <time>2017-05-29T18:52:10.000Z</time>
      </trkpt>
      <trkpt lat="48.87426" lon="2.3284">
        <ele>50.200000762939</ele>
        <time>2017-05-29T18:52:15.000Z</time>
      </trkpt>
      <trkpt lat="48.87426" lon="2.32833">
        <ele>49.799999237061</ele>
        <time>2017-05-29T18:52:18.000Z</time>
      </trkpt>
      <trkpt lat="48.87424" lon="2.32818">
        <ele>49.599998474121</ele>
        <time>2017-05-29T18:52:29.000Z</time>
      </trkpt>
      <trkpt lat="48.87433" lon="2.32805">
        <ele>49.599998474121</ele>
        <time>2017-05-29T18:52:34.000Z</time>
      </trkpt>
      <trkpt lat="48.87437" lon="2.32774">
        <ele>49.200000762939</ele>
        <time>2017-05-29T18:52:40.000Z</time>
      </trkpt>
      <trkpt lat="48.87432" lon="2.32764">
        <ele>49.200000762939</ele>
        <time>2017-05-29T18:52:41.000Z</time>
      </trkpt>
      <trkpt lat="48.8743" lon="2.32745">
        <ele>48.799999237061</ele>
        <time>2017-05-29T18:52:45.000Z</time>
      </trkpt>
      <trkpt lat="48.8742" lon="2.32725">
        <ele>48.599998474121</ele>
        <time>2017-05-29T18:52:48.000Z</time>
      </trkpt>
      <trkpt lat="48.87416" lon="2.32716">
        <ele>48.400001525879</ele>
        <time>2017-05-29T18:54:06.000Z</time>
      </trkpt>
      <trkpt lat="48.87415" lon="2.32691">
        <ele>47.599998474121</ele>
        <time>2017-05-29T18:54:33.000Z</time>
      </trkpt>
      <trkpt lat="48.8742" lon="2.32661">
        <ele>46.599998474121</ele>
        <time>2017-05-29T18:54:39.000Z</time>
      </trkpt>
      <trkpt lat="48.87422" lon="2.32634">
        <ele>46.599998474121</ele>
        <time>2017-05-29T18:54:43.000Z</time>
      </trkpt>
      <trkpt lat="48.87425" lon="2.32603">
        <ele>46.200000762939</ele>
        <time>2017-05-29T18:54:48.000Z</time>
      </trkpt>
      <trkpt lat="48.87422" lon="2.32593">
        <ele>46.200000762939</ele>
        <time>2017-05-29T18:54:54.000Z</time>
      </trkpt>
      <trkpt lat="48.87418" lon="2.32589">
        <ele>46.400001525879</ele>
        <time>2017-05-29T18:55:33.000Z</time>
      </trkpt>
      <trkpt lat="48.87416" lon="2.32559">
        <ele>45.599998474121</ele>
        <time>2017-05-29T18:55:40.000Z</time>
      </trkpt>
      <trkpt lat="48.87422" lon="2.32532">
        <ele>44.400001525879</ele>
        <time>2017-05-29T18:55:45.000Z</time>
      </trkpt>
      <trkpt lat="48.87429" lon="2.32507">
        <ele>43</ele>
        <time>2017-05-29T18:55:50.000Z</time>
      </trkpt>
      <trkpt lat="48.87428" lon="2.32471">
        <ele>42.599998474121</ele>
        <time>2017-05-29T18:55:55.000Z</time>
      </trkpt>
      <trkpt lat="48.87425" lon="2.32443">
        <ele>43</ele>
        <time>2017-05-29T18:55:59.000Z</time>
      </trkpt>
      <trkpt lat="48.87429" lon="2.32412">
        <ele>43.200000762939</ele>
        <time>2017-05-29T18:56:05.000Z</time>
      </trkpt>
      <trkpt lat="48.87431" lon="2.32382">
        <ele>43</ele>
        <time>2017-05-29T18:56:11.000Z</time>
      </trkpt>
      <trkpt lat="48.87436" lon="2.32351">
        <ele>43</ele>
        <time>2017-05-29T18:56:16.000Z</time>
      </trkpt>
      <trkpt lat="48.87439" lon="2.32321">
        <ele>43.400001525879</ele>
        <time>2017-05-29T18:56:21.000Z</time>
      </trkpt>
      <trkpt lat="48.87442" lon="2.32288">
        <ele>44.599998474121</ele>
        <time>2017-05-29T18:56:26.000Z</time>
      </trkpt>
      <trkpt lat="48.87443" lon="2.32255">
        <ele>45.799999237061</ele>
        <time>2017-05-29T18:56:31.000Z</time>
      </trkpt>
      <trkpt lat="48.87446" lon="2.32227">
        <ele>46.799999237061</ele>
        <time>2017-05-29T18:56:35.000Z</time>
      </trkpt>
      <trkpt lat="48.87454" lon="2.322">
        <ele>47.799999237061</ele>
        <time>2017-05-29T18:56:39.000Z</time>
      </trkpt>
      <trkpt lat="48.87461" lon="2.32173">
        <ele>48.400001525879</ele>
        <time>2017-05-29T18:56:43.000Z</time>
      </trkpt>
      <trkpt lat="48.87466" lon="2.32143">
        <ele>48.200000762939</ele>
        <time>2017-05-29T18:56:47.000Z</time>
      </trkpt>
      <trkpt lat="48.87467" lon="2.32137">
        <ele>48</ele>
        <time>2017-05-29T18:56:48.000Z</time>
      </trkpt>
      <trkpt lat="48.87472" lon="2.3211">
        <ele>47.599998474121</ele>
        <time>2017-05-29T18:56:52.000Z</time>
      </trkpt>
      <trkpt lat="48.87475" lon="2.3209">
        <ele>47</ele>
        <time>2017-05-29T18:56:55.000Z</time>
      </trkpt>
      <trkpt lat="48.87479" lon="2.32063">
        <ele>46.200000762939</ele>
        <time>2017-05-29T18:56:59.000Z</time>
      </trkpt>
      <trkpt lat="48.87483" lon="2.32033">
        <ele>45.599998474121</ele>
        <time>2017-05-29T18:57:04.000Z</time>
      </trkpt>
      <trkpt lat="48.87489" lon="2.32028">
        <ele>45.599998474121</ele>
        <time>2017-05-29T18:57:06.000Z</time>
      </trkpt>
      <trkpt lat="48.87489" lon="2.32022">
        <ele>45.799999237061</ele>
        <time>2017-05-29T18:57:09.000Z</time>
      </trkpt>
      <trkpt lat="48.87485" lon="2.32015">
        <ele>45.799999237061</ele>
        <time>2017-05-29T18:57:13.000Z</time>
      </trkpt>
      <trkpt lat="48.87484" lon="2.32014">
        <ele>45.799999237061</ele>
        <time>2017-05-29T18:57:14.000Z</time>
      </trkpt>
      <trkpt lat="48.87474" lon="2.31989">
        <ele>46</ele>
        <time>2017-05-29T18:57:21.000Z</time>
      </trkpt>
      <trkpt lat="48.87467" lon="2.31963">
        <ele>46</ele>
        <time>2017-05-29T18:57:26.000Z</time>
      </trkpt>
      <trkpt lat="48.87463" lon="2.31932">
        <ele>45.799999237061</ele>
        <time>2017-05-29T18:57:32.000Z</time>
      </trkpt>
      <trkpt lat="48.87456" lon="2.31906">
        <ele>45.599998474121</ele>
        <time>2017-05-29T18:57:37.000Z</time>
      </trkpt>
      <trkpt lat="48.87451" lon="2.31875">
        <ele>45.799999237061</ele>
        <time>2017-05-29T18:57:42.000Z</time>
      </trkpt>
      <trkpt lat="48.87446" lon="2.31843">
        <ele>45.799999237061</ele>
        <time>2017-05-29T18:57:47.000Z</time>
      </trkpt>
      <trkpt lat="48.87442" lon="2.31812">
        <ele>46</ele>
        <time>2017-05-29T18:57:52.000Z</time>
      </trkpt>
      <trkpt lat="48.87437" lon="2.3178">
        <ele>45.799999237061</ele>
        <time>2017-05-29T18:57:57.000Z</time>
      </trkpt>
      <trkpt lat="48.87431" lon="2.31751">
        <ele>45.599998474121</ele>
        <time>2017-05-29T18:58:02.000Z</time>
      </trkpt>
      <trkpt lat="48.87426" lon="2.31723">
        <ele>46</ele>
        <time>2017-05-29T18:58:07.000Z</time>
      </trkpt>
      <trkpt lat="48.87421" lon="2.31691">
        <ele>46.599998474121</ele>
        <time>2017-05-29T18:58:12.000Z</time>
      </trkpt>
      <trkpt lat="48.87415" lon="2.31659">
        <ele>47.400001525879</ele>
        <time>2017-05-29T18:58:17.000Z</time>
      </trkpt>
      <trkpt lat="48.8741" lon="2.31627">
        <ele>48.200000762939</ele>
        <time>2017-05-29T18:58:22.000Z</time>
      </trkpt>
      <trkpt lat="48.87403" lon="2.31598">
        <ele>47.799999237061</ele>
        <time>2017-05-29T18:58:27.000Z</time>
      </trkpt>
      <trkpt lat="48.87398" lon="2.31568">
        <ele>47.799999237061</ele>
        <time>2017-05-29T18:58:32.000Z</time>
      </trkpt>
      <trkpt lat="48.87393" lon="2.31541">
        <ele>48.400001525879</ele>
        <time>2017-05-29T18:58:36.000Z</time>
      </trkpt>
      <trkpt lat="48.87387" lon="2.31513">
        <ele>49.400001525879</ele>
        <time>2017-05-29T18:58:40.000Z</time>
      </trkpt>
      <trkpt lat="48.87382" lon="2.31487">
        <ele>49.799999237061</ele>
        <time>2017-05-29T18:58:44.000Z</time>
      </trkpt>
      <trkpt lat="48.87377" lon="2.3146">
        <ele>49.200000762939</ele>
        <time>2017-05-29T18:58:48.000Z</time>
      </trkpt>
      <trkpt lat="48.87371" lon="2.31431">
        <ele>48.799999237061</ele>
        <time>2017-05-29T18:58:52.000Z</time>
      </trkpt>
      <trkpt lat="48.87368" lon="2.3141">
        <ele>48.599998474121</ele>
        <time>2017-05-29T18:58:55.000Z</time>
      </trkpt>
      <trkpt lat="48.87363" lon="2.31382">
        <ele>48.799999237061</ele>
        <time>2017-05-29T18:58:59.000Z</time>
      </trkpt>
      <trkpt lat="48.87362" lon="2.31375">
        <ele>48.799999237061</ele>
        <time>2017-05-29T18:59:00.000Z</time>
      </trkpt>
      <trkpt lat="48.8736" lon="2.31361">
        <ele>48.799999237061</ele>
        <time>2017-05-29T18:59:02.000Z</time>
      </trkpt>
      <trkpt lat="48.87357" lon="2.31334">
        <ele>49</ele>
        <time>2017-05-29T18:59:06.000Z</time>
      </trkpt>
      <trkpt lat="48.87352" lon="2.31302">
        <ele>48.400001525879</ele>
        <time>2017-05-29T18:59:11.000Z</time>
      </trkpt>
      <trkpt lat="48.87348" lon="2.31284">
        <ele>48</ele>
        <time>2017-05-29T18:59:14.000Z</time>
      </trkpt>
      <trkpt lat="48.87345" lon="2.31267">
        <ele>47.599998474121</ele>
        <time>2017-05-29T18:59:17.000Z</time>
      </trkpt>
      <trkpt lat="48.87344" lon="2.31249">
        <ele>47.400001525879</ele>
        <time>2017-05-29T18:59:20.000Z</time>
      </trkpt>
      <trkpt lat="48.87337" lon="2.31223">
        <ele>47.799999237061</ele>
        <time>2017-05-29T18:59:24.000Z</time>
      </trkpt>
      <trkpt lat="48.8733" lon="2.312">
        <ele>47.400001525879</ele>
        <time>2017-05-29T18:59:28.000Z</time>
      </trkpt>
      <trkpt lat="48.87324" lon="2.31179">
        <ele>47.200000762939</ele>
        <time>2017-05-29T18:59:32.000Z</time>
      </trkpt>
      <trkpt lat="48.8732" lon="2.31167">
        <ele>47</ele>
        <time>2017-05-29T18:59:34.000Z</time>
      </trkpt>
      <trkpt lat="48.8731" lon="2.31137">
        <ele>47</ele>
        <time>2017-05-29T18:59:39.000Z</time>
      </trkpt>
      <trkpt lat="48.87302" lon="2.31112">
        <ele>47</ele>
        <time>2017-05-29T18:59:43.000Z</time>
      </trkpt>
      <trkpt lat="48.87301" lon="2.31107">
        <ele>47</ele>
        <time>2017-05-29T18:59:44.000Z</time>
      </trkpt>
      <trkpt lat="48.87294" lon="2.3108">
        <ele>46</ele>
        <time>2017-05-29T18:59:48.000Z</time>
      </trkpt>
      <trkpt lat="48.87296" lon="2.31074">
        <ele>45.599998474121</ele>
        <time>2017-05-29T18:59:49.000Z</time>
      </trkpt>
      <trkpt lat="48.87298" lon="2.31061">
        <ele>45.200000762939</ele>
        <time>2017-05-29T18:59:52.000Z</time>
      </trkpt>
      <trkpt lat="48.87298" lon="2.31054">
        <ele>44.799999237061</ele>
        <time>2017-05-29T18:59:57.000Z</time>
      </trkpt>
      <trkpt lat="48.87298" lon="2.31053">
        <ele>44.799999237061</ele>
        <time>2017-05-29T18:59:58.000Z</time>
      </trkpt>
      <trkpt lat="48.87295" lon="2.31047">
        <ele>44.799999237061</ele>
        <time>2017-05-29T19:00:01.000Z</time>
      </trkpt>
      <trkpt lat="48.87284" lon="2.31023">
        <ele>44.400001525879</ele>
        <time>2017-05-29T19:00:10.000Z</time>
      </trkpt>
      <trkpt lat="48.8728" lon="2.3102">
        <ele>44.400001525879</ele>
        <time>2017-05-29T19:00:14.000Z</time>
      </trkpt>
      <trkpt lat="48.87263" lon="2.31024">
        <ele>45</ele>
        <time>2017-05-29T19:00:38.000Z</time>
      </trkpt>
      <trkpt lat="48.87247" lon="2.31009">
        <ele>44.799999237061</ele>
        <time>2017-05-29T19:00:44.000Z</time>
      </trkpt>
      <trkpt lat="48.87238" lon="2.30983">
        <ele>44.799999237061</ele>
        <time>2017-05-29T19:00:50.000Z</time>
      </trkpt>
      <trkpt lat="48.87223" lon="2.30966">
        <ele>45.400001525879</ele>
        <time>2017-05-29T19:00:54.000Z</time>
      </trkpt>
      <trkpt lat="48.87217" lon="2.30954">
        <ele>45.599998474121</ele>
        <time>2017-05-29T19:00:56.000Z</time>
      </trkpt>
      <trkpt lat="48.87208" lon="2.3093">
        <ele>46.400001525879</ele>
        <time>2017-05-29T19:01:00.000Z</time>
      </trkpt>
      <trkpt lat="48.87199" lon="2.30904">
        <ele>47</ele>
        <time>2017-05-29T19:01:04.000Z</time>
      </trkpt>
      <trkpt lat="48.87187" lon="2.30877">
        <ele>47</ele>
        <time>2017-05-29T19:01:08.000Z</time>
      </trkpt>
      <trkpt lat="48.87175" lon="2.3085">
        <ele>47.200000762939</ele>
        <time>2017-05-29T19:01:12.000Z</time>
      </trkpt>
      <trkpt lat="48.87175" lon="2.30844">
        <ele>47.200000762939</ele>
        <time>2017-05-29T19:01:13.000Z</time>
      </trkpt>
      <trkpt lat="48.87166" lon="2.30818">
        <ele>47.200000762939</ele>
        <time>2017-05-29T19:01:17.000Z</time>
      </trkpt>
      <trkpt lat="48.87155" lon="2.30792">
        <ele>47</ele>
        <time>2017-05-29T19:01:21.000Z</time>
      </trkpt>
      <trkpt lat="48.8715" lon="2.30773">
        <ele>47</ele>
        <time>2017-05-29T19:01:24.000Z</time>
      </trkpt>
      <trkpt lat="48.87151" lon="2.30756">
        <ele>47</ele>
        <time>2017-05-29T19:01:26.000Z</time>
      </trkpt>
      <trkpt lat="48.87153" lon="2.30719">
        <ele>48</ele>
        <time>2017-05-29T19:01:32.000Z</time>
      </trkpt>
      <trkpt lat="48.8714" lon="2.30691">
        <ele>49</ele>
        <time>2017-05-29T19:01:37.000Z</time>
      </trkpt>
      <trkpt lat="48.87138" lon="2.30685">
        <ele>49.400001525879</ele>
        <time>2017-05-29T19:01:38.000Z</time>
      </trkpt>
      <trkpt lat="48.87124" lon="2.30664">
        <ele>50.200000762939</ele>
        <time>2017-05-29T19:01:42.000Z</time>
      </trkpt>
      <trkpt lat="48.87111" lon="2.30641">
        <ele>50.400001525879</ele>
        <time>2017-05-29T19:01:46.000Z</time>
      </trkpt>
      <trkpt lat="48.87111" lon="2.30636">
        <ele>50.400001525879</ele>
        <time>2017-05-29T19:01:47.000Z</time>
      </trkpt>
      <trkpt lat="48.87107" lon="2.30626">
        <ele>50.400001525879</ele>
        <time>2017-05-29T19:01:49.000Z</time>
      </trkpt>
      <trkpt lat="48.87094" lon="2.30603">
        <ele>50.200000762939</ele>
        <time>2017-05-29T19:01:54.000Z</time>
      </trkpt>
      <trkpt lat="48.87092" lon="2.30599">
        <ele>50</ele>
        <time>2017-05-29T19:01:55.000Z</time>
      </trkpt>
      <trkpt lat="48.87087" lon="2.30586">
        <ele>50</ele>
        <time>2017-05-29T19:01:59.000Z</time>
      </trkpt>
      <trkpt lat="48.87085" lon="2.30584">
        <ele>50</ele>
        <time>2017-05-29T19:02:00.000Z</time>
      </trkpt>
      <trkpt lat="48.87083" lon="2.30571">
        <ele>50.400001525879</ele>
        <time>2017-05-29T19:02:03.000Z</time>
      </trkpt>
      <trkpt lat="48.87081" lon="2.30562">
        <ele>50.599998474121</ele>
        <time>2017-05-29T19:02:08.000Z</time>
      </trkpt>
      <trkpt lat="48.8708" lon="2.30555">
        <ele>51</ele>
        <time>2017-05-29T19:02:14.000Z</time>
      </trkpt>
      <trkpt lat="48.87079" lon="2.30553">
        <ele>51</ele>
        <time>2017-05-29T19:02:17.000Z</time>
      </trkpt>
      <trkpt lat="48.87076" lon="2.3055">
        <ele>51</ele>
        <time>2017-05-29T19:02:21.000Z</time>
      </trkpt>
      <trkpt lat="48.87072" lon="2.30533">
        <ele>51.200000762939</ele>
        <time>2017-05-29T19:03:18.000Z</time>
      </trkpt>
      <trkpt lat="48.87078" lon="2.30505">
        <ele>51.599998474121</ele>
        <time>2017-05-29T19:03:24.000Z</time>
      </trkpt>
      <trkpt lat="48.87077" lon="2.30499">
        <ele>51.599998474121</ele>
        <time>2017-05-29T19:03:26.000Z</time>
      </trkpt>
      <trkpt lat="48.87058" lon="2.30483">
        <ele>52.200000762939</ele>
        <time>2017-05-29T19:03:33.000Z</time>
      </trkpt>
      <trkpt lat="48.87043" lon="2.30461">
        <ele>53.400001525879</ele>
        <time>2017-05-29T19:03:38.000Z</time>
      </trkpt>
      <trkpt lat="48.87028" lon="2.30437">
        <ele>54.599998474121</ele>
        <time>2017-05-29T19:03:43.000Z</time>
      </trkpt>
      <trkpt lat="48.87013" lon="2.30418">
        <ele>55.400001525879</ele>
        <time>2017-05-29T19:03:47.000Z</time>
      </trkpt>
      <trkpt lat="48.86999" lon="2.30393">
        <ele>55.599998474121</ele>
        <time>2017-05-29T19:03:52.000Z</time>
      </trkpt>
      <trkpt lat="48.86986" lon="2.30368">
        <ele>55.400001525879</ele>
        <time>2017-05-29T19:03:57.000Z</time>
      </trkpt>
      <trkpt lat="48.8697" lon="2.30346">
        <ele>55.200000762939</ele>
        <time>2017-05-29T19:04:02.000Z</time>
      </trkpt>
      <trkpt lat="48.86957" lon="2.30326">
        <ele>55</ele>
        <time>2017-05-29T19:04:06.000Z</time>
      </trkpt>
      <trkpt lat="48.86944" lon="2.30305">
        <ele>54.599998474121</ele>
        <time>2017-05-29T19:04:11.000Z</time>
      </trkpt>
      <trkpt lat="48.86942" lon="2.30297">
        <ele>54.599998474121</ele>
        <time>2017-05-29T19:04:12.000Z</time>
      </trkpt>
      <trkpt lat="48.86935" lon="2.30278">
        <ele>54.400001525879</ele>
        <time>2017-05-29T19:04:16.000Z</time>
      </trkpt>
      <trkpt lat="48.86941" lon="2.30265">
        <ele>54.200000762939</ele>
        <time>2017-05-29T19:04:18.000Z</time>
      </trkpt>
      <trkpt lat="48.86934" lon="2.30255">
        <ele>54</ele>
        <time>2017-05-29T19:04:21.000Z</time>
      </trkpt>
      <trkpt lat="48.86918" lon="2.30239">
        <ele>54</ele>
        <time>2017-05-29T19:04:26.000Z</time>
      </trkpt>
      <trkpt lat="48.86904" lon="2.3022">
        <ele>53.599998474121</ele>
        <time>2017-05-29T19:04:31.000Z</time>
      </trkpt>
      <trkpt lat="48.86888" lon="2.30199">
        <ele>53.400001525879</ele>
        <time>2017-05-29T19:04:37.000Z</time>
      </trkpt>
      <trkpt lat="48.86877" lon="2.3017">
        <ele>53.400001525879</ele>
        <time>2017-05-29T19:04:42.000Z</time>
      </trkpt>
      <trkpt lat="48.86876" lon="2.30163">
        <ele>53.599998474121</ele>
        <time>2017-05-29T19:04:43.000Z</time>
      </trkpt>
      <trkpt lat="48.86857" lon="2.30147">
        <ele>54</ele>
        <time>2017-05-29T19:04:46.000Z</time>
      </trkpt>
      <trkpt lat="48.86855" lon="2.30144">
        <ele>54</ele>
        <time>2017-05-29T19:04:47.000Z</time>
      </trkpt>
      <trkpt lat="48.86852" lon="2.3014">
        <ele>54</ele>
        <time>2017-05-29T19:04:50.000Z</time>
      </trkpt>
      <trkpt lat="48.86842" lon="2.30134">
        <ele>53.400001525879</ele>
        <time>2017-05-29T19:05:33.000Z</time>
      </trkpt>
      <trkpt lat="48.86827" lon="2.30118">
        <ele>53</ele>
        <time>2017-05-29T19:05:46.000Z</time>
      </trkpt>
      <trkpt lat="48.86815" lon="2.30099">
        <ele>52.799999237061</ele>
        <time>2017-05-29T19:05:55.000Z</time>
      </trkpt>
      <trkpt lat="48.86799" lon="2.3008">
        <ele>52.599998474121</ele>
        <time>2017-05-29T19:06:01.000Z</time>
      </trkpt>
      <trkpt lat="48.86793" lon="2.30066">
        <ele>53.200000762939</ele>
        <time>2017-05-29T19:06:04.000Z</time>
      </trkpt>
      <trkpt lat="48.86787" lon="2.30041">
        <ele>54.599998474121</ele>
        <time>2017-05-29T19:06:08.000Z</time>
      </trkpt>
      <trkpt lat="48.86779" lon="2.30009">
        <ele>56.599998474121</ele>
        <time>2017-05-29T19:06:14.000Z</time>
      </trkpt>
      <trkpt lat="48.86771" lon="2.29984">
        <ele>57.599998474121</ele>
        <time>2017-05-29T19:06:20.000Z</time>
      </trkpt>
      <trkpt lat="48.86766" lon="2.29964">
        <ele>58.400001525879</ele>
        <time>2017-05-29T19:06:26.000Z</time>
      </trkpt>
      <trkpt lat="48.86757" lon="2.29943">
        <ele>59</ele>
        <time>2017-05-29T19:06:51.000Z</time>
      </trkpt>
      <trkpt lat="48.86749" lon="2.29929">
        <ele>59.400001525879</ele>
        <time>2017-05-29T19:06:58.000Z</time>
      </trkpt>
      <trkpt lat="48.86737" lon="2.29913">
        <ele>59.599998474121</ele>
        <time>2017-05-29T19:07:04.000Z</time>
      </trkpt>
      <trkpt lat="48.86724" lon="2.2989">
        <ele>59.799999237061</ele>
        <time>2017-05-29T19:07:09.000Z</time>
      </trkpt>
      <trkpt lat="48.86711" lon="2.29871">
        <ele>59.799999237061</ele>
        <time>2017-05-29T19:07:14.000Z</time>
      </trkpt>
      <trkpt lat="48.86701" lon="2.29845">
        <ele>60</ele>
        <time>2017-05-29T19:07:20.000Z</time>
      </trkpt>
      <trkpt lat="48.86686" lon="2.29824">
        <ele>59.799999237061</ele>
        <time>2017-05-29T19:07:26.000Z</time>
      </trkpt>
      <trkpt lat="48.86672" lon="2.29803">
        <ele>58.799999237061</ele>
        <time>2017-05-29T19:07:32.000Z</time>
      </trkpt>
      <trkpt lat="48.86659" lon="2.29778">
        <ele>58</ele>
        <time>2017-05-29T19:07:38.000Z</time>
      </trkpt>
      <trkpt lat="48.86647" lon="2.29756">
        <ele>57</ele>
        <time>2017-05-29T19:07:45.000Z</time>
      </trkpt>
      <trkpt lat="48.86638" lon="2.29724">
        <ele>56.200000762939</ele>
        <time>2017-05-29T19:07:52.000Z</time>
      </trkpt>
      <trkpt lat="48.86629" lon="2.29699">
        <ele>55.599998474121</ele>
        <time>2017-05-29T19:08:00.000Z</time>
      </trkpt>
      <trkpt lat="48.86621" lon="2.29678">
        <ele>55</ele>
        <time>2017-05-29T19:08:08.000Z</time>
      </trkpt>
      <trkpt lat="48.86611" lon="2.29664">
        <ele>54.200000762939</ele>
        <time>2017-05-29T19:08:15.000Z</time>
      </trkpt>
      <trkpt lat="48.86594" lon="2.29641">
        <ele>54.599998474121</ele>
        <time>2017-05-29T19:08:20.000Z</time>
      </trkpt>
      <trkpt lat="48.86586" lon="2.2963">
        <ele>54.799999237061</ele>
        <time>2017-05-29T19:08:26.000Z</time>
      </trkpt>
      <trkpt lat="48.8659" lon="2.29631">
        <ele>55</ele>
        <time>2017-05-29T19:08:36.000Z</time>
      </trkpt>
      <trkpt lat="48.8659" lon="2.29627">
        <ele>55.200000762939</ele>
        <time>2017-05-29T19:08:44.000Z</time>
      </trkpt>
      <trkpt lat="48.86576" lon="2.29608">
        <ele>55.599998474121</ele>
        <time>2017-05-29T19:08:51.000Z</time>
      </trkpt>
      <trkpt lat="48.86574" lon="2.29602">
        <ele>55.799999237061</ele>
        <time>2017-05-29T19:08:53.000Z</time>
      </trkpt>
      <trkpt lat="48.8657" lon="2.29588">
        <ele>56.400001525879</ele>
        <time>2017-05-29T19:08:58.000Z</time>
      </trkpt>
      <trkpt lat="48.86568" lon="2.29575">
        <ele>56.799999237061</ele>
        <time>2017-05-29T19:09:07.000Z</time>
      </trkpt>
      <trkpt lat="48.86558" lon="2.29551">
        <ele>57.599998474121</ele>
        <time>2017-05-29T19:09:24.000Z</time>
      </trkpt>
      <trkpt lat="48.86546" lon="2.29527">
        <ele>58.400001525879</ele>
        <time>2017-05-29T19:09:33.000Z</time>
      </trkpt>
      <trkpt lat="48.86531" lon="2.29508">
        <ele>58.799999237061</ele>
        <time>2017-05-29T19:09:41.000Z</time>
      </trkpt>
      <trkpt lat="48.86523" lon="2.29478">
        <ele>58.599998474121</ele>
        <time>2017-05-29T19:09:47.000Z</time>
      </trkpt>
      <trkpt lat="48.86518" lon="2.29451">
        <ele>57.599998474121</ele>
        <time>2017-05-29T19:09:53.000Z</time>
      </trkpt>
      <trkpt lat="48.86517" lon="2.29447">
        <ele>57.599998474121</ele>
        <time>2017-05-29T19:09:54.000Z</time>
      </trkpt>
      <trkpt lat="48.86513" lon="2.29433">
        <ele>57</ele>
        <time>2017-05-29T19:09:59.000Z</time>
      </trkpt>
      <trkpt lat="48.86515" lon="2.29417">
        <ele>56.599998474121</ele>
        <time>2017-05-29T19:10:04.000Z</time>
      </trkpt>
      <trkpt lat="48.86513" lon="2.29414">
        <ele>56.599998474121</ele>
        <time>2017-05-29T19:10:08.000Z</time>
      </trkpt>
      <trkpt lat="48.8651" lon="2.29385">
        <ele>57</ele>
        <time>2017-05-29T19:10:20.000Z</time>
      </trkpt>
      <trkpt lat="48.86505" lon="2.29356">
        <ele>57.599998474121</ele>
        <time>2017-05-29T19:10:28.000Z</time>
      </trkpt>
      <trkpt lat="48.86492" lon="2.29333">
        <ele>57.400001525879</ele>
        <time>2017-05-29T19:10:36.000Z</time>
      </trkpt>
      <trkpt lat="48.86478" lon="2.29308">
        <ele>57.799999237061</ele>
        <time>2017-05-29T19:10:42.000Z</time>
      </trkpt>
      <trkpt lat="48.86467" lon="2.29292">
        <ele>58</ele>
        <time>2017-05-29T19:10:45.000Z</time>
      </trkpt>
      <trkpt lat="48.86455" lon="2.29263">
        <ele>59</ele>
        <time>2017-05-29T19:10:49.000Z</time>
      </trkpt>
      <trkpt lat="48.86449" lon="2.2925">
        <ele>59.400001525879</ele>
        <time>2017-05-29T19:10:51.000Z</time>
      </trkpt>
      <trkpt lat="48.8644" lon="2.2922">
        <ele>59.599998474121</ele>
        <time>2017-05-29T19:10:55.000Z</time>
      </trkpt>
      <trkpt lat="48.86432" lon="2.29193">
        <ele>59.400001525879</ele>
        <time>2017-05-29T19:10:59.000Z</time>
      </trkpt>
      <trkpt lat="48.86429" lon="2.29178">
        <ele>59.200000762939</ele>
        <time>2017-05-29T19:11:01.000Z</time>
      </trkpt>
      <trkpt lat="48.86422" lon="2.29149">
        <ele>60</ele>
        <time>2017-05-29T19:11:05.000Z</time>
      </trkpt>
      <trkpt lat="48.86415" lon="2.29118">
        <ele>61.400001525879</ele>
        <time>2017-05-29T19:11:09.000Z</time>
      </trkpt>
      <trkpt lat="48.86413" lon="2.29111">
        <ele>61.599998474121</ele>
        <time>2017-05-29T19:11:10.000Z</time>
      </trkpt>
      <trkpt lat="48.86408" lon="2.29083">
        <ele>62.799999237061</ele>
        <time>2017-05-29T19:11:13.000Z</time>
      </trkpt>
      <trkpt lat="48.86408" lon="2.29074">
        <ele>63.599998474121</ele>
        <time>2017-05-29T19:11:14.000Z</time>
      </trkpt>
      <trkpt lat="48.86406" lon="2.29063">
        <ele>64.599998474121</ele>
        <time>2017-05-29T19:11:16.000Z</time>
      </trkpt>
      <trkpt lat="48.86402" lon="2.29044">
        <ele>66.199996948242</ele>
        <time>2017-05-29T19:11:20.000Z</time>
      </trkpt>
      <trkpt lat="48.8639" lon="2.29016">
        <ele>67.800003051758</ele>
        <time>2017-05-29T19:11:25.000Z</time>
      </trkpt>
      <trkpt lat="48.86382" lon="2.28994">
        <ele>69</ele>
        <time>2017-05-29T19:11:28.000Z</time>
      </trkpt>
      <trkpt lat="48.86372" lon="2.28963">
        <ele>68.599998474121</ele>
        <time>2017-05-29T19:11:32.000Z</time>
      </trkpt>
      <trkpt lat="48.86363" lon="2.28939">
        <ele>68.199996948242</ele>
        <time>2017-05-29T19:11:35.000Z</time>
      </trkpt>
      <trkpt lat="48.86362" lon="2.28928">
        <ele>68.199996948242</ele>
        <time>2017-05-29T19:11:36.000Z</time>
      </trkpt>
      <trkpt lat="48.86358" lon="2.289">
        <ele>68.199996948242</ele>
        <time>2017-05-29T19:11:39.000Z</time>
      </trkpt>
      <trkpt lat="48.86353" lon="2.28877">
        <ele>68.199996948242</ele>
        <time>2017-05-29T19:11:42.000Z</time>
      </trkpt>
      <trkpt lat="48.86348" lon="2.28863">
        <ele>68</ele>
        <time>2017-05-29T19:11:44.000Z</time>
      </trkpt>
      <trkpt lat="48.8634" lon="2.28836">
        <ele>67.800003051758</ele>
        <time>2017-05-29T19:11:48.000Z</time>
      </trkpt>
      <trkpt lat="48.86336" lon="2.28816">
        <ele>67.400001525879</ele>
        <time>2017-05-29T19:11:52.000Z</time>
      </trkpt>
      <trkpt lat="48.8633" lon="2.28791">
        <ele>66.400001525879</ele>
        <time>2017-05-29T19:12:24.000Z</time>
      </trkpt>
      <trkpt lat="48.8633" lon="2.28794">
        <ele>66.400001525879</ele>
        <time>2017-05-29T19:13:56.000Z</time>
      </trkpt>
      <trkpt lat="48.86329" lon="2.28795">
        <ele>66.400001525879</ele>
        <time>2017-05-29T19:13:57.000Z</time>
      </trkpt>
      <trkpt lat="48.86319" lon="2.28798">
        <ele>66</ele>
        <time>2017-05-29T19:14:01.000Z</time>
      </trkpt>
      <trkpt lat="48.86303" lon="2.28812">
        <ele>65</ele>
        <time>2017-05-29T19:14:12.000Z</time>
      </trkpt>
      <trkpt lat="48.86284" lon="2.28803">
        <ele>63.400001525879</ele>
        <time>2017-05-29T19:14:20.000Z</time>
      </trkpt>
      <trkpt lat="48.86266" lon="2.28796">
        <ele>63</ele>
        <time>2017-05-29T19:14:28.000Z</time>
      </trkpt>
      <trkpt lat="48.8626" lon="2.28792">
        <ele>63.200000762939</ele>
        <time>2017-05-29T19:14:32.000Z</time>
      </trkpt>
      <trkpt lat="48.86256" lon="2.28775">
        <ele>63.200000762939</ele>
        <time>2017-05-29T19:15:09.000Z</time>
      </trkpt>
      <trkpt lat="48.86255" lon="2.28767">
        <ele>63</ele>
        <time>2017-05-29T19:15:12.000Z</time>
      </trkpt>
      <trkpt lat="48.86254" lon="2.28767">
        <ele>63.200000762939</ele>
        <time>2017-05-29T19:15:28.000Z</time>
      </trkpt>
      <trkpt lat="48.86261" lon="2.28774">
        <ele>63</ele>
        <time>2017-05-29T19:15:31.000Z</time>
      </trkpt>
      <trkpt lat="48.86262" lon="2.28777">
        <ele>63</ele>
        <time>2017-05-29T19:15:32.000Z</time>
      </trkpt>
      <trkpt lat="48.86257" lon="2.28782">
        <ele>63.200000762939</ele>
        <time>2017-05-29T19:16:14.000Z</time>
      </trkpt>
      <trkpt lat="48.86258" lon="2.28774">
        <ele>63</ele>
        <time>2017-05-29T19:16:17.000Z</time>
      </trkpt>
      <trkpt lat="48.86254" lon="2.28769">
        <ele>63.200000762939</ele>
        <time>2017-05-29T19:16:21.000Z</time>
      </trkpt>
      <trkpt lat="48.86253" lon="2.28768">
        <ele>63.200000762939</ele>
        <time>2017-05-29T19:16:22.000Z</time>
      </trkpt>
      <trkpt lat="48.86258" lon="2.2877">
        <ele>63</ele>
        <time>2017-05-29T19:16:27.000Z</time>
      </trkpt>
      <trkpt lat="48.86262" lon="2.28773">
        <ele>62.799999237061</ele>
        <time>2017-05-29T19:16:31.000Z</time>
      </trkpt>
      <trkpt lat="48.86256" lon="2.28772">
        <ele>63.200000762939</ele>
        <time>2017-05-29T19:16:40.000Z</time>
      </trkpt>
      <trkpt lat="48.86256" lon="2.28764">
        <ele>63</ele>
        <time>2017-05-29T19:18:24.000Z</time>
      </trkpt>
      <trkpt lat="48.86254" lon="2.28751">
        <ele>63</ele>
        <time>2017-05-29T19:18:29.000Z</time>
      </trkpt>
      <trkpt lat="48.8624" lon="2.28729">
        <ele>64.599998474121</ele>
        <time>2017-05-29T19:18:36.000Z</time>
      </trkpt>
      <trkpt lat="48.86226" lon="2.2871">
        <ele>66.400001525879</ele>
        <time>2017-05-29T19:18:43.000Z</time>
      </trkpt>
      <trkpt lat="48.86211" lon="2.28693">
        <ele>68.199996948242</ele>
        <time>2017-05-29T19:18:53.000Z</time>
      </trkpt>
      <trkpt lat="48.86201" lon="2.28682">
        <ele>69.199996948242</ele>
        <time>2017-05-29T19:18:59.000Z</time>
      </trkpt>
      <trkpt lat="48.86196" lon="2.28676">
        <ele>69.800003051758</ele>
        <time>2017-05-29T19:19:04.000Z</time>
      </trkpt>
      <trkpt lat="48.86191" lon="2.28648">
        <ele>71</ele>
        <time>2017-05-29T19:19:23.000Z</time>
      </trkpt>
      <trkpt lat="48.86184" lon="2.28622">
        <ele>71.800003051758</ele>
        <time>2017-05-29T19:19:29.000Z</time>
      </trkpt>
      <trkpt lat="48.86181" lon="2.28609">
        <ele>72.199996948242</ele>
        <time>2017-05-29T19:19:33.000Z</time>
      </trkpt>
      <trkpt lat="48.8618" lon="2.28594">
        <ele>72.400001525879</ele>
        <time>2017-05-29T19:19:38.000Z</time>
      </trkpt>
      <trkpt lat="48.86172" lon="2.28569">
        <ele>73</ele>
        <time>2017-05-29T19:19:43.000Z</time>
      </trkpt>
      <trkpt lat="48.86167" lon="2.28543">
        <ele>73.599998474121</ele>
        <time>2017-05-29T19:19:48.000Z</time>
      </trkpt>
      <trkpt lat="48.86162" lon="2.28512">
        <ele>74.199996948242</ele>
        <time>2017-05-29T19:19:54.000Z</time>
      </trkpt>
      <trkpt lat="48.86153" lon="2.28486">
        <ele>74</ele>
        <time>2017-05-29T19:19:59.000Z</time>
      </trkpt>
      <trkpt lat="48.86144" lon="2.28461">
        <ele>72.599998474121</ele>
        <time>2017-05-29T19:20:04.000Z</time>
      </trkpt>
      <trkpt lat="48.86134" lon="2.28434">
        <ele>72.400001525879</ele>
        <time>2017-05-29T19:20:09.000Z</time>
      </trkpt>
      <trkpt lat="48.86124" lon="2.28409">
        <ele>73.199996948242</ele>
        <time>2017-05-29T19:20:15.000Z</time>
      </trkpt>
      <trkpt lat="48.8612" lon="2.28396">
        <ele>72.599998474121</ele>
        <time>2017-05-29T19:20:19.000Z</time>
      </trkpt>
      <trkpt lat="48.86117" lon="2.28376">
        <ele>72.400001525879</ele>
        <time>2017-05-29T19:20:25.000Z</time>
      </trkpt>
      <trkpt lat="48.86106" lon="2.28354">
        <ele>71</ele>
        <time>2017-05-29T19:20:31.000Z</time>
      </trkpt>
      <trkpt lat="48.86097" lon="2.28326">
        <ele>71</ele>
        <time>2017-05-29T19:20:36.000Z</time>
      </trkpt>
      <trkpt lat="48.86089" lon="2.28295">
        <ele>71.199996948242</ele>
        <time>2017-05-29T19:20:41.000Z</time>
      </trkpt>
      <trkpt lat="48.86085" lon="2.28267">
        <ele>71.199996948242</ele>
        <time>2017-05-29T19:20:46.000Z</time>
      </trkpt>
      <trkpt lat="48.86077" lon="2.2824">
        <ele>71.599998474121</ele>
        <time>2017-05-29T19:20:51.000Z</time>
      </trkpt>
      <trkpt lat="48.86064" lon="2.28219">
        <ele>72.199996948242</ele>
        <time>2017-05-29T19:20:56.000Z</time>
      </trkpt>
      <trkpt lat="48.8605" lon="2.28198">
        <ele>72.800003051758</ele>
        <time>2017-05-29T19:21:02.000Z</time>
      </trkpt>
      <trkpt lat="48.86034" lon="2.28175">
        <ele>73.599998474121</ele>
        <time>2017-05-29T19:21:07.000Z</time>
      </trkpt>
      <trkpt lat="48.86027" lon="2.28147">
        <ele>74</ele>
        <time>2017-05-29T19:21:11.000Z</time>
      </trkpt>
      <trkpt lat="48.86022" lon="2.2812">
        <ele>74</ele>
        <time>2017-05-29T19:21:15.000Z</time>
      </trkpt>
      <trkpt lat="48.86016" lon="2.28089">
        <ele>73.800003051758</ele>
        <time>2017-05-29T19:21:20.000Z</time>
      </trkpt>
      <trkpt lat="48.86011" lon="2.2807">
        <ele>73.400001525879</ele>
        <time>2017-05-29T19:21:23.000Z</time>
      </trkpt>
      <trkpt lat="48.86003" lon="2.28042">
        <ele>72.599998474121</ele>
        <time>2017-05-29T19:21:28.000Z</time>
      </trkpt>
      <trkpt lat="48.85997" lon="2.28023">
        <ele>72</ele>
        <time>2017-05-29T19:21:31.000Z</time>
      </trkpt>
      <trkpt lat="48.85997" lon="2.27987">
        <ele>71.599998474121</ele>
        <time>2017-05-29T19:21:35.000Z</time>
      </trkpt>
      <trkpt lat="48.85989" lon="2.27963">
        <ele>70.599998474121</ele>
        <time>2017-05-29T19:21:39.000Z</time>
      </trkpt>
      <trkpt lat="48.85986" lon="2.27958">
        <ele>70.199996948242</ele>
        <time>2017-05-29T19:21:40.000Z</time>
      </trkpt>
      <trkpt lat="48.85973" lon="2.27932">
        <ele>68.800003051758</ele>
        <time>2017-05-29T19:21:45.000Z</time>
      </trkpt>
      <trkpt lat="48.85964" lon="2.27904">
        <ele>67.800003051758</ele>
        <time>2017-05-29T19:21:50.000Z</time>
      </trkpt>
      <trkpt lat="48.85957" lon="2.27882">
        <ele>68.199996948242</ele>
        <time>2017-05-29T19:21:54.000Z</time>
      </trkpt>
      <trkpt lat="48.85945" lon="2.27858">
        <ele>68.400001525879</ele>
        <time>2017-05-29T19:21:59.000Z</time>
      </trkpt>
      <trkpt lat="48.85941" lon="2.27843">
        <ele>68.800003051758</ele>
        <time>2017-05-29T19:22:02.000Z</time>
      </trkpt>
      <trkpt lat="48.85931" lon="2.27821">
        <ele>68.800003051758</ele>
        <time>2017-05-29T19:22:06.000Z</time>
      </trkpt>
      <trkpt lat="48.85925" lon="2.27807">
        <ele>69</ele>
        <time>2017-05-29T19:22:08.000Z</time>
      </trkpt>
      <trkpt lat="48.85921" lon="2.27777">
        <ele>69.599998474121</ele>
        <time>2017-05-29T19:22:11.000Z</time>
      </trkpt>
      <trkpt lat="48.85916" lon="2.27758">
        <ele>69.800003051758</ele>
        <time>2017-05-29T19:22:13.000Z</time>
      </trkpt>
      <trkpt lat="48.85912" lon="2.27734">
        <ele>69.800003051758</ele>
        <time>2017-05-29T19:22:16.000Z</time>
      </trkpt>
      <trkpt lat="48.85904" lon="2.27708">
        <ele>69.199996948242</ele>
        <time>2017-05-29T19:22:20.000Z</time>
      </trkpt>
      <trkpt lat="48.85894" lon="2.27681">
        <ele>68.400001525879</ele>
        <time>2017-05-29T19:22:25.000Z</time>
      </trkpt>
      <trkpt lat="48.85882" lon="2.27652">
        <ele>67.599998474121</ele>
        <time>2017-05-29T19:22:30.000Z</time>
      </trkpt>
      <trkpt lat="48.85871" lon="2.27626">
        <ele>67</ele>
        <time>2017-05-29T19:22:34.000Z</time>
      </trkpt>
      <trkpt lat="48.85856" lon="2.27601">
        <ele>66.199996948242</ele>
        <time>2017-05-29T19:22:39.000Z</time>
      </trkpt>
      <trkpt lat="48.8585" lon="2.27572">
        <ele>66</ele>
        <time>2017-05-29T19:22:43.000Z</time>
      </trkpt>
      <trkpt lat="48.85841" lon="2.27546">
        <ele>66.400001525879</ele>
        <time>2017-05-29T19:22:47.000Z</time>
      </trkpt>
      <trkpt lat="48.85835" lon="2.27529">
        <ele>66.599998474121</ele>
        <time>2017-05-29T19:22:50.000Z</time>
      </trkpt>
      <trkpt lat="48.85829" lon="2.27506">
        <ele>67.199996948242</ele>
        <time>2017-05-29T19:22:55.000Z</time>
      </trkpt>
      <trkpt lat="48.85826" lon="2.27501">
        <ele>67.199996948242</ele>
        <time>2017-05-29T19:22:56.000Z</time>
      </trkpt>
      <trkpt lat="48.8582" lon="2.27472">
        <ele>67.800003051758</ele>
        <time>2017-05-29T19:23:01.000Z</time>
      </trkpt>
      <trkpt lat="48.85821" lon="2.27464">
        <ele>68</ele>
        <time>2017-05-29T19:23:02.000Z</time>
      </trkpt>
      <trkpt lat="48.85822" lon="2.2745">
        <ele>68.400001525879</ele>
        <time>2017-05-29T19:23:04.000Z</time>
      </trkpt>
      <trkpt lat="48.85822" lon="2.2742">
        <ele>69.599998474121</ele>
        <time>2017-05-29T19:23:09.000Z</time>
      </trkpt>
      <trkpt lat="48.85822" lon="2.27413">
        <ele>69.800003051758</ele>
        <time>2017-05-29T19:23:11.000Z</time>
      </trkpt>
      <trkpt lat="48.85825" lon="2.27386">
        <ele>69.599998474121</ele>
        <time>2017-05-29T19:23:41.000Z</time>
      </trkpt>
      <trkpt lat="48.8583" lon="2.27359">
        <ele>68.400001525879</ele>
        <time>2017-05-29T19:23:45.000Z</time>
      </trkpt>
      <trkpt lat="48.85833" lon="2.2733">
        <ele>67</ele>
        <time>2017-05-29T19:23:49.000Z</time>
      </trkpt>
      <trkpt lat="48.85836" lon="2.27298">
        <ele>65.599998474121</ele>
        <time>2017-05-29T19:23:53.000Z</time>
      </trkpt>
      <trkpt lat="48.85838" lon="2.27274">
        <ele>65</ele>
        <time>2017-05-29T19:23:56.000Z</time>
      </trkpt>
      <trkpt lat="48.85834" lon="2.27241">
        <ele>63.799999237061</ele>
        <time>2017-05-29T19:24:00.000Z</time>
      </trkpt>
      <trkpt lat="48.85835" lon="2.27205">
        <ele>61.400001525879</ele>
        <time>2017-05-29T19:24:04.000Z</time>
      </trkpt>
      <trkpt lat="48.85835" lon="2.27177">
        <ele>59.799999237061</ele>
        <time>2017-05-29T19:24:07.000Z</time>
      </trkpt>
      <trkpt lat="48.85836" lon="2.27159">
        <ele>59.200000762939</ele>
        <time>2017-05-29T19:24:09.000Z</time>
      </trkpt>
      <trkpt lat="48.85838" lon="2.27124">
        <ele>59.200000762939</ele>
        <time>2017-05-29T19:24:13.000Z</time>
      </trkpt>
      <trkpt lat="48.85839" lon="2.27089">
        <ele>58.400001525879</ele>
        <time>2017-05-29T19:24:17.000Z</time>
      </trkpt>
      <trkpt lat="48.85841" lon="2.27054">
        <ele>57.599998474121</ele>
        <time>2017-05-29T19:24:21.000Z</time>
      </trkpt>
      <trkpt lat="48.8584" lon="2.27037">
        <ele>57</ele>
        <time>2017-05-29T19:24:23.000Z</time>
      </trkpt>
      <trkpt lat="48.85833" lon="2.2701">
        <ele>56</ele>
        <time>2017-05-29T19:24:26.000Z</time>
      </trkpt>
      <trkpt lat="48.8583" lon="2.27001">
        <ele>55.799999237061</ele>
        <time>2017-05-29T19:24:27.000Z</time>
      </trkpt>
      <trkpt lat="48.85821" lon="2.26973">
        <ele>55.799999237061</ele>
        <time>2017-05-29T19:24:30.000Z</time>
      </trkpt>
      <trkpt lat="48.8581" lon="2.26943">
        <ele>56.200000762939</ele>
        <time>2017-05-29T19:24:33.000Z</time>
      </trkpt>
      <trkpt lat="48.85799" lon="2.26912">
        <ele>56.799999237061</ele>
        <time>2017-05-29T19:24:36.000Z</time>
      </trkpt>
      <trkpt lat="48.85787" lon="2.26878">
        <ele>57</ele>
        <time>2017-05-29T19:24:39.000Z</time>
      </trkpt>
      <trkpt lat="48.85774" lon="2.26845">
        <ele>57.200000762939</ele>
        <time>2017-05-29T19:24:42.000Z</time>
      </trkpt>
      <trkpt lat="48.85762" lon="2.26811">
        <ele>58</ele>
        <time>2017-05-29T19:24:45.000Z</time>
      </trkpt>
      <trkpt lat="48.8575" lon="2.26778">
        <ele>59.200000762939</ele>
        <time>2017-05-29T19:24:48.000Z</time>
      </trkpt>
      <trkpt lat="48.85738" lon="2.26746">
        <ele>60.400001525879</ele>
        <time>2017-05-29T19:24:51.000Z</time>
      </trkpt>
      <trkpt lat="48.85725" lon="2.26714">
        <ele>60.400001525879</ele>
        <time>2017-05-29T19:24:54.000Z</time>
      </trkpt>
      <trkpt lat="48.85715" lon="2.26686">
        <ele>60.599998474121</ele>
        <time>2017-05-29T19:24:57.000Z</time>
      </trkpt>
      <trkpt lat="48.85712" lon="2.26676">
        <ele>61.200000762939</ele>
        <time>2017-05-29T19:24:58.000Z</time>
      </trkpt>
      <trkpt lat="48.85706" lon="2.2665">
        <ele>61.799999237061</ele>
        <time>2017-05-29T19:25:01.000Z</time>
      </trkpt>
      <trkpt lat="48.85702" lon="2.26625">
        <ele>61.599998474121</ele>
        <time>2017-05-29T19:25:04.000Z</time>
      </trkpt>
      <trkpt lat="48.85704" lon="2.26592">
        <ele>61.200000762939</ele>
        <time>2017-05-29T19:25:08.000Z</time>
      </trkpt>
      <trkpt lat="48.85705" lon="2.26585">
        <ele>61.400001525879</ele>
        <time>2017-05-29T19:25:09.000Z</time>
      </trkpt>
      <trkpt lat="48.85711" lon="2.26556">
        <ele>61</ele>
        <time>2017-05-29T19:25:13.000Z</time>
      </trkpt>
      <trkpt lat="48.85714" lon="2.26543">
        <ele>60.799999237061</ele>
        <time>2017-05-29T19:25:15.000Z</time>
      </trkpt>
      <trkpt lat="48.85722" lon="2.26518">
        <ele>60</ele>
        <time>2017-05-29T19:25:19.000Z</time>
      </trkpt>
      <trkpt lat="48.85725" lon="2.26508">
        <ele>59.200000762939</ele>
        <time>2017-05-29T19:25:21.000Z</time>
      </trkpt>
      <trkpt lat="48.85731" lon="2.26486">
        <ele>58.599998474121</ele>
        <time>2017-05-29T19:25:26.000Z</time>
      </trkpt>
      <trkpt lat="48.85736" lon="2.26479">
        <ele>58.599998474121</ele>
        <time>2017-05-29T19:25:30.000Z</time>
      </trkpt>
      <trkpt lat="48.85738" lon="2.26481">
        <ele>58.599998474121</ele>
        <time>2017-05-29T19:26:58.000Z</time>
      </trkpt>
      <trkpt lat="48.85735" lon="2.26482">
        <ele>58.599998474121</ele>
        <time>2017-05-29T19:27:02.000Z</time>
      </trkpt>
      <trkpt lat="48.85724" lon="2.26461">
        <ele>59</ele>
        <time>2017-05-29T19:27:16.000Z</time>
      </trkpt>
      <trkpt lat="48.85708" lon="2.26441">
        <ele>59.400001525879</ele>
        <time>2017-05-29T19:27:22.000Z</time>
      </trkpt>
      <trkpt lat="48.85688" lon="2.26428">
        <ele>59.799999237061</ele>
        <time>2017-05-29T19:27:26.000Z</time>
      </trkpt>
      <trkpt lat="48.8567" lon="2.26416">
        <ele>60.400001525879</ele>
        <time>2017-05-29T19:27:29.000Z</time>
      </trkpt>
      <trkpt lat="48.85649" lon="2.26406">
        <ele>60.599998474121</ele>
        <time>2017-05-29T19:27:32.000Z</time>
      </trkpt>
      <trkpt lat="48.85627" lon="2.26392">
        <ele>60.599998474121</ele>
        <time>2017-05-29T19:27:35.000Z</time>
      </trkpt>
      <trkpt lat="48.85604" lon="2.2638">
        <ele>60.400001525879</ele>
        <time>2017-05-29T19:27:38.000Z</time>
      </trkpt>
      <trkpt lat="48.85581" lon="2.26365">
        <ele>58.799999237061</ele>
        <time>2017-05-29T19:27:41.000Z</time>
      </trkpt>
      <trkpt lat="48.85557" lon="2.26348">
        <ele>57.200000762939</ele>
        <time>2017-05-29T19:27:44.000Z</time>
      </trkpt>
      <trkpt lat="48.85532" lon="2.26335">
        <ele>55.599998474121</ele>
        <time>2017-05-29T19:27:47.000Z</time>
      </trkpt>
      <trkpt lat="48.85515" lon="2.26324">
        <ele>55</ele>
        <time>2017-05-29T19:27:49.000Z</time>
      </trkpt>
      <trkpt lat="48.85492" lon="2.26306">
        <ele>55.200000762939</ele>
        <time>2017-05-29T19:27:52.000Z</time>
      </trkpt>
      <trkpt lat="48.85468" lon="2.26289">
        <ele>55.400001525879</ele>
        <time>2017-05-29T19:27:55.000Z</time>
      </trkpt>
      <trkpt lat="48.85452" lon="2.26276">
        <ele>55.400001525879</ele>
        <time>2017-05-29T19:27:57.000Z</time>
      </trkpt>
      <trkpt lat="48.85427" lon="2.26261">
        <ele>55.799999237061</ele>
        <time>2017-05-29T19:28:00.000Z</time>
      </trkpt>
      <trkpt lat="48.85404" lon="2.26248">
        <ele>56.200000762939</ele>
        <time>2017-05-29T19:28:03.000Z</time>
      </trkpt>
      <trkpt lat="48.85383" lon="2.26237">
        <ele>56.400001525879</ele>
        <time>2017-05-29T19:28:06.000Z</time>
      </trkpt>
      <trkpt lat="48.85362" lon="2.26223">
        <ele>56.400001525879</ele>
        <time>2017-05-29T19:28:09.000Z</time>
      </trkpt>
      <trkpt lat="48.85344" lon="2.26208">
        <ele>56.599998474121</ele>
        <time>2017-05-29T19:28:12.000Z</time>
      </trkpt>
      <trkpt lat="48.85325" lon="2.26194">
        <ele>57.400001525879</ele>
        <time>2017-05-29T19:28:15.000Z</time>
      </trkpt>
      <trkpt lat="48.85308" lon="2.2618">
        <ele>57.799999237061</ele>
        <time>2017-05-29T19:28:18.000Z</time>
      </trkpt>
      <trkpt lat="48.85288" lon="2.26169">
        <ele>58.799999237061</ele>
        <time>2017-05-29T19:28:21.000Z</time>
      </trkpt>
      <trkpt lat="48.8527" lon="2.26156">
        <ele>60</ele>
        <time>2017-05-29T19:28:24.000Z</time>
      </trkpt>
      <trkpt lat="48.85252" lon="2.26143">
        <ele>60.400001525879</ele>
        <time>2017-05-29T19:28:27.000Z</time>
      </trkpt>
      <trkpt lat="48.85233" lon="2.26129">
        <ele>61</ele>
        <time>2017-05-29T19:28:30.000Z</time>
      </trkpt>
      <trkpt lat="48.85211" lon="2.26115">
        <ele>61.400001525879</ele>
        <time>2017-05-29T19:28:33.000Z</time>
      </trkpt>
      <trkpt lat="48.8519" lon="2.26104">
        <ele>62</ele>
        <time>2017-05-29T19:28:36.000Z</time>
      </trkpt>
      <trkpt lat="48.85172" lon="2.26092">
        <ele>62.400001525879</ele>
        <time>2017-05-29T19:28:39.000Z</time>
      </trkpt>
      <trkpt lat="48.85154" lon="2.26081">
        <ele>62.799999237061</ele>
        <time>2017-05-29T19:28:42.000Z</time>
      </trkpt>
      <trkpt lat="48.85134" lon="2.2607">
        <ele>63</ele>
        <time>2017-05-29T19:28:45.000Z</time>
      </trkpt>
      <trkpt lat="48.85115" lon="2.2606">
        <ele>63</ele>
        <time>2017-05-29T19:28:48.000Z</time>
      </trkpt>
      <trkpt lat="48.85097" lon="2.26048">
        <ele>62.599998474121</ele>
        <time>2017-05-29T19:28:51.000Z</time>
      </trkpt>
      <trkpt lat="48.8508" lon="2.26038">
        <ele>61.599998474121</ele>
        <time>2017-05-29T19:28:54.000Z</time>
      </trkpt>
      <trkpt lat="48.85063" lon="2.26028">
        <ele>60.599998474121</ele>
        <time>2017-05-29T19:28:57.000Z</time>
      </trkpt>
      <trkpt lat="48.85041" lon="2.26018">
        <ele>59.400001525879</ele>
        <time>2017-05-29T19:29:01.000Z</time>
      </trkpt>
      <trkpt lat="48.85035" lon="2.26015">
        <ele>59</ele>
        <time>2017-05-29T19:29:02.000Z</time>
      </trkpt>
      <trkpt lat="48.85018" lon="2.26005">
        <ele>57.799999237061</ele>
        <time>2017-05-29T19:29:05.000Z</time>
      </trkpt>
      <trkpt lat="48.84996" lon="2.2599">
        <ele>56.599998474121</ele>
        <time>2017-05-29T19:29:09.000Z</time>
      </trkpt>
      <trkpt lat="48.84979" lon="2.2598">
        <ele>55.799999237061</ele>
        <time>2017-05-29T19:29:12.000Z</time>
      </trkpt>
      <trkpt lat="48.84958" lon="2.2597">
        <ele>54.799999237061</ele>
        <time>2017-05-29T19:29:16.000Z</time>
      </trkpt>
      <trkpt lat="48.8494" lon="2.25965">
        <ele>53.799999237061</ele>
        <time>2017-05-29T19:29:20.000Z</time>
      </trkpt>
      <trkpt lat="48.84923" lon="2.25957">
        <ele>52.799999237061</ele>
        <time>2017-05-29T19:29:24.000Z</time>
      </trkpt>
      <trkpt lat="48.84911" lon="2.25948">
        <ele>52.200000762939</ele>
        <time>2017-05-29T19:29:27.000Z</time>
      </trkpt>
      <trkpt lat="48.84893" lon="2.25939">
        <ele>51</ele>
        <time>2017-05-29T19:29:31.000Z</time>
      </trkpt>
      <trkpt lat="48.84872" lon="2.2593">
        <ele>49.799999237061</ele>
        <time>2017-05-29T19:29:36.000Z</time>
      </trkpt>
      <trkpt lat="48.84859" lon="2.25917">
        <ele>49.200000762939</ele>
        <time>2017-05-29T19:29:41.000Z</time>
      </trkpt>
      <trkpt lat="48.84844" lon="2.25903">
        <ele>48.200000762939</ele>
        <time>2017-05-29T19:29:47.000Z</time>
      </trkpt>
      <trkpt lat="48.84843" lon="2.25901">
        <ele>48</ele>
        <time>2017-05-29T19:29:48.000Z</time>
      </trkpt>
      <trkpt lat="48.8485" lon="2.25899">
        <ele>48.400001525879</ele>
        <time>2017-05-29T19:31:17.000Z</time>
      </trkpt>
      <trkpt lat="48.84844" lon="2.25878">
        <ele>47.799999237061</ele>
        <time>2017-05-29T19:32:08.000Z</time>
      </trkpt>
      <trkpt lat="48.8483" lon="2.2586">
        <ele>46.400001525879</ele>
        <time>2017-05-29T19:32:15.000Z</time>
      </trkpt>
      <trkpt lat="48.8483" lon="2.2583">
        <ele>46.200000762939</ele>
        <time>2017-05-29T19:32:23.000Z</time>
      </trkpt>
      <trkpt lat="48.84831" lon="2.25806">
        <ele>45.599998474121</ele>
        <time>2017-05-29T19:32:37.000Z</time>
      </trkpt>
      <trkpt lat="48.84836" lon="2.258">
        <ele>46</ele>
        <time>2017-05-29T19:32:41.000Z</time>
      </trkpt>
      <trkpt lat="48.84852" lon="2.25787">
        <ele>47.200000762939</ele>
        <time>2017-05-29T19:32:49.000Z</time>
      </trkpt>
      <trkpt lat="48.84854" lon="2.25784">
        <ele>47.400001525879</ele>
        <time>2017-05-29T19:32:50.000Z</time>
      </trkpt>
      <trkpt lat="48.84857" lon="2.25773">
        <ele>47.400001525879</ele>
        <time>2017-05-29T19:32:54.000Z</time>
      </trkpt>
      <trkpt lat="48.84849" lon="2.25747">
        <ele>46.400001525879</ele>
        <time>2017-05-29T19:33:02.000Z</time>
      </trkpt>
      <trkpt lat="48.84835" lon="2.25732">
        <ele>45.599998474121</ele>
        <time>2017-05-29T19:33:11.000Z</time>
      </trkpt>
      <trkpt lat="48.84828" lon="2.25725">
        <ele>45.200000762939</ele>
        <time>2017-05-29T19:33:17.000Z</time>
      </trkpt>
      <trkpt lat="48.84843" lon="2.25735">
        <ele>46.200000762939</ele>
        <time>2017-05-29T19:33:46.000Z</time>
      </trkpt>
      <trkpt lat="48.84859" lon="2.25752">
        <ele>47.200000762939</ele>
        <time>2017-05-29T19:33:53.000Z</time>
      </trkpt>
      <trkpt lat="48.84874" lon="2.25769">
        <ele>48.200000762939</ele>
        <time>2017-05-29T19:34:01.000Z</time>
      </trkpt>
      <trkpt lat="48.84892" lon="2.25774">
        <ele>48.599998474121</ele>
        <time>2017-05-29T19:34:08.000Z</time>
      </trkpt>
      <trkpt lat="48.84912" lon="2.25779">
        <ele>48.599998474121</ele>
        <time>2017-05-29T19:34:15.000Z</time>
      </trkpt>
      <trkpt lat="48.84931" lon="2.25782">
        <ele>48.599998474121</ele>
        <time>2017-05-29T19:34:21.000Z</time>
      </trkpt>
      <trkpt lat="48.84951" lon="2.25791">
        <ele>49.599998474121</ele>
        <time>2017-05-29T19:34:27.000Z</time>
      </trkpt>
      <trkpt lat="48.84971" lon="2.258">
        <ele>51</ele>
        <time>2017-05-29T19:34:33.000Z</time>
      </trkpt>
      <trkpt lat="48.84992" lon="2.25809">
        <ele>52.400001525879</ele>
        <time>2017-05-29T19:34:39.000Z</time>
      </trkpt>
      <trkpt lat="48.85011" lon="2.25821">
        <ele>54</ele>
        <time>2017-05-29T19:34:45.000Z</time>
      </trkpt>
      <trkpt lat="48.8503" lon="2.25834">
        <ele>55.200000762939</ele>
        <time>2017-05-29T19:34:50.000Z</time>
      </trkpt>
      <trkpt lat="48.85047" lon="2.25846">
        <ele>55.400001525879</ele>
        <time>2017-05-29T19:34:54.000Z</time>
      </trkpt>
      <trkpt lat="48.85064" lon="2.25857">
        <ele>55.799999237061</ele>
        <time>2017-05-29T19:34:58.000Z</time>
      </trkpt>
      <trkpt lat="48.85081" lon="2.25868">
        <ele>56.200000762939</ele>
        <time>2017-05-29T19:35:02.000Z</time>
      </trkpt>
      <trkpt lat="48.85099" lon="2.2588">
        <ele>56.599998474121</ele>
        <time>2017-05-29T19:35:06.000Z</time>
      </trkpt>
      <trkpt lat="48.85118" lon="2.25891">
        <ele>56.599998474121</ele>
        <time>2017-05-29T19:35:10.000Z</time>
      </trkpt>
      <trkpt lat="48.85137" lon="2.25903">
        <ele>56.599998474121</ele>
        <time>2017-05-29T19:35:14.000Z</time>
      </trkpt>
      <trkpt lat="48.85156" lon="2.25915">
        <ele>56.599998474121</ele>
        <time>2017-05-29T19:35:18.000Z</time>
      </trkpt>
      <trkpt lat="48.85178" lon="2.2593">
        <ele>57</ele>
        <time>2017-05-29T19:35:22.000Z</time>
      </trkpt>
      <trkpt lat="48.85195" lon="2.25942">
        <ele>57.200000762939</ele>
        <time>2017-05-29T19:35:25.000Z</time>
      </trkpt>
      <trkpt lat="48.85213" lon="2.25953">
        <ele>56.799999237061</ele>
        <time>2017-05-29T19:35:28.000Z</time>
      </trkpt>
      <trkpt lat="48.85233" lon="2.25965">
        <ele>56.400001525879</ele>
        <time>2017-05-29T19:35:31.000Z</time>
      </trkpt>
      <trkpt lat="48.85253" lon="2.25978">
        <ele>56.200000762939</ele>
        <time>2017-05-29T19:35:34.000Z</time>
      </trkpt>
      <trkpt lat="48.85273" lon="2.25992">
        <ele>55.799999237061</ele>
        <time>2017-05-29T19:35:37.000Z</time>
      </trkpt>
      <trkpt lat="48.85294" lon="2.26004">
        <ele>56.200000762939</ele>
        <time>2017-05-29T19:35:40.000Z</time>
      </trkpt>
      <trkpt lat="48.85316" lon="2.26018">
        <ele>56.200000762939</ele>
        <time>2017-05-29T19:35:43.000Z</time>
      </trkpt>
      <trkpt lat="48.85341" lon="2.26032">
        <ele>56.400001525879</ele>
        <time>2017-05-29T19:35:46.000Z</time>
      </trkpt>
      <trkpt lat="48.85364" lon="2.26048">
        <ele>56</ele>
        <time>2017-05-29T19:35:49.000Z</time>
      </trkpt>
      <trkpt lat="48.85387" lon="2.26063">
        <ele>55</ele>
        <time>2017-05-29T19:35:52.000Z</time>
      </trkpt>
      <trkpt lat="48.85409" lon="2.26078">
        <ele>54.200000762939</ele>
        <time>2017-05-29T19:35:55.000Z</time>
      </trkpt>
      <trkpt lat="48.85431" lon="2.26093">
        <ele>53.400001525879</ele>
        <time>2017-05-29T19:35:58.000Z</time>
      </trkpt>
      <trkpt lat="48.85453" lon="2.26109">
        <ele>53.799999237061</ele>
        <time>2017-05-29T19:36:01.000Z</time>
      </trkpt>
      <trkpt lat="48.85476" lon="2.26123">
        <ele>54.799999237061</ele>
        <time>2017-05-29T19:36:04.000Z</time>
      </trkpt>
      <trkpt lat="48.855" lon="2.26139">
        <ele>55.799999237061</ele>
        <time>2017-05-29T19:36:07.000Z</time>
      </trkpt>
      <trkpt lat="48.85522" lon="2.26153">
        <ele>56.799999237061</ele>
        <time>2017-05-29T19:36:10.000Z</time>
      </trkpt>
      <trkpt lat="48.85546" lon="2.26167">
        <ele>56.599998474121</ele>
        <time>2017-05-29T19:36:13.000Z</time>
      </trkpt>
      <trkpt lat="48.85568" lon="2.26181">
        <ele>56.400001525879</ele>
        <time>2017-05-29T19:36:16.000Z</time>
      </trkpt>
      <trkpt lat="48.85588" lon="2.26193">
        <ele>56.200000762939</ele>
        <time>2017-05-29T19:36:19.000Z</time>
      </trkpt>
      <trkpt lat="48.85608" lon="2.26206">
        <ele>56</ele>
        <time>2017-05-29T19:36:22.000Z</time>
      </trkpt>
      <trkpt lat="48.85627" lon="2.26217">
        <ele>55.599998474121</ele>
        <time>2017-05-29T19:36:25.000Z</time>
      </trkpt>
      <trkpt lat="48.85646" lon="2.26229">
        <ele>55.200000762939</ele>
        <time>2017-05-29T19:36:28.000Z</time>
      </trkpt>
      <trkpt lat="48.85663" lon="2.26242">
        <ele>54.799999237061</ele>
        <time>2017-05-29T19:36:31.000Z</time>
      </trkpt>
      <trkpt lat="48.85684" lon="2.26254">
        <ele>54.200000762939</ele>
        <time>2017-05-29T19:36:35.000Z</time>
      </trkpt>
      <trkpt lat="48.85699" lon="2.26258">
        <ele>54</ele>
        <time>2017-05-29T19:36:38.000Z</time>
      </trkpt>
      <trkpt lat="48.85717" lon="2.26261">
        <ele>54.200000762939</ele>
        <time>2017-05-29T19:36:42.000Z</time>
      </trkpt>
      <trkpt lat="48.85733" lon="2.26266">
        <ele>54.200000762939</ele>
        <time>2017-05-29T19:36:46.000Z</time>
      </trkpt>
      <trkpt lat="48.85751" lon="2.26275">
        <ele>54.400001525879</ele>
        <time>2017-05-29T19:36:51.000Z</time>
      </trkpt>
      <trkpt lat="48.85769" lon="2.26285">
        <ele>54.400001525879</ele>
        <time>2017-05-29T19:36:57.000Z</time>
      </trkpt>
      <trkpt lat="48.85773" lon="2.26288">
        <ele>54.400001525879</ele>
        <time>2017-05-29T19:36:59.000Z</time>
      </trkpt>
      <trkpt lat="48.85775" lon="2.2629">
        <ele>54.400001525879</ele>
        <time>2017-05-29T19:37:02.000Z</time>
      </trkpt>
      <trkpt lat="48.85776" lon="2.2628">
        <ele>54.599998474121</ele>
        <time>2017-05-29T19:38:54.000Z</time>
      </trkpt>
      <trkpt lat="48.85776" lon="2.26278">
        <ele>54.599998474121</ele>
        <time>2017-05-29T19:38:55.000Z</time>
      </trkpt>
      <trkpt lat="48.85774" lon="2.26274">
        <ele>54.599998474121</ele>
        <time>2017-05-29T19:38:59.000Z</time>
      </trkpt>
      <trkpt lat="48.85774" lon="2.26273">
        <ele>54.599998474121</ele>
        <time>2017-05-29T19:39:00.000Z</time>
      </trkpt>
      <trkpt lat="48.85774" lon="2.26277">
        <ele>54.599998474121</ele>
        <time>2017-05-29T19:41:09.000Z</time>
      </trkpt>
      <trkpt lat="48.85779" lon="2.26283">
        <ele>54.400001525879</ele>
        <time>2017-05-29T19:42:32.000Z</time>
      </trkpt>
      <trkpt lat="48.85789" lon="2.26282">
        <ele>54.400001525879</ele>
        <time>2017-05-29T19:43:43.000Z</time>
      </trkpt>
      <trkpt lat="48.85799" lon="2.26256">
        <ele>53.599998474121</ele>
        <time>2017-05-29T19:43:50.000Z</time>
      </trkpt>
      <trkpt lat="48.85805" lon="2.26228">
        <ele>53</ele>
        <time>2017-05-29T19:43:55.000Z</time>
      </trkpt>
      <trkpt lat="48.85812" lon="2.26199">
        <ele>52.799999237061</ele>
        <time>2017-05-29T19:44:00.000Z</time>
      </trkpt>
      <trkpt lat="48.8582" lon="2.2617">
        <ele>52</ele>
        <time>2017-05-29T19:44:05.000Z</time>
      </trkpt>
      <trkpt lat="48.85826" lon="2.26143">
        <ele>50.599998474121</ele>
        <time>2017-05-29T19:44:09.000Z</time>
      </trkpt>
      <trkpt lat="48.85833" lon="2.26117">
        <ele>50.400001525879</ele>
        <time>2017-05-29T19:44:13.000Z</time>
      </trkpt>
      <trkpt lat="48.85839" lon="2.26091">
        <ele>51</ele>
        <time>2017-05-29T19:44:17.000Z</time>
      </trkpt>
      <trkpt lat="48.85841" lon="2.2606">
        <ele>50.799999237061</ele>
        <time>2017-05-29T19:44:21.000Z</time>
      </trkpt>
      <trkpt lat="48.85842" lon="2.26026">
        <ele>51.400001525879</ele>
        <time>2017-05-29T19:44:25.000Z</time>
      </trkpt>
      <trkpt lat="48.85843" lon="2.25994">
        <ele>51.599998474121</ele>
        <time>2017-05-29T19:44:29.000Z</time>
      </trkpt>
      <trkpt lat="48.85843" lon="2.25968">
        <ele>51.599998474121</ele>
        <time>2017-05-29T19:44:33.000Z</time>
      </trkpt>
      <trkpt lat="48.85837" lon="2.25942">
        <ele>51.599998474121</ele>
        <time>2017-05-29T19:44:38.000Z</time>
      </trkpt>
      <trkpt lat="48.85836" lon="2.2593">
        <ele>51.599998474121</ele>
        <time>2017-05-29T19:44:40.000Z</time>
      </trkpt>
      <trkpt lat="48.85835" lon="2.25899">
        <ele>52.400001525879</ele>
        <time>2017-05-29T19:44:45.000Z</time>
      </trkpt>
      <trkpt lat="48.85834" lon="2.25882">
        <ele>52.599998474121</ele>
        <time>2017-05-29T19:44:48.000Z</time>
      </trkpt>
      <trkpt lat="48.85837" lon="2.25871">
        <ele>52.400001525879</ele>
        <time>2017-05-29T19:44:52.000Z</time>
      </trkpt>
      <trkpt lat="48.85835" lon="2.25889">
        <ele>52.799999237061</ele>
        <time>2017-05-29T19:45:04.000Z</time>
      </trkpt>
      <trkpt lat="48.85825" lon="2.25893">
        <ele>52.400001525879</ele>
        <time>2017-05-29T19:45:08.000Z</time>
      </trkpt>
      <trkpt lat="48.85805" lon="2.25883">
        <ele>52.599998474121</ele>
        <time>2017-05-29T19:45:14.000Z</time>
      </trkpt>
      <trkpt lat="48.85789" lon="2.25871">
        <ele>52.799999237061</ele>
        <time>2017-05-29T19:45:19.000Z</time>
      </trkpt>
      <trkpt lat="48.85772" lon="2.25854">
        <ele>53.400001525879</ele>
        <time>2017-05-29T19:45:25.000Z</time>
      </trkpt>
      <trkpt lat="48.85756" lon="2.25834">
        <ele>54.599998474121</ele>
        <time>2017-05-29T19:45:30.000Z</time>
      </trkpt>
      <trkpt lat="48.85741" lon="2.25815">
        <ele>54.599998474121</ele>
        <time>2017-05-29T19:45:34.000Z</time>
      </trkpt>
      <trkpt lat="48.85724" lon="2.25795">
        <ele>54.400001525879</ele>
        <time>2017-05-29T19:45:38.000Z</time>
      </trkpt>
      <trkpt lat="48.85707" lon="2.25781">
        <ele>54.200000762939</ele>
        <time>2017-05-29T19:45:42.000Z</time>
      </trkpt>
      <trkpt lat="48.85692" lon="2.25771">
        <ele>54</ele>
        <time>2017-05-29T19:45:46.000Z</time>
      </trkpt>
      <trkpt lat="48.85677" lon="2.2577">
        <ele>53.599998474121</ele>
        <time>2017-05-29T19:45:50.000Z</time>
      </trkpt>
      <trkpt lat="48.85655" lon="2.25773">
        <ele>52.799999237061</ele>
        <time>2017-05-29T19:45:55.000Z</time>
      </trkpt>
      <trkpt lat="48.85644" lon="2.25771">
        <ele>52.400001525879</ele>
        <time>2017-05-29T19:45:57.000Z</time>
      </trkpt>
      <trkpt lat="48.85621" lon="2.2577">
        <ele>51.200000762939</ele>
        <time>2017-05-29T19:46:01.000Z</time>
      </trkpt>
      <trkpt lat="48.85602" lon="2.25765">
        <ele>50.200000762939</ele>
        <time>2017-05-29T19:46:04.000Z</time>
      </trkpt>
      <trkpt lat="48.85596" lon="2.25763">
        <ele>50.200000762939</ele>
        <time>2017-05-29T19:46:05.000Z</time>
      </trkpt>
      <trkpt lat="48.85578" lon="2.25751">
        <ele>50.400001525879</ele>
        <time>2017-05-29T19:46:08.000Z</time>
      </trkpt>
      <trkpt lat="48.8556" lon="2.25736">
        <ele>50.799999237061</ele>
        <time>2017-05-29T19:46:11.000Z</time>
      </trkpt>
      <trkpt lat="48.85543" lon="2.25719">
        <ele>51.200000762939</ele>
        <time>2017-05-29T19:46:14.000Z</time>
      </trkpt>
      <trkpt lat="48.85527" lon="2.25706">
        <ele>51.400001525879</ele>
        <time>2017-05-29T19:46:17.000Z</time>
      </trkpt>
      <trkpt lat="48.8551" lon="2.25697">
        <ele>52.599998474121</ele>
        <time>2017-05-29T19:46:20.000Z</time>
      </trkpt>
      <trkpt lat="48.85491" lon="2.25692">
        <ele>53.799999237061</ele>
        <time>2017-05-29T19:46:23.000Z</time>
      </trkpt>
      <trkpt lat="48.85472" lon="2.25689">
        <ele>55</ele>
        <time>2017-05-29T19:46:26.000Z</time>
      </trkpt>
      <trkpt lat="48.85454" lon="2.25683">
        <ele>56.400001525879</ele>
        <time>2017-05-29T19:46:29.000Z</time>
      </trkpt>
      <trkpt lat="48.85449" lon="2.2568">
        <ele>56.799999237061</ele>
        <time>2017-05-29T19:46:30.000Z</time>
      </trkpt>
      <trkpt lat="48.85435" lon="2.25663">
        <ele>58.200000762939</ele>
        <time>2017-05-29T19:46:33.000Z</time>
      </trkpt>
      <trkpt lat="48.85431" lon="2.2563">
        <ele>60</ele>
        <time>2017-05-29T19:46:37.000Z</time>
      </trkpt>
      <trkpt lat="48.85441" lon="2.25597">
        <ele>60.200000762939</ele>
        <time>2017-05-29T19:46:41.000Z</time>
      </trkpt>
      <trkpt lat="48.85458" lon="2.25574">
        <ele>58.200000762939</ele>
        <time>2017-05-29T19:46:45.000Z</time>
      </trkpt>
      <trkpt lat="48.85478" lon="2.2557">
        <ele>55</ele>
        <time>2017-05-29T19:46:49.000Z</time>
      </trkpt>
      <trkpt lat="48.85484" lon="2.25571">
        <ele>54.400001525879</ele>
        <time>2017-05-29T19:46:50.000Z</time>
      </trkpt>
      <trkpt lat="48.85488" lon="2.25573">
        <ele>53.799999237061</ele>
        <time>2017-05-29T19:46:51.000Z</time>
      </trkpt>
      <trkpt lat="48.85509" lon="2.25573">
        <ele>50.799999237061</ele>
        <time>2017-05-29T19:46:56.000Z</time>
      </trkpt>
      <trkpt lat="48.85513" lon="2.25571">
        <ele>50.200000762939</ele>
        <time>2017-05-29T19:46:57.000Z</time>
      </trkpt>
      <trkpt lat="48.85521" lon="2.25568">
        <ele>49</ele>
        <time>2017-05-29T19:47:01.000Z</time>
      </trkpt>
      <trkpt lat="48.85523" lon="2.2556">
        <ele>48.599998474121</ele>
        <time>2017-05-29T19:47:59.000Z</time>
      </trkpt>
      <trkpt lat="48.85536" lon="2.25548">
        <ele>49</ele>
        <time>2017-05-29T19:48:08.000Z</time>
      </trkpt>
      <trkpt lat="48.85538" lon="2.2554">
        <ele>49</ele>
        <time>2017-05-29T19:48:13.000Z</time>
      </trkpt>
      <trkpt lat="48.85555" lon="2.25551">
        <ele>50.200000762939</ele>
        <time>2017-05-29T19:48:32.000Z</time>
      </trkpt>
      <trkpt lat="48.85571" lon="2.25567">
        <ele>51.599998474121</ele>
        <time>2017-05-29T19:48:37.000Z</time>
      </trkpt>
      <trkpt lat="48.85592" lon="2.25581">
        <ele>53.200000762939</ele>
        <time>2017-05-29T19:48:42.000Z</time>
      </trkpt>
      <trkpt lat="48.85609" lon="2.25593">
        <ele>54.200000762939</ele>
        <time>2017-05-29T19:48:46.000Z</time>
      </trkpt>
      <trkpt lat="48.85626" lon="2.25605">
        <ele>54.599998474121</ele>
        <time>2017-05-29T19:48:50.000Z</time>
      </trkpt>
      <trkpt lat="48.85643" lon="2.25616">
        <ele>54.799999237061</ele>
        <time>2017-05-29T19:48:54.000Z</time>
      </trkpt>
      <trkpt lat="48.85661" lon="2.25623">
        <ele>55</ele>
        <time>2017-05-29T19:48:58.000Z</time>
      </trkpt>
      <trkpt lat="48.85679" lon="2.25627">
        <ele>54.799999237061</ele>
        <time>2017-05-29T19:49:02.000Z</time>
      </trkpt>
      <trkpt lat="48.85688" lon="2.25627">
        <ele>54.799999237061</ele>
        <time>2017-05-29T19:49:04.000Z</time>
      </trkpt>
      <trkpt lat="48.85708" lon="2.25628">
        <ele>52.200000762939</ele>
        <time>2017-05-29T19:49:08.000Z</time>
      </trkpt>
      <trkpt lat="48.85728" lon="2.25627">
        <ele>49.599998474121</ele>
        <time>2017-05-29T19:49:12.000Z</time>
      </trkpt>
      <trkpt lat="48.85738" lon="2.25626">
        <ele>48.400001525879</ele>
        <time>2017-05-29T19:49:14.000Z</time>
      </trkpt>
      <trkpt lat="48.85756" lon="2.25628">
        <ele>47</ele>
        <time>2017-05-29T19:49:18.000Z</time>
      </trkpt>
      <trkpt lat="48.85773" lon="2.2563">
        <ele>45.799999237061</ele>
        <time>2017-05-29T19:49:22.000Z</time>
      </trkpt>
      <trkpt lat="48.85787" lon="2.25639">
        <ele>46.799999237061</ele>
        <time>2017-05-29T19:49:25.000Z</time>
      </trkpt>
      <trkpt lat="48.85801" lon="2.25651">
        <ele>47.599998474121</ele>
        <time>2017-05-29T19:49:28.000Z</time>
      </trkpt>
      <trkpt lat="48.85818" lon="2.25671">
        <ele>49</ele>
        <time>2017-05-29T19:49:33.000Z</time>
      </trkpt>
      <trkpt lat="48.85821" lon="2.25675">
        <ele>49.400001525879</ele>
        <time>2017-05-29T19:49:34.000Z</time>
      </trkpt>
      <trkpt lat="48.85834" lon="2.25693">
        <ele>51.200000762939</ele>
        <time>2017-05-29T19:49:39.000Z</time>
      </trkpt>
      <trkpt lat="48.85837" lon="2.25697">
        <ele>51.599998474121</ele>
        <time>2017-05-29T19:49:40.000Z</time>
      </trkpt>
      <trkpt lat="48.8584" lon="2.25704">
        <ele>52.200000762939</ele>
        <time>2017-05-29T19:49:42.000Z</time>
      </trkpt>
      <trkpt lat="48.85842" lon="2.25706">
        <ele>52.400001525879</ele>
        <time>2017-05-29T19:49:44.000Z</time>
      </trkpt>
      <trkpt lat="48.85836" lon="2.25678">
        <ele>50.799999237061</ele>
        <time>2017-05-29T19:50:00.000Z</time>
      </trkpt>
      <trkpt lat="48.85836" lon="2.25674">
        <ele>50.799999237061</ele>
        <time>2017-05-29T19:50:03.000Z</time>
      </trkpt>
      <trkpt lat="48.8585" lon="2.25671">
        <ele>51.799999237061</ele>
        <time>2017-05-29T19:50:22.000Z</time>
      </trkpt>
      <trkpt lat="48.85856" lon="2.25696">
        <ele>53.200000762939</ele>
        <time>2017-05-29T19:50:40.000Z</time>
      </trkpt>
      <trkpt lat="48.85863" lon="2.25725">
        <ele>54</ele>
        <time>2017-05-29T19:50:49.000Z</time>
      </trkpt>
      <trkpt lat="48.85872" lon="2.25741">
        <ele>54.200000762939</ele>
        <time>2017-05-29T19:50:54.000Z</time>
      </trkpt>
      <trkpt lat="48.85889" lon="2.25753">
        <ele>53.799999237061</ele>
        <time>2017-05-29T19:51:00.000Z</time>
      </trkpt>
      <trkpt lat="48.85908" lon="2.2576">
        <ele>53.200000762939</ele>
        <time>2017-05-29T19:51:06.000Z</time>
      </trkpt>
      <trkpt lat="48.85927" lon="2.25764">
        <ele>52.400001525879</ele>
        <time>2017-05-29T19:51:11.000Z</time>
      </trkpt>
      <trkpt lat="48.85949" lon="2.2577">
        <ele>51.799999237061</ele>
        <time>2017-05-29T19:51:16.000Z</time>
      </trkpt>
      <trkpt lat="48.85968" lon="2.25774">
        <ele>51.599998474121</ele>
        <time>2017-05-29T19:51:20.000Z</time>
      </trkpt>
      <trkpt lat="48.85989" lon="2.25777">
        <ele>51.400001525879</ele>
        <time>2017-05-29T19:51:24.000Z</time>
      </trkpt>
      <trkpt lat="48.86011" lon="2.25779">
        <ele>51.200000762939</ele>
        <time>2017-05-29T19:51:28.000Z</time>
      </trkpt>
      <trkpt lat="48.86034" lon="2.25783">
        <ele>51</ele>
        <time>2017-05-29T19:51:32.000Z</time>
      </trkpt>
      <trkpt lat="48.86052" lon="2.25788">
        <ele>51</ele>
        <time>2017-05-29T19:51:35.000Z</time>
      </trkpt>
      <trkpt lat="48.86071" lon="2.25793">
        <ele>51</ele>
        <time>2017-05-29T19:51:38.000Z</time>
      </trkpt>
      <trkpt lat="48.86089" lon="2.25796">
        <ele>51.200000762939</ele>
        <time>2017-05-29T19:51:41.000Z</time>
      </trkpt>
      <trkpt lat="48.86109" lon="2.25799">
        <ele>51.200000762939</ele>
        <time>2017-05-29T19:51:44.000Z</time>
      </trkpt>
      <trkpt lat="48.86127" lon="2.25802">
        <ele>50.400001525879</ele>
        <time>2017-05-29T19:51:47.000Z</time>
      </trkpt>
      <trkpt lat="48.86146" lon="2.25803">
        <ele>49.400001525879</ele>
        <time>2017-05-29T19:51:50.000Z</time>
      </trkpt>
      <trkpt lat="48.86169" lon="2.25804">
        <ele>48.400001525879</ele>
        <time>2017-05-29T19:51:54.000Z</time>
      </trkpt>
      <trkpt lat="48.86192" lon="2.25803">
        <ele>47.599998474121</ele>
        <time>2017-05-29T19:51:58.000Z</time>
      </trkpt>
      <trkpt lat="48.86214" lon="2.25804">
        <ele>47.599998474121</ele>
        <time>2017-05-29T19:52:02.000Z</time>
      </trkpt>
      <trkpt lat="48.86236" lon="2.25805">
        <ele>47.599998474121</ele>
        <time>2017-05-29T19:52:07.000Z</time>
      </trkpt>
      <trkpt lat="48.86246" lon="2.25805">
        <ele>47.599998474121</ele>
        <time>2017-05-29T19:52:10.000Z</time>
      </trkpt>
      <trkpt lat="48.86262" lon="2.25801">
        <ele>47.799999237061</ele>
        <time>2017-05-29T19:52:22.000Z</time>
      </trkpt>
      <trkpt lat="48.86281" lon="2.25801">
        <ele>48.200000762939</ele>
        <time>2017-05-29T19:52:28.000Z</time>
      </trkpt>
      <trkpt lat="48.86301" lon="2.25801">
        <ele>48.400001525879</ele>
        <time>2017-05-29T19:52:33.000Z</time>
      </trkpt>
      <trkpt lat="48.86321" lon="2.25802">
        <ele>48.599998474121</ele>
        <time>2017-05-29T19:52:38.000Z</time>
      </trkpt>
      <trkpt lat="48.86344" lon="2.25806">
        <ele>48</ele>
        <time>2017-05-29T19:52:43.000Z</time>
      </trkpt>
      <trkpt lat="48.86362" lon="2.25813">
        <ele>47.400001525879</ele>
        <time>2017-05-29T19:52:47.000Z</time>
      </trkpt>
      <trkpt lat="48.86383" lon="2.25824">
        <ele>47.200000762939</ele>
        <time>2017-05-29T19:52:52.000Z</time>
      </trkpt>
      <trkpt lat="48.864" lon="2.25834">
        <ele>47</ele>
        <time>2017-05-29T19:52:56.000Z</time>
      </trkpt>
      <trkpt lat="48.86418" lon="2.25846">
        <ele>46.799999237061</ele>
        <time>2017-05-29T19:53:00.000Z</time>
      </trkpt>
      <trkpt lat="48.86436" lon="2.25862">
        <ele>46.400001525879</ele>
        <time>2017-05-29T19:53:04.000Z</time>
      </trkpt>
      <trkpt lat="48.86449" lon="2.25873">
        <ele>46.400001525879</ele>
        <time>2017-05-29T19:53:07.000Z</time>
      </trkpt>
      <trkpt lat="48.86467" lon="2.25888">
        <ele>46.400001525879</ele>
        <time>2017-05-29T19:53:11.000Z</time>
      </trkpt>
      <trkpt lat="48.86484" lon="2.25907">
        <ele>46.400001525879</ele>
        <time>2017-05-29T19:53:15.000Z</time>
      </trkpt>
      <trkpt lat="48.86501" lon="2.25927">
        <ele>46.400001525879</ele>
        <time>2017-05-29T19:53:19.000Z</time>
      </trkpt>
      <trkpt lat="48.86517" lon="2.25949">
        <ele>46.599998474121</ele>
        <time>2017-05-29T19:53:23.000Z</time>
      </trkpt>
      <trkpt lat="48.86535" lon="2.25971">
        <ele>46.400001525879</ele>
        <time>2017-05-29T19:53:27.000Z</time>
      </trkpt>
      <trkpt lat="48.86551" lon="2.25994">
        <ele>46.200000762939</ele>
        <time>2017-05-29T19:53:31.000Z</time>
      </trkpt>
      <trkpt lat="48.86567" lon="2.26018">
        <ele>47</ele>
        <time>2017-05-29T19:53:35.000Z</time>
      </trkpt>
      <trkpt lat="48.8658" lon="2.2604">
        <ele>47.799999237061</ele>
        <time>2017-05-29T19:53:39.000Z</time>
      </trkpt>
      <trkpt lat="48.86584" lon="2.26045">
        <ele>47.799999237061</ele>
        <time>2017-05-29T19:53:40.000Z</time>
      </trkpt>
      <trkpt lat="48.86599" lon="2.26065">
        <ele>48.599998474121</ele>
        <time>2017-05-29T19:53:44.000Z</time>
      </trkpt>
      <trkpt lat="48.86613" lon="2.26085">
        <ele>49.200000762939</ele>
        <time>2017-05-29T19:53:48.000Z</time>
      </trkpt>
      <trkpt lat="48.86617" lon="2.26091">
        <ele>49.400001525879</ele>
        <time>2017-05-29T19:53:49.000Z</time>
      </trkpt>
      <trkpt lat="48.86632" lon="2.26111">
        <ele>50.400001525879</ele>
        <time>2017-05-29T19:53:53.000Z</time>
      </trkpt>
      <trkpt lat="48.86636" lon="2.26117">
        <ele>50.599998474121</ele>
        <time>2017-05-29T19:53:54.000Z</time>
      </trkpt>
      <trkpt lat="48.86651" lon="2.26137">
        <ele>51.400001525879</ele>
        <time>2017-05-29T19:53:58.000Z</time>
      </trkpt>
      <trkpt lat="48.86655" lon="2.26142">
        <ele>51.599998474121</ele>
        <time>2017-05-29T19:53:59.000Z</time>
      </trkpt>
      <trkpt lat="48.86666" lon="2.26156">
        <ele>52.200000762939</ele>
        <time>2017-05-29T19:54:02.000Z</time>
      </trkpt>
      <trkpt lat="48.86683" lon="2.26171">
        <ele>52.200000762939</ele>
        <time>2017-05-29T19:54:06.000Z</time>
      </trkpt>
      <trkpt lat="48.86691" lon="2.26179">
        <ele>52</ele>
        <time>2017-05-29T19:54:08.000Z</time>
      </trkpt>
      <trkpt lat="48.86708" lon="2.26195">
        <ele>51</ele>
        <time>2017-05-29T19:54:12.000Z</time>
      </trkpt>
      <trkpt lat="48.86727" lon="2.26207">
        <ele>50.200000762939</ele>
        <time>2017-05-29T19:54:16.000Z</time>
      </trkpt>
      <trkpt lat="48.86747" lon="2.26218">
        <ele>49.200000762939</ele>
        <time>2017-05-29T19:54:20.000Z</time>
      </trkpt>
      <trkpt lat="48.86765" lon="2.2623">
        <ele>48.200000762939</ele>
        <time>2017-05-29T19:54:24.000Z</time>
      </trkpt>
      <trkpt lat="48.86779" lon="2.26241">
        <ele>48</ele>
        <time>2017-05-29T19:54:27.000Z</time>
      </trkpt>
      <trkpt lat="48.86793" lon="2.26255">
        <ele>48.799999237061</ele>
        <time>2017-05-29T19:54:30.000Z</time>
      </trkpt>
      <trkpt lat="48.86809" lon="2.26278">
        <ele>50.400001525879</ele>
        <time>2017-05-29T19:54:34.000Z</time>
      </trkpt>
      <trkpt lat="48.86823" lon="2.26304">
        <ele>51.400001525879</ele>
        <time>2017-05-29T19:54:38.000Z</time>
      </trkpt>
      <trkpt lat="48.86834" lon="2.26331">
        <ele>52</ele>
        <time>2017-05-29T19:54:42.000Z</time>
      </trkpt>
      <trkpt lat="48.86836" lon="2.26337">
        <ele>52</ele>
        <time>2017-05-29T19:54:43.000Z</time>
      </trkpt>
      <trkpt lat="48.86843" lon="2.26363">
        <ele>51.599998474121</ele>
        <time>2017-05-29T19:54:47.000Z</time>
      </trkpt>
      <trkpt lat="48.86844" lon="2.26369">
        <ele>51.599998474121</ele>
        <time>2017-05-29T19:54:48.000Z</time>
      </trkpt>
      <trkpt lat="48.86846" lon="2.26388">
        <ele>51</ele>
        <time>2017-05-29T19:54:51.000Z</time>
      </trkpt>
      <trkpt lat="48.86851" lon="2.26417">
        <ele>50.599998474121</ele>
        <time>2017-05-29T19:54:56.000Z</time>
      </trkpt>
      <trkpt lat="48.86851" lon="2.26422">
        <ele>50.200000762939</ele>
        <time>2017-05-29T19:54:57.000Z</time>
      </trkpt>
      <trkpt lat="48.86851" lon="2.26433">
        <ele>49.400001525879</ele>
        <time>2017-05-29T19:54:59.000Z</time>
      </trkpt>
      <trkpt lat="48.86851" lon="2.26461">
        <ele>47.400001525879</ele>
        <time>2017-05-29T19:55:04.000Z</time>
      </trkpt>
      <trkpt lat="48.8685" lon="2.26471">
        <ele>46.799999237061</ele>
        <time>2017-05-29T19:55:06.000Z</time>
      </trkpt>
      <trkpt lat="48.86848" lon="2.26481">
        <ele>46</ele>
        <time>2017-05-29T19:55:08.000Z</time>
      </trkpt>
      <trkpt lat="48.86845" lon="2.265">
        <ele>45.599998474121</ele>
        <time>2017-05-29T19:55:12.000Z</time>
      </trkpt>
      <trkpt lat="48.86844" lon="2.26508">
        <ele>45.599998474121</ele>
        <time>2017-05-29T19:55:14.000Z</time>
      </trkpt>
      <trkpt lat="48.86842" lon="2.26514">
        <ele>45.599998474121</ele>
        <time>2017-05-29T19:55:16.000Z</time>
      </trkpt>
      <trkpt lat="48.8684" lon="2.26523">
        <ele>45.799999237061</ele>
        <time>2017-05-29T19:55:20.000Z</time>
      </trkpt>
      <trkpt lat="48.8684" lon="2.26525">
        <ele>45.799999237061</ele>
        <time>2017-05-29T19:57:55.000Z</time>
      </trkpt>
      <trkpt lat="48.86826" lon="2.26544">
        <ele>46.400001525879</ele>
        <time>2017-05-29T19:58:08.000Z</time>
      </trkpt>
      <trkpt lat="48.8681" lon="2.26561">
        <ele>46.599998474121</ele>
        <time>2017-05-29T19:58:14.000Z</time>
      </trkpt>
      <trkpt lat="48.8679" lon="2.26567">
        <ele>46.799999237061</ele>
        <time>2017-05-29T19:58:20.000Z</time>
      </trkpt>
      <trkpt lat="48.8677" lon="2.2656">
        <ele>47.400001525879</ele>
        <time>2017-05-29T19:58:25.000Z</time>
      </trkpt>
      <trkpt lat="48.86752" lon="2.26545">
        <ele>47.599998474121</ele>
        <time>2017-05-29T19:58:29.000Z</time>
      </trkpt>
      <trkpt lat="48.86734" lon="2.26529">
        <ele>47.799999237061</ele>
        <time>2017-05-29T19:58:33.000Z</time>
      </trkpt>
      <trkpt lat="48.86715" lon="2.26514">
        <ele>47.799999237061</ele>
        <time>2017-05-29T19:58:37.000Z</time>
      </trkpt>
      <trkpt lat="48.86696" lon="2.265">
        <ele>48</ele>
        <time>2017-05-29T19:58:41.000Z</time>
      </trkpt>
      <trkpt lat="48.86676" lon="2.26492">
        <ele>47.599998474121</ele>
        <time>2017-05-29T19:58:45.000Z</time>
      </trkpt>
      <trkpt lat="48.86665" lon="2.26486">
        <ele>47</ele>
        <time>2017-05-29T19:58:48.000Z</time>
      </trkpt>
      <trkpt lat="48.86657" lon="2.26464">
        <ele>46</ele>
        <time>2017-05-29T19:58:53.000Z</time>
      </trkpt>
      <trkpt lat="48.86646" lon="2.26435">
        <ele>44.200000762939</ele>
        <time>2017-05-29T19:58:58.000Z</time>
      </trkpt>
      <trkpt lat="48.86644" lon="2.26429">
        <ele>43.799999237061</ele>
        <time>2017-05-29T19:58:59.000Z</time>
      </trkpt>
      <trkpt lat="48.86633" lon="2.26405">
        <ele>42.599998474121</ele>
        <time>2017-05-29T19:59:03.000Z</time>
      </trkpt>
      <trkpt lat="48.86621" lon="2.2638">
        <ele>42.400001525879</ele>
        <time>2017-05-29T19:59:07.000Z</time>
      </trkpt>
      <trkpt lat="48.86608" lon="2.26358">
        <ele>42.400001525879</ele>
        <time>2017-05-29T19:59:11.000Z</time>
      </trkpt>
      <trkpt lat="48.86601" lon="2.2635">
        <ele>42.400001525879</ele>
        <time>2017-05-29T19:59:13.000Z</time>
      </trkpt>
      <trkpt lat="48.86586" lon="2.26334">
        <ele>43</ele>
        <time>2017-05-29T19:59:17.000Z</time>
      </trkpt>
      <trkpt lat="48.86578" lon="2.26327">
        <ele>43.400001525879</ele>
        <time>2017-05-29T19:59:19.000Z</time>
      </trkpt>
      <trkpt lat="48.8656" lon="2.26318">
        <ele>44.599998474121</ele>
        <time>2017-05-29T19:59:23.000Z</time>
      </trkpt>
      <trkpt lat="48.86541" lon="2.26309">
        <ele>45.799999237061</ele>
        <time>2017-05-29T19:59:27.000Z</time>
      </trkpt>
      <trkpt lat="48.86521" lon="2.26304">
        <ele>47</ele>
        <time>2017-05-29T19:59:31.000Z</time>
      </trkpt>
      <trkpt lat="48.86501" lon="2.26299">
        <ele>47.200000762939</ele>
        <time>2017-05-29T19:59:35.000Z</time>
      </trkpt>
      <trkpt lat="48.86487" lon="2.26293">
        <ele>47.400001525879</ele>
        <time>2017-05-29T19:59:38.000Z</time>
      </trkpt>
      <trkpt lat="48.86473" lon="2.26284">
        <ele>47.599998474121</ele>
        <time>2017-05-29T19:59:41.000Z</time>
      </trkpt>
      <trkpt lat="48.86459" lon="2.26271">
        <ele>48.200000762939</ele>
        <time>2017-05-29T19:59:44.000Z</time>
      </trkpt>
      <trkpt lat="48.86442" lon="2.26253">
        <ele>48.799999237061</ele>
        <time>2017-05-29T19:59:48.000Z</time>
      </trkpt>
      <trkpt lat="48.86424" lon="2.26233">
        <ele>48.799999237061</ele>
        <time>2017-05-29T19:59:52.000Z</time>
      </trkpt>
      <trkpt lat="48.8642" lon="2.26228">
        <ele>48.799999237061</ele>
        <time>2017-05-29T19:59:53.000Z</time>
      </trkpt>
      <trkpt lat="48.86406" lon="2.26215">
        <ele>48.599998474121</ele>
        <time>2017-05-29T19:59:56.000Z</time>
      </trkpt>
      <trkpt lat="48.86387" lon="2.26204">
        <ele>48.400001525879</ele>
        <time>2017-05-29T20:00:00.000Z</time>
      </trkpt>
      <trkpt lat="48.86367" lon="2.26194">
        <ele>48.400001525879</ele>
        <time>2017-05-29T20:00:04.000Z</time>
      </trkpt>
      <trkpt lat="48.86352" lon="2.2619">
        <ele>48.599998474121</ele>
        <time>2017-05-29T20:00:07.000Z</time>
      </trkpt>
      <trkpt lat="48.86332" lon="2.2619">
        <ele>49.400001525879</ele>
        <time>2017-05-29T20:00:11.000Z</time>
      </trkpt>
      <trkpt lat="48.86311" lon="2.26191">
        <ele>50.400001525879</ele>
        <time>2017-05-29T20:00:15.000Z</time>
      </trkpt>
      <trkpt lat="48.86297" lon="2.26192">
        <ele>51.200000762939</ele>
        <time>2017-05-29T20:00:18.000Z</time>
      </trkpt>
      <trkpt lat="48.8628" lon="2.26195">
        <ele>52.400001525879</ele>
        <time>2017-05-29T20:00:21.000Z</time>
      </trkpt>
      <trkpt lat="48.86271" lon="2.26196">
        <ele>52.599998474121</ele>
        <time>2017-05-29T20:00:23.000Z</time>
      </trkpt>
      <trkpt lat="48.86253" lon="2.26198">
        <ele>51.799999237061</ele>
        <time>2017-05-29T20:00:27.000Z</time>
      </trkpt>
      <trkpt lat="48.86238" lon="2.26197">
        <ele>51.200000762939</ele>
        <time>2017-05-29T20:00:30.000Z</time>
      </trkpt>
      <trkpt lat="48.86219" lon="2.2619">
        <ele>50</ele>
        <time>2017-05-29T20:00:34.000Z</time>
      </trkpt>
      <trkpt lat="48.86211" lon="2.26188">
        <ele>49.599998474121</ele>
        <time>2017-05-29T20:00:36.000Z</time>
      </trkpt>
      <trkpt lat="48.86202" lon="2.26181">
        <ele>49</ele>
        <time>2017-05-29T20:00:39.000Z</time>
      </trkpt>
      <trkpt lat="48.86194" lon="2.26195">
        <ele>48.400001525879</ele>
        <time>2017-05-29T20:00:55.000Z</time>
      </trkpt>
      <trkpt lat="48.86192" lon="2.26192">
        <ele>48.200000762939</ele>
        <time>2017-05-29T20:01:47.000Z</time>
      </trkpt>
      <trkpt lat="48.86182" lon="2.26168">
        <ele>48.200000762939</ele>
        <time>2017-05-29T20:01:55.000Z</time>
      </trkpt>
      <trkpt lat="48.8617" lon="2.26145">
        <ele>48.599998474121</ele>
        <time>2017-05-29T20:02:00.000Z</time>
      </trkpt>
      <trkpt lat="48.86157" lon="2.26124">
        <ele>49.200000762939</ele>
        <time>2017-05-29T20:02:04.000Z</time>
      </trkpt>
      <trkpt lat="48.86142" lon="2.26103">
        <ele>49.599998474121</ele>
        <time>2017-05-29T20:02:08.000Z</time>
      </trkpt>
      <trkpt lat="48.86126" lon="2.2608">
        <ele>50.200000762939</ele>
        <time>2017-05-29T20:02:12.000Z</time>
      </trkpt>
      <trkpt lat="48.86107" lon="2.26057">
        <ele>51</ele>
        <time>2017-05-29T20:02:16.000Z</time>
      </trkpt>
      <trkpt lat="48.86093" lon="2.26039">
        <ele>50.799999237061</ele>
        <time>2017-05-29T20:02:19.000Z</time>
      </trkpt>
      <trkpt lat="48.86087" lon="2.26033">
        <ele>50.799999237061</ele>
        <time>2017-05-29T20:02:20.000Z</time>
      </trkpt>
      <trkpt lat="48.86071" lon="2.26018">
        <ele>50.599998474121</ele>
        <time>2017-05-29T20:02:23.000Z</time>
      </trkpt>
      <trkpt lat="48.86052" lon="2.26006">
        <ele>50.400001525879</ele>
        <time>2017-05-29T20:02:26.000Z</time>
      </trkpt>
      <trkpt lat="48.86034" lon="2.25995">
        <ele>50.200000762939</ele>
        <time>2017-05-29T20:02:29.000Z</time>
      </trkpt>
      <trkpt lat="48.86015" lon="2.25986">
        <ele>50.200000762939</ele>
        <time>2017-05-29T20:02:32.000Z</time>
      </trkpt>
      <trkpt lat="48.85997" lon="2.25978">
        <ele>50.400001525879</ele>
        <time>2017-05-29T20:02:35.000Z</time>
      </trkpt>
      <trkpt lat="48.85979" lon="2.25971">
        <ele>50.799999237061</ele>
        <time>2017-05-29T20:02:38.000Z</time>
      </trkpt>
      <trkpt lat="48.85961" lon="2.25962">
        <ele>51</ele>
        <time>2017-05-29T20:02:41.000Z</time>
      </trkpt>
      <trkpt lat="48.85938" lon="2.25953">
        <ele>51.599998474121</ele>
        <time>2017-05-29T20:02:45.000Z</time>
      </trkpt>
      <trkpt lat="48.85916" lon="2.25941">
        <ele>51.599998474121</ele>
        <time>2017-05-29T20:02:49.000Z</time>
      </trkpt>
      <trkpt lat="48.85896" lon="2.25927">
        <ele>51.599998474121</ele>
        <time>2017-05-29T20:02:53.000Z</time>
      </trkpt>
      <trkpt lat="48.85878" lon="2.25914">
        <ele>51.799999237061</ele>
        <time>2017-05-29T20:02:57.000Z</time>
      </trkpt>
      <trkpt lat="48.85859" lon="2.25899">
        <ele>51.799999237061</ele>
        <time>2017-05-29T20:03:02.000Z</time>
      </trkpt>
      <trkpt lat="48.85849" lon="2.25893">
        <ele>52.200000762939</ele>
        <time>2017-05-29T20:03:05.000Z</time>
      </trkpt>
      <trkpt lat="48.8585" lon="2.25869">
        <ele>51.799999237061</ele>
        <time>2017-05-29T20:03:10.000Z</time>
      </trkpt>
      <trkpt lat="48.85854" lon="2.25842">
        <ele>51.200000762939</ele>
        <time>2017-05-29T20:03:15.000Z</time>
      </trkpt>
      <trkpt lat="48.85861" lon="2.25815">
        <ele>51.799999237061</ele>
        <time>2017-05-29T20:03:20.000Z</time>
      </trkpt>
      <trkpt lat="48.85871" lon="2.25787">
        <ele>53.200000762939</ele>
        <time>2017-05-29T20:03:26.000Z</time>
      </trkpt>
      <trkpt lat="48.85877" lon="2.25762">
        <ele>54.200000762939</ele>
        <time>2017-05-29T20:03:33.000Z</time>
      </trkpt>
      <trkpt lat="48.85873" lon="2.25746">
        <ele>54.400001525879</ele>
        <time>2017-05-29T20:03:38.000Z</time>
      </trkpt>
      <trkpt lat="48.85865" lon="2.25738">
        <ele>54.400001525879</ele>
        <time>2017-05-29T20:03:44.000Z</time>
      </trkpt>
      <trkpt lat="48.85864" lon="2.25737">
        <ele>54.400001525879</ele>
        <time>2017-05-29T20:03:46.000Z</time>
      </trkpt>
      <trkpt lat="48.85876" lon="2.25757">
        <ele>54.200000762939</ele>
        <time>2017-05-29T20:04:00.000Z</time>
      </trkpt>
      <trkpt lat="48.85876" lon="2.2576">
        <ele>54.200000762939</ele>
        <time>2017-05-29T20:04:01.000Z</time>
      </trkpt>
      <trkpt lat="48.85874" lon="2.25788">
        <ele>53.200000762939</ele>
        <time>2017-05-29T20:04:12.000Z</time>
      </trkpt>
      <trkpt lat="48.85872" lon="2.25793">
        <ele>53</ele>
        <time>2017-05-29T20:04:14.000Z</time>
      </trkpt>
      <trkpt lat="48.85865" lon="2.25819">
        <ele>51.599998474121</ele>
        <time>2017-05-29T20:04:23.000Z</time>
      </trkpt>
      <trkpt lat="48.8586" lon="2.25843">
        <ele>51.200000762939</ele>
        <time>2017-05-29T20:04:32.000Z</time>
      </trkpt>
      <trkpt lat="48.85859" lon="2.25852">
        <ele>51.200000762939</ele>
        <time>2017-05-29T20:04:36.000Z</time>
      </trkpt>
      <trkpt lat="48.85856" lon="2.25865">
        <ele>51.400001525879</ele>
        <time>2017-05-29T20:04:42.000Z</time>
      </trkpt>
      <trkpt lat="48.85854" lon="2.25888">
        <ele>51.799999237061</ele>
        <time>2017-05-29T20:05:05.000Z</time>
      </trkpt>
      <trkpt lat="48.85851" lon="2.25906">
        <ele>52.200000762939</ele>
        <time>2017-05-29T20:06:17.000Z</time>
      </trkpt>
      <trkpt lat="48.85851" lon="2.25934">
        <ele>51.799999237061</ele>
        <time>2017-05-29T20:06:25.000Z</time>
      </trkpt>
      <trkpt lat="48.85851" lon="2.25964">
        <ele>51.799999237061</ele>
        <time>2017-05-29T20:06:34.000Z</time>
      </trkpt>
      <trkpt lat="48.85851" lon="2.25992">
        <ele>51.799999237061</ele>
        <time>2017-05-29T20:06:40.000Z</time>
      </trkpt>
      <trkpt lat="48.85849" lon="2.26023">
        <ele>51.599998474121</ele>
        <time>2017-05-29T20:06:47.000Z</time>
      </trkpt>
      <trkpt lat="48.85848" lon="2.2605">
        <ele>51.200000762939</ele>
        <time>2017-05-29T20:06:54.000Z</time>
      </trkpt>
      <trkpt lat="48.85847" lon="2.26069">
        <ele>51</ele>
        <time>2017-05-29T20:07:02.000Z</time>
      </trkpt>
      <trkpt lat="48.85836" lon="2.26091">
        <ele>51</ele>
        <time>2017-05-29T20:07:42.000Z</time>
      </trkpt>
      <trkpt lat="48.85827" lon="2.26119">
        <ele>50.400001525879</ele>
        <time>2017-05-29T20:07:46.000Z</time>
      </trkpt>
      <trkpt lat="48.85819" lon="2.26153">
        <ele>51.599998474121</ele>
        <time>2017-05-29T20:07:50.000Z</time>
      </trkpt>
      <trkpt lat="48.85811" lon="2.26181">
        <ele>52.799999237061</ele>
        <time>2017-05-29T20:07:53.000Z</time>
      </trkpt>
      <trkpt lat="48.85804" lon="2.26208">
        <ele>53.200000762939</ele>
        <time>2017-05-29T20:07:56.000Z</time>
      </trkpt>
      <trkpt lat="48.85797" lon="2.26235">
        <ele>53.400001525879</ele>
        <time>2017-05-29T20:07:59.000Z</time>
      </trkpt>
      <trkpt lat="48.85793" lon="2.26251">
        <ele>53.799999237061</ele>
        <time>2017-05-29T20:08:01.000Z</time>
      </trkpt>
      <trkpt lat="48.85784" lon="2.26276">
        <ele>54.599998474121</ele>
        <time>2017-05-29T20:08:05.000Z</time>
      </trkpt>
      <trkpt lat="48.85783" lon="2.26281">
        <ele>54.400001525879</ele>
        <time>2017-05-29T20:08:06.000Z</time>
      </trkpt>
      <trkpt lat="48.85776" lon="2.26309">
        <ele>54.200000762939</ele>
        <time>2017-05-29T20:08:10.000Z</time>
      </trkpt>
      <trkpt lat="48.85772" lon="2.26324">
        <ele>54</ele>
        <time>2017-05-29T20:08:12.000Z</time>
      </trkpt>
      <trkpt lat="48.85764" lon="2.26355">
        <ele>54.799999237061</ele>
        <time>2017-05-29T20:08:16.000Z</time>
      </trkpt>
      <trkpt lat="48.85757" lon="2.26385">
        <ele>55.599998474121</ele>
        <time>2017-05-29T20:08:20.000Z</time>
      </trkpt>
      <trkpt lat="48.8575" lon="2.2641">
        <ele>56.799999237061</ele>
        <time>2017-05-29T20:08:24.000Z</time>
      </trkpt>
      <trkpt lat="48.85744" lon="2.26437">
        <ele>58</ele>
        <time>2017-05-29T20:08:29.000Z</time>
      </trkpt>
      <trkpt lat="48.85743" lon="2.26443">
        <ele>58.200000762939</ele>
        <time>2017-05-29T20:08:30.000Z</time>
      </trkpt>
      <trkpt lat="48.85736" lon="2.26471">
        <ele>58.799999237061</ele>
        <time>2017-05-29T20:08:35.000Z</time>
      </trkpt>
      <trkpt lat="48.85729" lon="2.26499">
        <ele>58.799999237061</ele>
        <time>2017-05-29T20:08:40.000Z</time>
      </trkpt>
      <trkpt lat="48.85721" lon="2.26528">
        <ele>60.599998474121</ele>
        <time>2017-05-29T20:08:44.000Z</time>
      </trkpt>
      <trkpt lat="48.85713" lon="2.26557">
        <ele>61</ele>
        <time>2017-05-29T20:08:48.000Z</time>
      </trkpt>
      <trkpt lat="48.85706" lon="2.26587">
        <ele>61.400001525879</ele>
        <time>2017-05-29T20:08:52.000Z</time>
      </trkpt>
      <trkpt lat="48.85704" lon="2.26613">
        <ele>61.400001525879</ele>
        <time>2017-05-29T20:08:55.000Z</time>
      </trkpt>
      <trkpt lat="48.85705" lon="2.26647">
        <ele>61.799999237061</ele>
        <time>2017-05-29T20:08:59.000Z</time>
      </trkpt>
      <trkpt lat="48.85711" lon="2.26682">
        <ele>60.799999237061</ele>
        <time>2017-05-29T20:09:03.000Z</time>
      </trkpt>
      <trkpt lat="48.85714" lon="2.26691">
        <ele>60.599998474121</ele>
        <time>2017-05-29T20:09:04.000Z</time>
      </trkpt>
      <trkpt lat="48.85724" lon="2.26718">
        <ele>60.599998474121</ele>
        <time>2017-05-29T20:09:07.000Z</time>
      </trkpt>
      <trkpt lat="48.85735" lon="2.26747">
        <ele>60.599998474121</ele>
        <time>2017-05-29T20:09:10.000Z</time>
      </trkpt>
      <trkpt lat="48.85746" lon="2.26777">
        <ele>59.599998474121</ele>
        <time>2017-05-29T20:09:13.000Z</time>
      </trkpt>
      <trkpt lat="48.85757" lon="2.26808">
        <ele>58.400001525879</ele>
        <time>2017-05-29T20:09:16.000Z</time>
      </trkpt>
      <trkpt lat="48.85769" lon="2.26838">
        <ele>57.200000762939</ele>
        <time>2017-05-29T20:09:19.000Z</time>
      </trkpt>
      <trkpt lat="48.85779" lon="2.26868">
        <ele>57.200000762939</ele>
        <time>2017-05-29T20:09:22.000Z</time>
      </trkpt>
      <trkpt lat="48.85792" lon="2.26899">
        <ele>56.799999237061</ele>
        <time>2017-05-29T20:09:25.000Z</time>
      </trkpt>
      <trkpt lat="48.85803" lon="2.2693">
        <ele>56.599998474121</ele>
        <time>2017-05-29T20:09:28.000Z</time>
      </trkpt>
      <trkpt lat="48.85814" lon="2.26962">
        <ele>56</ele>
        <time>2017-05-29T20:09:31.000Z</time>
      </trkpt>
      <trkpt lat="48.85818" lon="2.26972">
        <ele>56</ele>
        <time>2017-05-29T20:09:32.000Z</time>
      </trkpt>
      <trkpt lat="48.85827" lon="2.27007">
        <ele>56.200000762939</ele>
        <time>2017-05-29T20:09:35.000Z</time>
      </trkpt>
      <trkpt lat="48.85833" lon="2.27028">
        <ele>57</ele>
        <time>2017-05-29T20:09:37.000Z</time>
      </trkpt>
      <trkpt lat="48.85834" lon="2.27061">
        <ele>58.200000762939</ele>
        <time>2017-05-29T20:09:40.000Z</time>
      </trkpt>
      <trkpt lat="48.85833" lon="2.27072">
        <ele>58.200000762939</ele>
        <time>2017-05-29T20:09:41.000Z</time>
      </trkpt>
      <trkpt lat="48.8583" lon="2.27092">
        <ele>58.599998474121</ele>
        <time>2017-05-29T20:09:43.000Z</time>
      </trkpt>
      <trkpt lat="48.85827" lon="2.27121">
        <ele>59.400001525879</ele>
        <time>2017-05-29T20:09:46.000Z</time>
      </trkpt>
      <trkpt lat="48.85827" lon="2.27132">
        <ele>59.599998474121</ele>
        <time>2017-05-29T20:09:47.000Z</time>
      </trkpt>
      <trkpt lat="48.85826" lon="2.2716">
        <ele>58.599998474121</ele>
        <time>2017-05-29T20:09:50.000Z</time>
      </trkpt>
      <trkpt lat="48.85825" lon="2.27192">
        <ele>60.200000762939</ele>
        <time>2017-05-29T20:09:54.000Z</time>
      </trkpt>
      <trkpt lat="48.85824" lon="2.27221">
        <ele>62</ele>
        <time>2017-05-29T20:09:59.000Z</time>
      </trkpt>
      <trkpt lat="48.85824" lon="2.27226">
        <ele>62.400001525879</ele>
        <time>2017-05-29T20:10:00.000Z</time>
      </trkpt>
      <trkpt lat="48.85821" lon="2.2724">
        <ele>63.400001525879</ele>
        <time>2017-05-29T20:10:05.000Z</time>
      </trkpt>
      <trkpt lat="48.85818" lon="2.27251">
        <ele>63.799999237061</ele>
        <time>2017-05-29T20:11:15.000Z</time>
      </trkpt>
      <trkpt lat="48.85811" lon="2.27282">
        <ele>64.199996948242</ele>
        <time>2017-05-29T20:11:21.000Z</time>
      </trkpt>
      <trkpt lat="48.85813" lon="2.2731">
        <ele>65.800003051758</ele>
        <time>2017-05-29T20:11:26.000Z</time>
      </trkpt>
      <trkpt lat="48.85816" lon="2.27343">
        <ele>67.599998474121</ele>
        <time>2017-05-29T20:11:32.000Z</time>
      </trkpt>
      <trkpt lat="48.85817" lon="2.27376">
        <ele>69.199996948242</ele>
        <time>2017-05-29T20:11:37.000Z</time>
      </trkpt>
      <trkpt lat="48.85814" lon="2.27409">
        <ele>69.400001525879</ele>
        <time>2017-05-29T20:11:42.000Z</time>
      </trkpt>
      <trkpt lat="48.85814" lon="2.27441">
        <ele>68.599998474121</ele>
        <time>2017-05-29T20:11:47.000Z</time>
      </trkpt>
      <trkpt lat="48.85818" lon="2.27472">
        <ele>67.599998474121</ele>
        <time>2017-05-29T20:11:52.000Z</time>
      </trkpt>
      <trkpt lat="48.85818" lon="2.27501">
        <ele>67</ele>
        <time>2017-05-29T20:11:57.000Z</time>
      </trkpt>
      <trkpt lat="48.85819" lon="2.2753">
        <ele>66.199996948242</ele>
        <time>2017-05-29T20:12:01.000Z</time>
      </trkpt>
      <trkpt lat="48.85818" lon="2.27562">
        <ele>65.800003051758</ele>
        <time>2017-05-29T20:12:05.000Z</time>
      </trkpt>
      <trkpt lat="48.85818" lon="2.27578">
        <ele>65.599998474121</ele>
        <time>2017-05-29T20:12:07.000Z</time>
      </trkpt>
      <trkpt lat="48.85817" lon="2.2761">
        <ele>65.800003051758</ele>
        <time>2017-05-29T20:12:11.000Z</time>
      </trkpt>
      <trkpt lat="48.85814" lon="2.27642">
        <ele>66.199996948242</ele>
        <time>2017-05-29T20:12:15.000Z</time>
      </trkpt>
      <trkpt lat="48.85813" lon="2.27676">
        <ele>66.599998474121</ele>
        <time>2017-05-29T20:12:19.000Z</time>
      </trkpt>
      <trkpt lat="48.85809" lon="2.27707">
        <ele>66.800003051758</ele>
        <time>2017-05-29T20:12:23.000Z</time>
      </trkpt>
      <trkpt lat="48.8581" lon="2.27719">
        <ele>67</ele>
        <time>2017-05-29T20:12:25.000Z</time>
      </trkpt>
      <trkpt lat="48.85812" lon="2.27747">
        <ele>67</ele>
        <time>2017-05-29T20:12:29.000Z</time>
      </trkpt>
      <trkpt lat="48.8581" lon="2.27761">
        <ele>66.800003051758</ele>
        <time>2017-05-29T20:12:31.000Z</time>
      </trkpt>
      <trkpt lat="48.85805" lon="2.27793">
        <ele>66.599998474121</ele>
        <time>2017-05-29T20:12:36.000Z</time>
      </trkpt>
      <trkpt lat="48.85802" lon="2.27818">
        <ele>66.800003051758</ele>
        <time>2017-05-29T20:12:40.000Z</time>
      </trkpt>
      <trkpt lat="48.85796" lon="2.27842">
        <ele>66.800003051758</ele>
        <time>2017-05-29T20:12:44.000Z</time>
      </trkpt>
      <trkpt lat="48.8579" lon="2.27873">
        <ele>66.599998474121</ele>
        <time>2017-05-29T20:12:48.000Z</time>
      </trkpt>
      <trkpt lat="48.85786" lon="2.27903">
        <ele>66.599998474121</ele>
        <time>2017-05-29T20:12:52.000Z</time>
      </trkpt>
      <trkpt lat="48.85785" lon="2.27932">
        <ele>67.400001525879</ele>
        <time>2017-05-29T20:12:56.000Z</time>
      </trkpt>
      <trkpt lat="48.85783" lon="2.27945">
        <ele>68.199996948242</ele>
        <time>2017-05-29T20:12:58.000Z</time>
      </trkpt>
      <trkpt lat="48.85782" lon="2.2797">
        <ele>69.400001525879</ele>
        <time>2017-05-29T20:13:02.000Z</time>
      </trkpt>
      <trkpt lat="48.85781" lon="2.27986">
        <ele>70.199996948242</ele>
        <time>2017-05-29T20:13:05.000Z</time>
      </trkpt>
      <trkpt lat="48.8578" lon="2.28">
        <ele>70.800003051758</ele>
        <time>2017-05-29T20:13:08.000Z</time>
      </trkpt>
      <trkpt lat="48.8578" lon="2.28009">
        <ele>70.800003051758</ele>
        <time>2017-05-29T20:13:10.000Z</time>
      </trkpt>
      <trkpt lat="48.85779" lon="2.28016">
        <ele>70.599998474121</ele>
        <time>2017-05-29T20:13:13.000Z</time>
      </trkpt>
      <trkpt lat="48.85788" lon="2.28022">
        <ele>70.599998474121</ele>
        <time>2017-05-29T20:13:47.000Z</time>
      </trkpt>
      <trkpt lat="48.85796" lon="2.2805">
        <ele>70</ele>
        <time>2017-05-29T20:13:53.000Z</time>
      </trkpt>
      <trkpt lat="48.85801" lon="2.28077">
        <ele>69.599998474121</ele>
        <time>2017-05-29T20:14:00.000Z</time>
      </trkpt>
      <trkpt lat="48.85805" lon="2.28106">
        <ele>69.400001525879</ele>
        <time>2017-05-29T20:14:08.000Z</time>
      </trkpt>
      <trkpt lat="48.85806" lon="2.28135">
        <ele>69</ele>
        <time>2017-05-29T20:14:16.000Z</time>
      </trkpt>
      <trkpt lat="48.85805" lon="2.28145">
        <ele>68.800003051758</ele>
        <time>2017-05-29T20:14:21.000Z</time>
      </trkpt>
      <trkpt lat="48.85802" lon="2.2816">
        <ele>68.599998474121</ele>
        <time>2017-05-29T20:14:28.000Z</time>
      </trkpt>
      <trkpt lat="48.85803" lon="2.28189">
        <ele>69</ele>
        <time>2017-05-29T20:14:37.000Z</time>
      </trkpt>
      <trkpt lat="48.8581" lon="2.28215">
        <ele>69.400001525879</ele>
        <time>2017-05-29T20:14:43.000Z</time>
      </trkpt>
      <trkpt lat="48.85811" lon="2.28227">
        <ele>69.599998474121</ele>
        <time>2017-05-29T20:14:47.000Z</time>
      </trkpt>
      <trkpt lat="48.85823" lon="2.2826">
        <ele>70.199996948242</ele>
        <time>2017-05-29T20:14:53.000Z</time>
      </trkpt>
      <trkpt lat="48.85828" lon="2.28288">
        <ele>70.599998474121</ele>
        <time>2017-05-29T20:15:00.000Z</time>
      </trkpt>
      <trkpt lat="48.85835" lon="2.28315">
        <ele>71.199996948242</ele>
        <time>2017-05-29T20:15:07.000Z</time>
      </trkpt>
      <trkpt lat="48.85849" lon="2.28339">
        <ele>70.800003051758</ele>
        <time>2017-05-29T20:15:10.000Z</time>
      </trkpt>
      <trkpt lat="48.85856" lon="2.28366">
        <ele>69.199996948242</ele>
        <time>2017-05-29T20:15:15.000Z</time>
      </trkpt>
      <trkpt lat="48.85864" lon="2.28395">
        <ele>68.199996948242</ele>
        <time>2017-05-29T20:15:20.000Z</time>
      </trkpt>
      <trkpt lat="48.85866" lon="2.28425">
        <ele>67.400001525879</ele>
        <time>2017-05-29T20:15:25.000Z</time>
      </trkpt>
      <trkpt lat="48.85867" lon="2.28454">
        <ele>66.400001525879</ele>
        <time>2017-05-29T20:15:33.000Z</time>
      </trkpt>
      <trkpt lat="48.85868" lon="2.28458">
        <ele>66.400001525879</ele>
        <time>2017-05-29T20:15:35.000Z</time>
      </trkpt>
      <trkpt lat="48.85864" lon="2.28459">
        <ele>66</ele>
        <time>2017-05-29T20:15:38.000Z</time>
      </trkpt>
      <trkpt lat="48.85866" lon="2.28471">
        <ele>65.800003051758</ele>
        <time>2017-05-29T20:16:06.000Z</time>
      </trkpt>
      <trkpt lat="48.85881" lon="2.28472">
        <ele>67</ele>
        <time>2017-05-29T20:16:14.000Z</time>
      </trkpt>
      <trkpt lat="48.85899" lon="2.28477">
        <ele>68.400001525879</ele>
        <time>2017-05-29T20:16:22.000Z</time>
      </trkpt>
      <trkpt lat="48.85917" lon="2.28488">
        <ele>69.400001525879</ele>
        <time>2017-05-29T20:16:28.000Z</time>
      </trkpt>
      <trkpt lat="48.85937" lon="2.28499">
        <ele>70.800003051758</ele>
        <time>2017-05-29T20:16:34.000Z</time>
      </trkpt>
      <trkpt lat="48.85955" lon="2.28511">
        <ele>71.400001525879</ele>
        <time>2017-05-29T20:16:39.000Z</time>
      </trkpt>
      <trkpt lat="48.85971" lon="2.28523">
        <ele>71.800003051758</ele>
        <time>2017-05-29T20:16:43.000Z</time>
      </trkpt>
      <trkpt lat="48.85986" lon="2.28538">
        <ele>72.199996948242</ele>
        <time>2017-05-29T20:16:48.000Z</time>
      </trkpt>
      <trkpt lat="48.86006" lon="2.28547">
        <ele>72.599998474121</ele>
        <time>2017-05-29T20:16:53.000Z</time>
      </trkpt>
      <trkpt lat="48.86026" lon="2.28562">
        <ele>73.199996948242</ele>
        <time>2017-05-29T20:16:58.000Z</time>
      </trkpt>
      <trkpt lat="48.86042" lon="2.2858">
        <ele>73.800003051758</ele>
        <time>2017-05-29T20:17:02.000Z</time>
      </trkpt>
      <trkpt lat="48.8606" lon="2.28598">
        <ele>73.400001525879</ele>
        <time>2017-05-29T20:17:08.000Z</time>
      </trkpt>
      <trkpt lat="48.86079" lon="2.28611">
        <ele>73.400001525879</ele>
        <time>2017-05-29T20:17:13.000Z</time>
      </trkpt>
      <trkpt lat="48.86097" lon="2.28622">
        <ele>73.599998474121</ele>
        <time>2017-05-29T20:17:17.000Z</time>
      </trkpt>
      <trkpt lat="48.86114" lon="2.28632">
        <ele>73.199996948242</ele>
        <time>2017-05-29T20:17:21.000Z</time>
      </trkpt>
      <trkpt lat="48.86128" lon="2.28637">
        <ele>72.800003051758</ele>
        <time>2017-05-29T20:17:24.000Z</time>
      </trkpt>
      <trkpt lat="48.86148" lon="2.28645">
        <ele>72.400001525879</ele>
        <time>2017-05-29T20:17:29.000Z</time>
      </trkpt>
      <trkpt lat="48.86153" lon="2.28645">
        <ele>72.199996948242</ele>
        <time>2017-05-29T20:17:30.000Z</time>
      </trkpt>
      <trkpt lat="48.86172" lon="2.28643">
        <ele>72.400001525879</ele>
        <time>2017-05-29T20:17:34.000Z</time>
      </trkpt>
      <trkpt lat="48.86182" lon="2.28645">
        <ele>71.599998474121</ele>
        <time>2017-05-29T20:17:36.000Z</time>
      </trkpt>
      <trkpt lat="48.86196" lon="2.2865">
        <ele>70.599998474121</ele>
        <time>2017-05-29T20:17:39.000Z</time>
      </trkpt>
      <trkpt lat="48.86213" lon="2.28673">
        <ele>69</ele>
        <time>2017-05-29T20:17:43.000Z</time>
      </trkpt>
      <trkpt lat="48.86219" lon="2.28681">
        <ele>68.199996948242</ele>
        <time>2017-05-29T20:17:45.000Z</time>
      </trkpt>
      <trkpt lat="48.86228" lon="2.28694">
        <ele>67.199996948242</ele>
        <time>2017-05-29T20:17:48.000Z</time>
      </trkpt>
      <trkpt lat="48.86243" lon="2.28719">
        <ele>65.199996948242</ele>
        <time>2017-05-29T20:17:52.000Z</time>
      </trkpt>
      <trkpt lat="48.86251" lon="2.28732">
        <ele>64</ele>
        <time>2017-05-29T20:17:55.000Z</time>
      </trkpt>
      <trkpt lat="48.86267" lon="2.28752">
        <ele>62.400001525879</ele>
        <time>2017-05-29T20:18:01.000Z</time>
      </trkpt>
      <trkpt lat="48.86273" lon="2.28759">
        <ele>62.200000762939</ele>
        <time>2017-05-29T20:18:03.000Z</time>
      </trkpt>
      <trkpt lat="48.86278" lon="2.28767">
        <ele>62.599998474121</ele>
        <time>2017-05-29T20:18:05.000Z</time>
      </trkpt>
      <trkpt lat="48.86293" lon="2.28786">
        <ele>64</ele>
        <time>2017-05-29T20:18:11.000Z</time>
      </trkpt>
      <trkpt lat="48.86295" lon="2.2879">
        <ele>64</ele>
        <time>2017-05-29T20:18:12.000Z</time>
      </trkpt>
      <trkpt lat="48.86305" lon="2.28813">
        <ele>65.199996948242</ele>
        <time>2017-05-29T20:18:20.000Z</time>
      </trkpt>
      <trkpt lat="48.86306" lon="2.28816">
        <ele>65.199996948242</ele>
        <time>2017-05-29T20:18:23.000Z</time>
      </trkpt>
      <trkpt lat="48.86294" lon="2.28815">
        <ele>64.400001525879</ele>
        <time>2017-05-29T20:19:26.000Z</time>
      </trkpt>
      <trkpt lat="48.86279" lon="2.28798">
        <ele>63</ele>
        <time>2017-05-29T20:19:36.000Z</time>
      </trkpt>
      <trkpt lat="48.86273" lon="2.28794">
        <ele>62.599998474121</ele>
        <time>2017-05-29T20:19:41.000Z</time>
      </trkpt>
      <trkpt lat="48.86289" lon="2.28805">
        <ele>63.799999237061</ele>
        <time>2017-05-29T20:19:55.000Z</time>
      </trkpt>
      <trkpt lat="48.86299" lon="2.2882">
        <ele>64.800003051758</ele>
        <time>2017-05-29T20:20:02.000Z</time>
      </trkpt>
      <trkpt lat="48.86317" lon="2.28831">
        <ele>66.199996948242</ele>
        <time>2017-05-29T20:20:10.000Z</time>
      </trkpt>
      <trkpt lat="48.86323" lon="2.28847">
        <ele>66.400001525879</ele>
        <time>2017-05-29T20:20:13.000Z</time>
      </trkpt>
      <trkpt lat="48.86332" lon="2.28878">
        <ele>66.599998474121</ele>
        <time>2017-05-29T20:20:17.000Z</time>
      </trkpt>
      <trkpt lat="48.8634" lon="2.28904">
        <ele>67.199996948242</ele>
        <time>2017-05-29T20:20:20.000Z</time>
      </trkpt>
      <trkpt lat="48.86348" lon="2.28934">
        <ele>67.400001525879</ele>
        <time>2017-05-29T20:20:23.000Z</time>
      </trkpt>
      <trkpt lat="48.86356" lon="2.28966">
        <ele>67.400001525879</ele>
        <time>2017-05-29T20:20:26.000Z</time>
      </trkpt>
      <trkpt lat="48.86363" lon="2.28998">
        <ele>67.400001525879</ele>
        <time>2017-05-29T20:20:29.000Z</time>
      </trkpt>
      <trkpt lat="48.86368" lon="2.29018">
        <ele>65.800003051758</ele>
        <time>2017-05-29T20:20:31.000Z</time>
      </trkpt>
      <trkpt lat="48.86377" lon="2.29045">
        <ele>63.799999237061</ele>
        <time>2017-05-29T20:20:35.000Z</time>
      </trkpt>
      <trkpt lat="48.86379" lon="2.29055">
        <ele>63</ele>
        <time>2017-05-29T20:20:38.000Z</time>
      </trkpt>
      <trkpt lat="48.86386" lon="2.29087">
        <ele>60.400001525879</ele>
        <time>2017-05-29T20:20:52.000Z</time>
      </trkpt>
      <trkpt lat="48.86392" lon="2.2911">
        <ele>59.599998474121</ele>
        <time>2017-05-29T20:20:55.000Z</time>
      </trkpt>
      <trkpt lat="48.86399" lon="2.29135">
        <ele>58.400001525879</ele>
        <time>2017-05-29T20:20:58.000Z</time>
      </trkpt>
      <trkpt lat="48.86406" lon="2.29162">
        <ele>56.599998474121</ele>
        <time>2017-05-29T20:21:01.000Z</time>
      </trkpt>
      <trkpt lat="48.86414" lon="2.29191">
        <ele>57</ele>
        <time>2017-05-29T20:21:04.000Z</time>
      </trkpt>
      <trkpt lat="48.86422" lon="2.29222">
        <ele>57.200000762939</ele>
        <time>2017-05-29T20:21:07.000Z</time>
      </trkpt>
      <trkpt lat="48.8643" lon="2.29252">
        <ele>57.599998474121</ele>
        <time>2017-05-29T20:21:10.000Z</time>
      </trkpt>
      <trkpt lat="48.86438" lon="2.29282">
        <ele>56.400001525879</ele>
        <time>2017-05-29T20:21:13.000Z</time>
      </trkpt>
      <trkpt lat="48.86445" lon="2.29307">
        <ele>55.200000762939</ele>
        <time>2017-05-29T20:21:16.000Z</time>
      </trkpt>
      <trkpt lat="48.86452" lon="2.29338">
        <ele>53.799999237061</ele>
        <time>2017-05-29T20:21:20.000Z</time>
      </trkpt>
      <trkpt lat="48.86453" lon="2.29345">
        <ele>53.599998474121</ele>
        <time>2017-05-29T20:21:21.000Z</time>
      </trkpt>
      <trkpt lat="48.86458" lon="2.29375">
        <ele>53.799999237061</ele>
        <time>2017-05-29T20:21:25.000Z</time>
      </trkpt>
      <trkpt lat="48.86459" lon="2.29383">
        <ele>54</ele>
        <time>2017-05-29T20:21:26.000Z</time>
      </trkpt>
      <trkpt lat="48.86467" lon="2.29416">
        <ele>54.400001525879</ele>
        <time>2017-05-29T20:21:30.000Z</time>
      </trkpt>
      <trkpt lat="48.86472" lon="2.2945">
        <ele>55.200000762939</ele>
        <time>2017-05-29T20:21:34.000Z</time>
      </trkpt>
      <trkpt lat="48.86472" lon="2.29478">
        <ele>54.599998474121</ele>
        <time>2017-05-29T20:21:37.000Z</time>
      </trkpt>
      <trkpt lat="48.86473" lon="2.29506">
        <ele>53.799999237061</ele>
        <time>2017-05-29T20:21:40.000Z</time>
      </trkpt>
      <trkpt lat="48.86475" lon="2.29535">
        <ele>52.400001525879</ele>
        <time>2017-05-29T20:21:43.000Z</time>
      </trkpt>
      <trkpt lat="48.86479" lon="2.29566">
        <ele>50.400001525879</ele>
        <time>2017-05-29T20:21:46.000Z</time>
      </trkpt>
      <trkpt lat="48.86479" lon="2.29599">
        <ele>47.599998474121</ele>
        <time>2017-05-29T20:21:49.000Z</time>
      </trkpt>
      <trkpt lat="48.8648" lon="2.29621">
        <ele>46</ele>
        <time>2017-05-29T20:21:51.000Z</time>
      </trkpt>
      <trkpt lat="48.86482" lon="2.29653">
        <ele>44.799999237061</ele>
        <time>2017-05-29T20:21:54.000Z</time>
      </trkpt>
      <trkpt lat="48.86483" lon="2.29687">
        <ele>44.200000762939</ele>
        <time>2017-05-29T20:21:57.000Z</time>
      </trkpt>
      <trkpt lat="48.86484" lon="2.2972">
        <ele>43.200000762939</ele>
        <time>2017-05-29T20:22:00.000Z</time>
      </trkpt>
      <trkpt lat="48.86485" lon="2.29753">
        <ele>42.400001525879</ele>
        <time>2017-05-29T20:22:03.000Z</time>
      </trkpt>
      <trkpt lat="48.86487" lon="2.29787">
        <ele>42</ele>
        <time>2017-05-29T20:22:06.000Z</time>
      </trkpt>
      <trkpt lat="48.86488" lon="2.29822">
        <ele>42.400001525879</ele>
        <time>2017-05-29T20:22:09.000Z</time>
      </trkpt>
      <trkpt lat="48.8649" lon="2.29856">
        <ele>43.599998474121</ele>
        <time>2017-05-29T20:22:12.000Z</time>
      </trkpt>
      <trkpt lat="48.86491" lon="2.29888">
        <ele>45</ele>
        <time>2017-05-29T20:22:15.000Z</time>
      </trkpt>
      <trkpt lat="48.86494" lon="2.29917">
        <ele>46.799999237061</ele>
        <time>2017-05-29T20:22:18.000Z</time>
      </trkpt>
      <trkpt lat="48.86495" lon="2.29952">
        <ele>48.599998474121</ele>
        <time>2017-05-29T20:22:22.000Z</time>
      </trkpt>
      <trkpt lat="48.86496" lon="2.2998">
        <ele>50.200000762939</ele>
        <time>2017-05-29T20:22:26.000Z</time>
      </trkpt>
      <trkpt lat="48.86496" lon="2.29985">
        <ele>50.599998474121</ele>
        <time>2017-05-29T20:22:27.000Z</time>
      </trkpt>
      <trkpt lat="48.8649" lon="2.30003">
        <ele>51</ele>
        <time>2017-05-29T20:22:31.000Z</time>
      </trkpt>
      <trkpt lat="48.86489" lon="2.30007">
        <ele>51</ele>
        <time>2017-05-29T20:22:32.000Z</time>
      </trkpt>
      <trkpt lat="48.86483" lon="2.30033">
        <ele>50.200000762939</ele>
        <time>2017-05-29T20:22:37.000Z</time>
      </trkpt>
      <trkpt lat="48.86482" lon="2.30048">
        <ele>48.400001525879</ele>
        <time>2017-05-29T20:22:40.000Z</time>
      </trkpt>
      <trkpt lat="48.86481" lon="2.30063">
        <ele>45.799999237061</ele>
        <time>2017-05-29T20:22:43.000Z</time>
      </trkpt>
      <trkpt lat="48.86476" lon="2.30076">
        <ele>42.799999237061</ele>
        <time>2017-05-29T20:22:46.000Z</time>
      </trkpt>
      <trkpt lat="48.86474" lon="2.30091">
        <ele>41.400001525879</ele>
        <time>2017-05-29T20:22:50.000Z</time>
      </trkpt>
      <trkpt lat="48.8646" lon="2.30104">
        <ele>38</ele>
        <time>2017-05-29T20:22:55.000Z</time>
      </trkpt>
      <trkpt lat="48.86446" lon="2.30109">
        <ele>33.599998474121</ele>
        <time>2017-05-29T20:23:00.000Z</time>
      </trkpt>
      <trkpt lat="48.86436" lon="2.30113">
        <ele>31</ele>
        <time>2017-05-29T20:23:04.000Z</time>
      </trkpt>
      <trkpt lat="48.86431" lon="2.30117">
        <ele>30</ele>
        <time>2017-05-29T20:23:06.000Z</time>
      </trkpt>
      <trkpt lat="48.86422" lon="2.30128">
        <ele>27.60000038147</ele>
        <time>2017-05-29T20:23:11.000Z</time>
      </trkpt>
      <trkpt lat="48.86413" lon="2.30142">
        <ele>25.39999961853</ele>
        <time>2017-05-29T20:23:20.000Z</time>
      </trkpt>
      <trkpt lat="48.86406" lon="2.30144">
        <ele>25.60000038147</ele>
        <time>2017-05-29T20:24:52.000Z</time>
      </trkpt>
      <trkpt lat="48.86388" lon="2.30147">
        <ele>26.200000762939</ele>
        <time>2017-05-29T20:25:01.000Z</time>
      </trkpt>
      <trkpt lat="48.86368" lon="2.30148">
        <ele>27</ele>
        <time>2017-05-29T20:25:08.000Z</time>
      </trkpt>
      <trkpt lat="48.86347" lon="2.30149">
        <ele>28.39999961853</ele>
        <time>2017-05-29T20:25:15.000Z</time>
      </trkpt>
      <trkpt lat="48.86328" lon="2.30151">
        <ele>30.200000762939</ele>
        <time>2017-05-29T20:25:21.000Z</time>
      </trkpt>
      <trkpt lat="48.86307" lon="2.30152">
        <ele>31.799999237061</ele>
        <time>2017-05-29T20:25:27.000Z</time>
      </trkpt>
      <trkpt lat="48.86289" lon="2.30156">
        <ele>33.200000762939</ele>
        <time>2017-05-29T20:25:34.000Z</time>
      </trkpt>
      <trkpt lat="48.8627" lon="2.30153">
        <ele>34.599998474121</ele>
        <time>2017-05-29T20:25:42.000Z</time>
      </trkpt>
      <trkpt lat="48.86279" lon="2.30147">
        <ele>34.400001525879</ele>
        <time>2017-05-29T20:26:10.000Z</time>
      </trkpt>
      <trkpt lat="48.86271" lon="2.30149">
        <ele>34.799999237061</ele>
        <time>2017-05-29T20:26:24.000Z</time>
      </trkpt>
      <trkpt lat="48.86264" lon="2.30161">
        <ele>34.799999237061</ele>
        <time>2017-05-29T20:26:41.000Z</time>
      </trkpt>
      <trkpt lat="48.86264" lon="2.30176">
        <ele>35.599998474121</ele>
        <time>2017-05-29T20:26:45.000Z</time>
      </trkpt>
      <trkpt lat="48.86263" lon="2.30187">
        <ele>36.200000762939</ele>
        <time>2017-05-29T20:26:50.000Z</time>
      </trkpt>
      <trkpt lat="48.86262" lon="2.30193">
        <ele>36.599998474121</ele>
        <time>2017-05-29T20:26:52.000Z</time>
      </trkpt>
      <trkpt lat="48.86277" lon="2.30206">
        <ele>36</ele>
        <time>2017-05-29T20:27:00.000Z</time>
      </trkpt>
      <trkpt lat="48.86282" lon="2.30207">
        <ele>35.599998474121</ele>
        <time>2017-05-29T20:27:03.000Z</time>
      </trkpt>
      <trkpt lat="48.86284" lon="2.30225">
        <ele>36.400001525879</ele>
        <time>2017-05-29T20:27:28.000Z</time>
      </trkpt>
      <trkpt lat="48.86286" lon="2.30253">
        <ele>37.200000762939</ele>
        <time>2017-05-29T20:27:50.000Z</time>
      </trkpt>
      <trkpt lat="48.86287" lon="2.30254">
        <ele>37.200000762939</ele>
        <time>2017-05-29T20:27:51.000Z</time>
      </trkpt>
      <trkpt lat="48.8629" lon="2.30279">
        <ele>37.200000762939</ele>
        <time>2017-05-29T20:28:24.000Z</time>
      </trkpt>
      <trkpt lat="48.86294" lon="2.30299">
        <ele>37.400001525879</ele>
        <time>2017-05-29T20:28:31.000Z</time>
      </trkpt>
      <trkpt lat="48.86293" lon="2.30324">
        <ele>38.799999237061</ele>
        <time>2017-05-29T20:29:43.000Z</time>
      </trkpt>
      <trkpt lat="48.86291" lon="2.30357">
        <ele>39.799999237061</ele>
        <time>2017-05-29T20:29:48.000Z</time>
      </trkpt>
      <trkpt lat="48.86291" lon="2.30389">
        <ele>40.799999237061</ele>
        <time>2017-05-29T20:29:52.000Z</time>
      </trkpt>
      <trkpt lat="48.86291" lon="2.30407">
        <ele>41.599998474121</ele>
        <time>2017-05-29T20:29:54.000Z</time>
      </trkpt>
      <trkpt lat="48.86291" lon="2.30434">
        <ele>40.799999237061</ele>
        <time>2017-05-29T20:29:57.000Z</time>
      </trkpt>
      <trkpt lat="48.86291" lon="2.30469">
        <ele>37.599998474121</ele>
        <time>2017-05-29T20:30:01.000Z</time>
      </trkpt>
      <trkpt lat="48.8629" lon="2.30502">
        <ele>35.200000762939</ele>
        <time>2017-05-29T20:30:05.000Z</time>
      </trkpt>
      <trkpt lat="48.86288" lon="2.3053">
        <ele>35</ele>
        <time>2017-05-29T20:30:09.000Z</time>
      </trkpt>
      <trkpt lat="48.86288" lon="2.30537">
        <ele>34.799999237061</ele>
        <time>2017-05-29T20:30:10.000Z</time>
      </trkpt>
      <trkpt lat="48.86288" lon="2.30567">
        <ele>34</ele>
        <time>2017-05-29T20:30:14.000Z</time>
      </trkpt>
      <trkpt lat="48.86288" lon="2.30599">
        <ele>35</ele>
        <time>2017-05-29T20:30:18.000Z</time>
      </trkpt>
      <trkpt lat="48.86289" lon="2.30614">
        <ele>35</ele>
        <time>2017-05-29T20:30:20.000Z</time>
      </trkpt>
      <trkpt lat="48.8629" lon="2.30642">
        <ele>35</ele>
        <time>2017-05-29T20:30:24.000Z</time>
      </trkpt>
      <trkpt lat="48.8629" lon="2.30661">
        <ele>35</ele>
        <time>2017-05-29T20:30:27.000Z</time>
      </trkpt>
      <trkpt lat="48.86291" lon="2.30692">
        <ele>36.799999237061</ele>
        <time>2017-05-29T20:30:32.000Z</time>
      </trkpt>
      <trkpt lat="48.86291" lon="2.30721">
        <ele>37.200000762939</ele>
        <time>2017-05-29T20:30:37.000Z</time>
      </trkpt>
      <trkpt lat="48.86294" lon="2.30748">
        <ele>37.400001525879</ele>
        <time>2017-05-29T20:30:41.000Z</time>
      </trkpt>
      <trkpt lat="48.86295" lon="2.30772">
        <ele>35.799999237061</ele>
        <time>2017-05-29T20:30:45.000Z</time>
      </trkpt>
      <trkpt lat="48.86295" lon="2.30794">
        <ele>37.200000762939</ele>
        <time>2017-05-29T20:30:49.000Z</time>
      </trkpt>
      <trkpt lat="48.86296" lon="2.30823">
        <ele>38.799999237061</ele>
        <time>2017-05-29T20:30:54.000Z</time>
      </trkpt>
      <trkpt lat="48.86295" lon="2.30854">
        <ele>39.599998474121</ele>
        <time>2017-05-29T20:30:59.000Z</time>
      </trkpt>
      <trkpt lat="48.86296" lon="2.30861">
        <ele>40</ele>
        <time>2017-05-29T20:31:00.000Z</time>
      </trkpt>
      <trkpt lat="48.86296" lon="2.30876">
        <ele>40.599998474121</ele>
        <time>2017-05-29T20:31:02.000Z</time>
      </trkpt>
      <trkpt lat="48.86295" lon="2.30899">
        <ele>41.799999237061</ele>
        <time>2017-05-29T20:31:05.000Z</time>
      </trkpt>
      <trkpt lat="48.86295" lon="2.30924">
        <ele>41.400001525879</ele>
        <time>2017-05-29T20:31:08.000Z</time>
      </trkpt>
      <trkpt lat="48.86297" lon="2.3096">
        <ele>39.400001525879</ele>
        <time>2017-05-29T20:31:12.000Z</time>
      </trkpt>
      <trkpt lat="48.86298" lon="2.30987">
        <ele>38.400001525879</ele>
        <time>2017-05-29T20:31:15.000Z</time>
      </trkpt>
      <trkpt lat="48.86298" lon="2.31018">
        <ele>39.200000762939</ele>
        <time>2017-05-29T20:31:18.000Z</time>
      </trkpt>
      <trkpt lat="48.86299" lon="2.31048">
        <ele>37.799999237061</ele>
        <time>2017-05-29T20:31:21.000Z</time>
      </trkpt>
      <trkpt lat="48.86299" lon="2.3108">
        <ele>35.799999237061</ele>
        <time>2017-05-29T20:31:24.000Z</time>
      </trkpt>
      <trkpt lat="48.863" lon="2.31111">
        <ele>35.599998474121</ele>
        <time>2017-05-29T20:31:27.000Z</time>
      </trkpt>
      <trkpt lat="48.86301" lon="2.31141">
        <ele>33.599998474121</ele>
        <time>2017-05-29T20:31:30.000Z</time>
      </trkpt>
      <trkpt lat="48.86304" lon="2.3117">
        <ele>32.200000762939</ele>
        <time>2017-05-29T20:31:33.000Z</time>
      </trkpt>
      <trkpt lat="48.86306" lon="2.31197">
        <ele>32.400001525879</ele>
        <time>2017-05-29T20:31:36.000Z</time>
      </trkpt>
      <trkpt lat="48.86307" lon="2.3123">
        <ele>32</ele>
        <time>2017-05-29T20:31:40.000Z</time>
      </trkpt>
      <trkpt lat="48.86307" lon="2.31264">
        <ele>32.200000762939</ele>
        <time>2017-05-29T20:31:44.000Z</time>
      </trkpt>
      <trkpt lat="48.86309" lon="2.31295">
        <ele>32.599998474121</ele>
        <time>2017-05-29T20:31:48.000Z</time>
      </trkpt>
      <trkpt lat="48.8631" lon="2.3131">
        <ele>32.599998474121</ele>
        <time>2017-05-29T20:31:50.000Z</time>
      </trkpt>
      <trkpt lat="48.8631" lon="2.3134">
        <ele>33.200000762939</ele>
        <time>2017-05-29T20:31:55.000Z</time>
      </trkpt>
      <trkpt lat="48.86307" lon="2.31372">
        <ele>34.799999237061</ele>
        <time>2017-05-29T20:31:59.000Z</time>
      </trkpt>
      <trkpt lat="48.86309" lon="2.314">
        <ele>33.599998474121</ele>
        <time>2017-05-29T20:32:02.000Z</time>
      </trkpt>
      <trkpt lat="48.86312" lon="2.31423">
        <ele>32.799999237061</ele>
        <time>2017-05-29T20:32:05.000Z</time>
      </trkpt>
      <trkpt lat="48.86313" lon="2.3143">
        <ele>32.599998474121</ele>
        <time>2017-05-29T20:32:06.000Z</time>
      </trkpt>
      <trkpt lat="48.86315" lon="2.3146">
        <ele>31.799999237061</ele>
        <time>2017-05-29T20:32:10.000Z</time>
      </trkpt>
      <trkpt lat="48.86315" lon="2.31468">
        <ele>32.400001525879</ele>
        <time>2017-05-29T20:32:11.000Z</time>
      </trkpt>
      <trkpt lat="48.86315" lon="2.31498">
        <ele>34.200000762939</ele>
        <time>2017-05-29T20:32:15.000Z</time>
      </trkpt>
      <trkpt lat="48.86316" lon="2.3153">
        <ele>29</ele>
        <time>2017-05-29T20:32:19.000Z</time>
      </trkpt>
      <trkpt lat="48.86316" lon="2.31557">
        <ele>28.200000762939</ele>
        <time>2017-05-29T20:32:22.000Z</time>
      </trkpt>
      <trkpt lat="48.86317" lon="2.31593">
        <ele>28.60000038147</ele>
        <time>2017-05-29T20:32:26.000Z</time>
      </trkpt>
      <trkpt lat="48.86317" lon="2.31623">
        <ele>26.799999237061</ele>
        <time>2017-05-29T20:32:29.000Z</time>
      </trkpt>
      <trkpt lat="48.86317" lon="2.31643">
        <ele>25.60000038147</ele>
        <time>2017-05-29T20:32:31.000Z</time>
      </trkpt>
      <trkpt lat="48.8632" lon="2.31672">
        <ele>27.799999237061</ele>
        <time>2017-05-29T20:32:34.000Z</time>
      </trkpt>
      <trkpt lat="48.86322" lon="2.31702">
        <ele>41.200000762939</ele>
        <time>2017-05-29T20:32:37.000Z</time>
      </trkpt>
      <trkpt lat="48.86322" lon="2.31712">
        <ele>45.799999237061</ele>
        <time>2017-05-29T20:32:38.000Z</time>
      </trkpt>
      <trkpt lat="48.86321" lon="2.31741">
        <ele>47</ele>
        <time>2017-05-29T20:32:41.000Z</time>
      </trkpt>
      <trkpt lat="48.86321" lon="2.3177">
        <ele>44.599998474121</ele>
        <time>2017-05-29T20:32:44.000Z</time>
      </trkpt>
      <trkpt lat="48.86321" lon="2.3178">
        <ele>43.200000762939</ele>
        <time>2017-05-29T20:32:45.000Z</time>
      </trkpt>
      <trkpt lat="48.86316" lon="2.31809">
        <ele>39.799999237061</ele>
        <time>2017-05-29T20:32:48.000Z</time>
      </trkpt>
      <trkpt lat="48.86314" lon="2.31818">
        <ele>38.799999237061</ele>
        <time>2017-05-29T20:32:49.000Z</time>
      </trkpt>
      <trkpt lat="48.86305" lon="2.31846">
        <ele>33.400001525879</ele>
        <time>2017-05-29T20:32:52.000Z</time>
      </trkpt>
      <trkpt lat="48.86296" lon="2.31873">
        <ele>30.60000038147</ele>
        <time>2017-05-29T20:32:55.000Z</time>
      </trkpt>
      <trkpt lat="48.86287" lon="2.31902">
        <ele>31.60000038147</ele>
        <time>2017-05-29T20:32:58.000Z</time>
      </trkpt>
      <trkpt lat="48.86279" lon="2.31931">
        <ele>32.400001525879</ele>
        <time>2017-05-29T20:33:01.000Z</time>
      </trkpt>
      <trkpt lat="48.86272" lon="2.31948">
        <ele>32.200000762939</ele>
        <time>2017-05-29T20:33:03.000Z</time>
      </trkpt>
      <trkpt lat="48.86262" lon="2.31972">
        <ele>32.400001525879</ele>
        <time>2017-05-29T20:33:06.000Z</time>
      </trkpt>
      <trkpt lat="48.86254" lon="2.31998">
        <ele>33.599998474121</ele>
        <time>2017-05-29T20:33:09.000Z</time>
      </trkpt>
      <trkpt lat="48.86244" lon="2.32031">
        <ele>35.200000762939</ele>
        <time>2017-05-29T20:33:13.000Z</time>
      </trkpt>
      <trkpt lat="48.86236" lon="2.32056">
        <ele>36.599998474121</ele>
        <time>2017-05-29T20:33:16.000Z</time>
      </trkpt>
      <trkpt lat="48.86231" lon="2.32073">
        <ele>37.799999237061</ele>
        <time>2017-05-29T20:33:18.000Z</time>
      </trkpt>
      <trkpt lat="48.86221" lon="2.32102">
        <ele>38.599998474121</ele>
        <time>2017-05-29T20:33:22.000Z</time>
      </trkpt>
      <trkpt lat="48.86215" lon="2.32131">
        <ele>37.799999237061</ele>
        <time>2017-05-29T20:33:27.000Z</time>
      </trkpt>
      <trkpt lat="48.86212" lon="2.32137">
        <ele>37.599998474121</ele>
        <time>2017-05-29T20:33:28.000Z</time>
      </trkpt>
      <trkpt lat="48.86202" lon="2.32167">
        <ele>37.200000762939</ele>
        <time>2017-05-29T20:33:32.000Z</time>
      </trkpt>
      <trkpt lat="48.86194" lon="2.322">
        <ele>36.200000762939</ele>
        <time>2017-05-29T20:33:36.000Z</time>
      </trkpt>
      <trkpt lat="48.86186" lon="2.32225">
        <ele>34.799999237061</ele>
        <time>2017-05-29T20:33:39.000Z</time>
      </trkpt>
      <trkpt lat="48.86179" lon="2.32251">
        <ele>33.799999237061</ele>
        <time>2017-05-29T20:33:42.000Z</time>
      </trkpt>
      <trkpt lat="48.8617" lon="2.32276">
        <ele>33.799999237061</ele>
        <time>2017-05-29T20:33:45.000Z</time>
      </trkpt>
      <trkpt lat="48.8616" lon="2.32305">
        <ele>34</ele>
        <time>2017-05-29T20:33:49.000Z</time>
      </trkpt>
      <trkpt lat="48.86151" lon="2.32335">
        <ele>36.200000762939</ele>
        <time>2017-05-29T20:33:53.000Z</time>
      </trkpt>
      <trkpt lat="48.86142" lon="2.32369">
        <ele>36.400001525879</ele>
        <time>2017-05-29T20:33:57.000Z</time>
      </trkpt>
      <trkpt lat="48.86136" lon="2.32395">
        <ele>35.400001525879</ele>
        <time>2017-05-29T20:34:00.000Z</time>
      </trkpt>
      <trkpt lat="48.86129" lon="2.32422">
        <ele>35.200000762939</ele>
        <time>2017-05-29T20:34:03.000Z</time>
      </trkpt>
      <trkpt lat="48.86121" lon="2.32455">
        <ele>35.400001525879</ele>
        <time>2017-05-29T20:34:07.000Z</time>
      </trkpt>
      <trkpt lat="48.86113" lon="2.32485">
        <ele>35</ele>
        <time>2017-05-29T20:34:11.000Z</time>
      </trkpt>
      <trkpt lat="48.86111" lon="2.32491">
        <ele>34.799999237061</ele>
        <time>2017-05-29T20:34:12.000Z</time>
      </trkpt>
      <trkpt lat="48.86109" lon="2.32506">
        <ele>34.599998474121</ele>
        <time>2017-05-29T20:34:15.000Z</time>
      </trkpt>
      <trkpt lat="48.86114" lon="2.32525">
        <ele>33.599998474121</ele>
        <time>2017-05-29T20:34:27.000Z</time>
      </trkpt>
      <trkpt lat="48.86106" lon="2.32515">
        <ele>34.200000762939</ele>
        <time>2017-05-29T20:34:35.000Z</time>
      </trkpt>
      <trkpt lat="48.86115" lon="2.3252">
        <ele>33.799999237061</ele>
        <time>2017-05-29T20:35:06.000Z</time>
      </trkpt>
      <trkpt lat="48.86114" lon="2.32537">
        <ele>33</ele>
        <time>2017-05-29T20:35:10.000Z</time>
      </trkpt>
      <trkpt lat="48.86106" lon="2.32566">
        <ele>31.799999237061</ele>
        <time>2017-05-29T20:35:15.000Z</time>
      </trkpt>
      <trkpt lat="48.86096" lon="2.32596">
        <ele>32.400001525879</ele>
        <time>2017-05-29T20:35:20.000Z</time>
      </trkpt>
      <trkpt lat="48.86088" lon="2.32621">
        <ele>33.599998474121</ele>
        <time>2017-05-29T20:35:26.000Z</time>
      </trkpt>
      <trkpt lat="48.86088" lon="2.3262">
        <ele>33.400001525879</ele>
        <time>2017-05-29T20:35:27.000Z</time>
      </trkpt>
      <trkpt lat="48.86097" lon="2.32592">
        <ele>32.400001525879</ele>
        <time>2017-05-29T20:35:35.000Z</time>
      </trkpt>
      <trkpt lat="48.86105" lon="2.32565">
        <ele>31.799999237061</ele>
        <time>2017-05-29T20:35:40.000Z</time>
      </trkpt>
      <trkpt lat="48.86113" lon="2.32538">
        <ele>33</ele>
        <time>2017-05-29T20:35:45.000Z</time>
      </trkpt>
      <trkpt lat="48.86115" lon="2.32517">
        <ele>34</ele>
        <time>2017-05-29T20:35:52.000Z</time>
      </trkpt>
      <trkpt lat="48.86115" lon="2.32537">
        <ele>33</ele>
        <time>2017-05-29T20:35:59.000Z</time>
      </trkpt>
      <trkpt lat="48.86107" lon="2.32565">
        <ele>31.799999237061</ele>
        <time>2017-05-29T20:36:04.000Z</time>
      </trkpt>
      <trkpt lat="48.86099" lon="2.32589">
        <ele>32.200000762939</ele>
        <time>2017-05-29T20:36:08.000Z</time>
      </trkpt>
      <trkpt lat="48.8609" lon="2.32615">
        <ele>33.200000762939</ele>
        <time>2017-05-29T20:36:13.000Z</time>
      </trkpt>
      <trkpt lat="48.86076" lon="2.3263">
        <ele>35.599998474121</ele>
        <time>2017-05-29T20:36:33.000Z</time>
      </trkpt>
      <trkpt lat="48.86064" lon="2.3265">
        <ele>38.400001525879</ele>
        <time>2017-05-29T20:36:40.000Z</time>
      </trkpt>
      <trkpt lat="48.86056" lon="2.32677">
        <ele>40.200000762939</ele>
        <time>2017-05-29T20:36:45.000Z</time>
      </trkpt>
      <trkpt lat="48.86048" lon="2.32705">
        <ele>40.400001525879</ele>
        <time>2017-05-29T20:36:49.000Z</time>
      </trkpt>
      <trkpt lat="48.86036" lon="2.32735">
        <ele>39.799999237061</ele>
        <time>2017-05-29T20:36:53.000Z</time>
      </trkpt>
      <trkpt lat="48.86033" lon="2.32742">
        <ele>39.799999237061</ele>
        <time>2017-05-29T20:36:54.000Z</time>
      </trkpt>
      <trkpt lat="48.86021" lon="2.32767">
        <ele>40</ele>
        <time>2017-05-29T20:36:58.000Z</time>
      </trkpt>
      <trkpt lat="48.86011" lon="2.32783">
        <ele>39.799999237061</ele>
        <time>2017-05-29T20:37:02.000Z</time>
      </trkpt>
      <trkpt lat="48.86008" lon="2.32796">
        <ele>39.400001525879</ele>
        <time>2017-05-29T20:37:06.000Z</time>
      </trkpt>
      <trkpt lat="48.86006" lon="2.32798">
        <ele>39.400001525879</ele>
        <time>2017-05-29T20:37:09.000Z</time>
      </trkpt>
      <trkpt lat="48.85998" lon="2.32812">
        <ele>39.400001525879</ele>
        <time>2017-05-29T20:37:46.000Z</time>
      </trkpt>
      <trkpt lat="48.85995" lon="2.32821">
        <ele>39.799999237061</ele>
        <time>2017-05-29T20:37:50.000Z</time>
      </trkpt>
      <trkpt lat="48.85992" lon="2.32834">
        <ele>40.200000762939</ele>
        <time>2017-05-29T20:37:54.000Z</time>
      </trkpt>
      <trkpt lat="48.85983" lon="2.32862">
        <ele>42.400001525879</ele>
        <time>2017-05-29T20:38:01.000Z</time>
      </trkpt>
      <trkpt lat="48.85975" lon="2.32889">
        <ele>42.799999237061</ele>
        <time>2017-05-29T20:38:06.000Z</time>
      </trkpt>
      <trkpt lat="48.85967" lon="2.32913">
        <ele>42.400001525879</ele>
        <time>2017-05-29T20:38:11.000Z</time>
      </trkpt>
      <trkpt lat="48.85968" lon="2.32943">
        <ele>42.599998474121</ele>
        <time>2017-05-29T20:38:17.000Z</time>
      </trkpt>
      <trkpt lat="48.85986" lon="2.32957">
        <ele>41.799999237061</ele>
        <time>2017-05-29T20:38:23.000Z</time>
      </trkpt>
      <trkpt lat="48.86002" lon="2.32969">
        <ele>40.799999237061</ele>
        <time>2017-05-29T20:38:29.000Z</time>
      </trkpt>
      <trkpt lat="48.8602" lon="2.32982">
        <ele>40</ele>
        <time>2017-05-29T20:38:35.000Z</time>
      </trkpt>
      <trkpt lat="48.86039" lon="2.32996">
        <ele>40.799999237061</ele>
        <time>2017-05-29T20:38:41.000Z</time>
      </trkpt>
      <trkpt lat="48.86056" lon="2.3301">
        <ele>40.799999237061</ele>
        <time>2017-05-29T20:38:46.000Z</time>
      </trkpt>
      <trkpt lat="48.86068" lon="2.33014">
        <ele>41.200000762939</ele>
        <time>2017-05-29T20:38:49.000Z</time>
      </trkpt>
      <trkpt lat="48.8608" lon="2.33005">
        <ele>42.200000762939</ele>
        <time>2017-05-29T20:38:53.000Z</time>
      </trkpt>
      <trkpt lat="48.86091" lon="2.32994">
        <ele>43.200000762939</ele>
        <time>2017-05-29T20:39:02.000Z</time>
      </trkpt>
      <trkpt lat="48.86105" lon="2.33002">
        <ele>43.599998474121</ele>
        <time>2017-05-29T20:39:47.000Z</time>
      </trkpt>
      <trkpt lat="48.86125" lon="2.33018">
        <ele>42</ele>
        <time>2017-05-29T20:39:51.000Z</time>
      </trkpt>
      <trkpt lat="48.86145" lon="2.33036">
        <ele>40.200000762939</ele>
        <time>2017-05-29T20:39:54.000Z</time>
      </trkpt>
      <trkpt lat="48.86168" lon="2.33056">
        <ele>38.200000762939</ele>
        <time>2017-05-29T20:39:57.000Z</time>
      </trkpt>
      <trkpt lat="48.86184" lon="2.3307">
        <ele>36.599998474121</ele>
        <time>2017-05-29T20:39:59.000Z</time>
      </trkpt>
      <trkpt lat="48.862" lon="2.33083">
        <ele>35.799999237061</ele>
        <time>2017-05-29T20:40:01.000Z</time>
      </trkpt>
      <trkpt lat="48.86216" lon="2.33096">
        <ele>36</ele>
        <time>2017-05-29T20:40:03.000Z</time>
      </trkpt>
      <trkpt lat="48.86233" lon="2.3311">
        <ele>36</ele>
        <time>2017-05-29T20:40:05.000Z</time>
      </trkpt>
      <trkpt lat="48.86313" lon="2.33169">
        <ele>38.200000762939</ele>
        <time>2017-05-29T20:40:14.000Z</time>
      </trkpt>
      <trkpt lat="48.86324" lon="2.33176">
        <ele>39</ele>
        <time>2017-05-29T20:40:15.000Z</time>
      </trkpt>
      <trkpt lat="48.86337" lon="2.33187">
        <ele>40</ele>
        <time>2017-05-29T20:40:19.000Z</time>
      </trkpt>
      <trkpt lat="48.86355" lon="2.33199">
        <ele>41</ele>
        <time>2017-05-29T20:40:24.000Z</time>
      </trkpt>
      <trkpt lat="48.86359" lon="2.33201">
        <ele>41.400001525879</ele>
        <time>2017-05-29T20:40:25.000Z</time>
      </trkpt>
      <trkpt lat="48.8637" lon="2.33212">
        <ele>42.400001525879</ele>
        <time>2017-05-29T20:40:32.000Z</time>
      </trkpt>
      <trkpt lat="48.86379" lon="2.33235">
        <ele>44</ele>
        <time>2017-05-29T20:40:50.000Z</time>
      </trkpt>
      <trkpt lat="48.86385" lon="2.33236">
        <ele>44.400001525879</ele>
        <time>2017-05-29T20:40:53.000Z</time>
      </trkpt>
      <trkpt lat="48.8637" lon="2.33251">
        <ele>44.599998474121</ele>
        <time>2017-05-29T20:41:06.000Z</time>
      </trkpt>
      <trkpt lat="48.86354" lon="2.33269">
        <ele>45</ele>
        <time>2017-05-29T20:41:13.000Z</time>
      </trkpt>
      <trkpt lat="48.8635" lon="2.33268">
        <ele>45</ele>
        <time>2017-05-29T20:41:14.000Z</time>
      </trkpt>
      <trkpt lat="48.86348" lon="2.33259">
        <ele>44.599998474121</ele>
        <time>2017-05-29T20:41:21.000Z</time>
      </trkpt>
      <trkpt lat="48.86359" lon="2.33236">
        <ele>43.400001525879</ele>
        <time>2017-05-29T20:41:31.000Z</time>
      </trkpt>
      <trkpt lat="48.86359" lon="2.33236">
        <ele>43.400001525879</ele>
        <time>2017-05-29T20:41:33.000Z</time>
      </trkpt>
      <trkpt lat="48.86343" lon="2.33253">
        <ele>44.400001525879</ele>
        <time>2017-05-29T20:41:42.000Z</time>
      </trkpt>
      <trkpt lat="48.86335" lon="2.33279">
        <ele>45.799999237061</ele>
        <time>2017-05-29T20:41:48.000Z</time>
      </trkpt>
      <trkpt lat="48.86329" lon="2.33308">
        <ele>47</ele>
        <time>2017-05-29T20:41:55.000Z</time>
      </trkpt>
      <trkpt lat="48.86333" lon="2.33335">
        <ele>47.400001525879</ele>
        <time>2017-05-29T20:41:57.000Z</time>
      </trkpt>
      <trkpt lat="48.86309" lon="2.33356">
        <ele>47.200000762939</ele>
        <time>2017-05-29T20:42:12.000Z</time>
      </trkpt>
      <trkpt lat="48.86301" lon="2.33387">
        <ele>46.400001525879</ele>
        <time>2017-05-29T20:42:19.000Z</time>
      </trkpt>
      <trkpt lat="48.8629" lon="2.33411">
        <ele>44.799999237061</ele>
        <time>2017-05-29T20:42:25.000Z</time>
      </trkpt>
      <trkpt lat="48.8628" lon="2.33436">
        <ele>43.599998474121</ele>
        <time>2017-05-29T20:42:30.000Z</time>
      </trkpt>
      <trkpt lat="48.8627" lon="2.3346">
        <ele>43.400001525879</ele>
        <time>2017-05-29T20:42:34.000Z</time>
      </trkpt>
      <trkpt lat="48.86277" lon="2.33495">
        <ele>44.200000762939</ele>
        <time>2017-05-29T20:42:37.000Z</time>
      </trkpt>
      <trkpt lat="48.86258" lon="2.33516">
        <ele>44.799999237061</ele>
        <time>2017-05-29T20:42:45.000Z</time>
      </trkpt>
      <trkpt lat="48.86246" lon="2.3354">
        <ele>45.799999237061</ele>
        <time>2017-05-29T20:42:51.000Z</time>
      </trkpt>
      <trkpt lat="48.86253" lon="2.3358">
        <ele>48.400001525879</ele>
        <time>2017-05-29T20:42:56.000Z</time>
      </trkpt>
      <trkpt lat="48.86254" lon="2.33614">
        <ele>48</ele>
        <time>2017-05-29T20:43:00.000Z</time>
      </trkpt>
      <trkpt lat="48.86255" lon="2.33632">
        <ele>47.799999237061</ele>
        <time>2017-05-29T20:43:03.000Z</time>
      </trkpt>
      <trkpt lat="48.86257" lon="2.33658">
        <ele>47.599998474121</ele>
        <time>2017-05-29T20:43:08.000Z</time>
      </trkpt>
      <trkpt lat="48.86258" lon="2.33661">
        <ele>47.599998474121</ele>
        <time>2017-05-29T20:43:09.000Z</time>
      </trkpt>
      <trkpt lat="48.86265" lon="2.3367">
        <ele>47.400001525879</ele>
        <time>2017-05-29T20:43:13.000Z</time>
      </trkpt>
      <trkpt lat="48.86265" lon="2.33691">
        <ele>47</ele>
        <time>2017-05-29T20:43:20.000Z</time>
      </trkpt>
      <trkpt lat="48.86265" lon="2.33691">
        <ele>47</ele>
        <time>2017-05-29T20:43:21.000Z</time>
      </trkpt>
      <trkpt lat="48.86256" lon="2.33706">
        <ele>47.200000762939</ele>
        <time>2017-05-29T20:45:21.000Z</time>
      </trkpt>
      <trkpt lat="48.86264" lon="2.33726">
        <ele>46.599998474121</ele>
        <time>2017-05-29T20:45:31.000Z</time>
      </trkpt>
      <trkpt lat="48.86259" lon="2.33758">
        <ele>46</ele>
        <time>2017-05-29T20:45:38.000Z</time>
      </trkpt>
      <trkpt lat="48.86254" lon="2.33786">
        <ele>45.799999237061</ele>
        <time>2017-05-29T20:45:44.000Z</time>
      </trkpt>
      <trkpt lat="48.8625" lon="2.33819">
        <ele>45</ele>
        <time>2017-05-29T20:45:49.000Z</time>
      </trkpt>
      <trkpt lat="48.86245" lon="2.33846">
        <ele>44.799999237061</ele>
        <time>2017-05-29T20:45:53.000Z</time>
      </trkpt>
      <trkpt lat="48.86239" lon="2.33878">
        <ele>45.799999237061</ele>
        <time>2017-05-29T20:45:58.000Z</time>
      </trkpt>
      <trkpt lat="48.86234" lon="2.33907">
        <ele>46.400001525879</ele>
        <time>2017-05-29T20:46:01.000Z</time>
      </trkpt>
      <trkpt lat="48.86225" lon="2.33941">
        <ele>47</ele>
        <time>2017-05-29T20:46:06.000Z</time>
      </trkpt>
      <trkpt lat="48.86218" lon="2.3397">
        <ele>48</ele>
        <time>2017-05-29T20:46:10.000Z</time>
      </trkpt>
      <trkpt lat="48.86209" lon="2.34">
        <ele>49.200000762939</ele>
        <time>2017-05-29T20:46:14.000Z</time>
      </trkpt>
      <trkpt lat="48.86202" lon="2.34029">
        <ele>49.400001525879</ele>
        <time>2017-05-29T20:46:18.000Z</time>
      </trkpt>
      <trkpt lat="48.86192" lon="2.34058">
        <ele>49</ele>
        <time>2017-05-29T20:46:22.000Z</time>
      </trkpt>
      <trkpt lat="48.86188" lon="2.34086">
        <ele>49</ele>
        <time>2017-05-29T20:46:26.000Z</time>
      </trkpt>
      <trkpt lat="48.86184" lon="2.34101">
        <ele>49</ele>
        <time>2017-05-29T20:46:31.000Z</time>
      </trkpt>
      <trkpt lat="48.86173" lon="2.34122">
        <ele>49</ele>
        <time>2017-05-29T20:47:08.000Z</time>
      </trkpt>
      <trkpt lat="48.8617" lon="2.34143">
        <ele>49</ele>
        <time>2017-05-29T20:47:13.000Z</time>
      </trkpt>
      <trkpt lat="48.86162" lon="2.3417">
        <ele>49.400001525879</ele>
        <time>2017-05-29T20:47:18.000Z</time>
      </trkpt>
      <trkpt lat="48.86151" lon="2.34212">
        <ele>49.200000762939</ele>
        <time>2017-05-29T20:47:24.000Z</time>
      </trkpt>
      <trkpt lat="48.86144" lon="2.3424">
        <ele>49.400001525879</ele>
        <time>2017-05-29T20:47:29.000Z</time>
      </trkpt>
      <trkpt lat="48.8614" lon="2.34267">
        <ele>49.200000762939</ele>
        <time>2017-05-29T20:47:33.000Z</time>
      </trkpt>
      <trkpt lat="48.86136" lon="2.34295">
        <ele>49.400001525879</ele>
        <time>2017-05-29T20:47:37.000Z</time>
      </trkpt>
      <trkpt lat="48.86129" lon="2.34326">
        <ele>50.400001525879</ele>
        <time>2017-05-29T20:47:41.000Z</time>
      </trkpt>
      <trkpt lat="48.86122" lon="2.34358">
        <ele>49.799999237061</ele>
        <time>2017-05-29T20:47:45.000Z</time>
      </trkpt>
      <trkpt lat="48.86119" lon="2.34373">
        <ele>49.799999237061</ele>
        <time>2017-05-29T20:47:47.000Z</time>
      </trkpt>
      <trkpt lat="48.86115" lon="2.34403">
        <ele>49.599998474121</ele>
        <time>2017-05-29T20:47:51.000Z</time>
      </trkpt>
      <trkpt lat="48.86113" lon="2.34434">
        <ele>49.200000762939</ele>
        <time>2017-05-29T20:47:55.000Z</time>
      </trkpt>
      <trkpt lat="48.86112" lon="2.34463">
        <ele>49.599998474121</ele>
        <time>2017-05-29T20:47:59.000Z</time>
      </trkpt>
      <trkpt lat="48.86108" lon="2.34482">
        <ele>50.400001525879</ele>
        <time>2017-05-29T20:48:02.000Z</time>
      </trkpt>
      <trkpt lat="48.86102" lon="2.34502">
        <ele>51</ele>
        <time>2017-05-29T20:48:05.000Z</time>
      </trkpt>
      <trkpt lat="48.861" lon="2.34516">
        <ele>51</ele>
        <time>2017-05-29T20:48:07.000Z</time>
      </trkpt>
      <trkpt lat="48.86099" lon="2.34522">
        <ele>50.799999237061</ele>
        <time>2017-05-29T20:48:09.000Z</time>
      </trkpt>
      <trkpt lat="48.86093" lon="2.34556">
        <ele>50.599998474121</ele>
        <time>2017-05-29T20:48:14.000Z</time>
      </trkpt>
      <trkpt lat="48.86089" lon="2.34564">
        <ele>50.599998474121</ele>
        <time>2017-05-29T20:48:18.000Z</time>
      </trkpt>
      <trkpt lat="48.86088" lon="2.34563">
        <ele>50.599998474121</ele>
        <time>2017-05-29T20:48:19.000Z</time>
      </trkpt>
      <trkpt lat="48.86083" lon="2.34555">
        <ele>50.799999237061</ele>
        <time>2017-05-29T20:48:21.000Z</time>
      </trkpt>
      <trkpt lat="48.86077" lon="2.34549">
        <ele>51</ele>
        <time>2017-05-29T20:48:24.000Z</time>
      </trkpt>
      <trkpt lat="48.86058" lon="2.34537">
        <ele>51.599998474121</ele>
        <time>2017-05-29T20:48:29.000Z</time>
      </trkpt>
      <trkpt lat="48.86035" lon="2.34521">
        <ele>52</ele>
        <time>2017-05-29T20:48:33.000Z</time>
      </trkpt>
      <trkpt lat="48.86017" lon="2.34511">
        <ele>52.200000762939</ele>
        <time>2017-05-29T20:48:36.000Z</time>
      </trkpt>
      <trkpt lat="48.86" lon="2.34502">
        <ele>52.200000762939</ele>
        <time>2017-05-29T20:48:39.000Z</time>
      </trkpt>
      <trkpt lat="48.85985" lon="2.34494">
        <ele>52.200000762939</ele>
        <time>2017-05-29T20:48:44.000Z</time>
      </trkpt>
      <trkpt lat="48.85974" lon="2.34491">
        <ele>52</ele>
        <time>2017-05-29T20:48:47.000Z</time>
      </trkpt>
      <trkpt lat="48.85965" lon="2.345">
        <ele>51.400001525879</ele>
        <time>2017-05-29T20:48:50.000Z</time>
      </trkpt>
      <trkpt lat="48.85954" lon="2.3452">
        <ele>50.599998474121</ele>
        <time>2017-05-29T20:48:54.000Z</time>
      </trkpt>
      <trkpt lat="48.85945" lon="2.34545">
        <ele>50.799999237061</ele>
        <time>2017-05-29T20:48:58.000Z</time>
      </trkpt>
      <trkpt lat="48.85941" lon="2.34553">
        <ele>51</ele>
        <time>2017-05-29T20:49:01.000Z</time>
      </trkpt>
      <trkpt lat="48.85933" lon="2.34566">
        <ele>50.799999237061</ele>
        <time>2017-05-29T20:49:04.000Z</time>
      </trkpt>
      <trkpt lat="48.85922" lon="2.34585">
        <ele>50.799999237061</ele>
        <time>2017-05-29T20:49:08.000Z</time>
      </trkpt>
      <trkpt lat="48.85918" lon="2.34602">
        <ele>50</ele>
        <time>2017-05-29T20:49:11.000Z</time>
      </trkpt>
      <trkpt lat="48.85924" lon="2.34625">
        <ele>48.799999237061</ele>
        <time>2017-05-29T20:49:16.000Z</time>
      </trkpt>
      <trkpt lat="48.85936" lon="2.34647">
        <ele>47.799999237061</ele>
        <time>2017-05-29T20:49:20.000Z</time>
      </trkpt>
      <trkpt lat="48.8594" lon="2.34675">
        <ele>46.599998474121</ele>
        <time>2017-05-29T20:49:24.000Z</time>
      </trkpt>
      <trkpt lat="48.85942" lon="2.3468">
        <ele>46.400001525879</ele>
        <time>2017-05-29T20:49:25.000Z</time>
      </trkpt>
      <trkpt lat="48.85955" lon="2.34701">
        <ele>45.799999237061</ele>
        <time>2017-05-29T20:49:33.000Z</time>
      </trkpt>
      <trkpt lat="48.85955" lon="2.34701">
        <ele>45.799999237061</ele>
        <time>2017-05-29T20:49:34.000Z</time>
      </trkpt>
      <trkpt lat="48.85953" lon="2.34706">
        <ele>45.599998474121</ele>
        <time>2017-05-29T20:49:37.000Z</time>
      </trkpt>
      <trkpt lat="48.85952" lon="2.34707">
        <ele>45.599998474121</ele>
        <time>2017-05-29T20:49:39.000Z</time>
      </trkpt>
      <trkpt lat="48.85952" lon="2.34709">
        <ele>45.599998474121</ele>
        <time>2017-05-29T20:49:44.000Z</time>
      </trkpt>
    </trkseg>
  </trk>
</gpx>